<?xml version="1.0" encoding="UTF-8" standalone="no" ?>
<gpx xmlns="http://www.topografix.com/GPX/1/1" xmlns:xsi="http://www.w3.org/2001/XMLSchema-instance" xsi:schemaLocation="http://www.topografix.com/GPX/1/1 http://www.topografix.com/GPX/1/1/gpx.xsd" version="1.1" creator="VisuGPX - https://www.visugpx.com">
  <metadata>
    <name>Lectoure - Le Maçon</name>
  </metadata>
  <trk>
    <name><![CDATA[16 août 2022 à 11:22:24]]></name>
    <extensions>
      <line xmlns="http://www.topografix.com/GPX/gpx_style/0/2">
        <color>0000FF</color>
        <width>4</width>
      </line>
    </extensions>
    <trkseg>
      <trkpt lat="43.93389" lon="0.62549">
        <ele>242.116367</ele>
        <time>2022-08-16T08:33:26.267Z</time>
      </trkpt>
      <trkpt lat="43.93399" lon="0.62544">
        <ele>242.116367</ele>
        <time>2022-08-16T08:33:31.267Z</time>
      </trkpt>
      <trkpt lat="43.93407" lon="0.62536">
        <ele>242.116367</ele>
        <time>2022-08-16T08:33:36.267Z</time>
      </trkpt>
      <trkpt lat="43.93409" lon="0.62524">
        <ele>242.116367</ele>
        <time>2022-08-16T08:33:43.267Z</time>
      </trkpt>
      <trkpt lat="43.9341" lon="0.62511">
        <ele>242.116367</ele>
        <time>2022-08-16T08:33:52.267Z</time>
      </trkpt>
      <trkpt lat="43.93408" lon="0.62498">
        <ele>242.116367</ele>
        <time>2022-08-16T08:34:01.267Z</time>
      </trkpt>
      <trkpt lat="43.93408" lon="0.62485">
        <ele>242.116367</ele>
        <time>2022-08-16T08:34:11.267Z</time>
      </trkpt>
      <trkpt lat="43.93403" lon="0.62473">
        <ele>242.116367</ele>
        <time>2022-08-16T08:34:19.267Z</time>
      </trkpt>
      <trkpt lat="43.93395" lon="0.62463">
        <ele>242.116367</ele>
        <time>2022-08-16T08:34:27.267Z</time>
      </trkpt>
      <trkpt lat="43.93389" lon="0.62454">
        <ele>242.116367</ele>
        <time>2022-08-16T08:34:32.267Z</time>
      </trkpt>
      <trkpt lat="43.93382" lon="0.62444">
        <ele>241.668781</ele>
        <time>2022-08-16T08:34:38.267Z</time>
      </trkpt>
      <trkpt lat="43.93376" lon="0.62434">
        <ele>240.965732</ele>
        <time>2022-08-16T08:34:44.267Z</time>
      </trkpt>
      <trkpt lat="43.93369" lon="0.62425">
        <ele>240.288991</ele>
        <time>2022-08-16T08:34:51.267Z</time>
      </trkpt>
      <trkpt lat="43.93367" lon="0.62412">
        <ele>239.563631</ele>
        <time>2022-08-16T08:35:01.267Z</time>
      </trkpt>
      <trkpt lat="43.93366" lon="0.62399">
        <ele>238.902736</ele>
        <time>2022-08-16T08:35:11.267Z</time>
      </trkpt>
      <trkpt lat="43.93359" lon="0.62391">
        <ele>238.243977</ele>
        <time>2022-08-16T08:35:22.088Z</time>
      </trkpt>
      <trkpt lat="43.93394" lon="0.62345">
        <ele>234.735476</ele>
        <time>2022-08-16T08:36:49.267Z</time>
      </trkpt>
      <trkpt lat="43.93405" lon="0.62314">
        <ele>232.957774</ele>
        <time>2022-08-16T08:42:02.267Z</time>
      </trkpt>
      <trkpt lat="43.93397" lon="0.62309">
        <ele>232.283905</ele>
        <time>2022-08-16T08:42:32.267Z</time>
      </trkpt>
      <trkpt lat="43.93396" lon="0.62295">
        <ele>231.56368</ele>
        <time>2022-08-16T08:43:09.267Z</time>
      </trkpt>
      <trkpt lat="43.93394" lon="0.62283">
        <ele>230.894403</ele>
        <time>2022-08-16T08:43:17.267Z</time>
      </trkpt>
      <trkpt lat="43.9339" lon="0.6227">
        <ele>230.162826</ele>
        <time>2022-08-16T08:43:24.267Z</time>
      </trkpt>
      <trkpt lat="43.93392" lon="0.62256">
        <ele>229.42586</ele>
        <time>2022-08-16T08:43:32.267Z</time>
      </trkpt>
      <trkpt lat="43.93395" lon="0.62242">
        <ele>228.762936</ele>
        <time>2022-08-16T08:43:42.267Z</time>
      </trkpt>
      <trkpt lat="43.93392" lon="0.6223">
        <ele>228.198337</ele>
        <time>2022-08-16T08:43:49.267Z</time>
      </trkpt>
      <trkpt lat="43.93389" lon="0.62218">
        <ele>227.613103</ele>
        <time>2022-08-16T08:43:57.267Z</time>
      </trkpt>
      <trkpt lat="43.93387" lon="0.62204">
        <ele>226.968896</ele>
        <time>2022-08-16T08:44:07.267Z</time>
      </trkpt>
      <trkpt lat="43.93387" lon="0.6219">
        <ele>226.344161</ele>
        <time>2022-08-16T08:44:13.267Z</time>
      </trkpt>
      <trkpt lat="43.93392" lon="0.62179">
        <ele>225.754235</ele>
        <time>2022-08-16T08:44:19.267Z</time>
      </trkpt>
      <trkpt lat="43.93395" lon="0.62166">
        <ele>225.142451</ele>
        <time>2022-08-16T08:44:27.267Z</time>
      </trkpt>
      <trkpt lat="43.93398" lon="0.62152">
        <ele>224.510534</ele>
        <time>2022-08-16T08:44:34.267Z</time>
      </trkpt>
      <trkpt lat="43.93396" lon="0.62138">
        <ele>223.868504</ele>
        <time>2022-08-16T08:44:41.267Z</time>
      </trkpt>
      <trkpt lat="43.93401" lon="0.62127">
        <ele>223.287635</ele>
        <time>2022-08-16T08:44:48.267Z</time>
      </trkpt>
      <trkpt lat="43.93407" lon="0.62114">
        <ele>222.610522</ele>
        <time>2022-08-16T08:44:57.267Z</time>
      </trkpt>
      <trkpt lat="43.93407" lon="0.62101">
        <ele>222.031062</ele>
        <time>2022-08-16T08:45:06.267Z</time>
      </trkpt>
      <trkpt lat="43.93402" lon="0.62088">
        <ele>221.369197</ele>
        <time>2022-08-16T08:45:13.267Z</time>
      </trkpt>
      <trkpt lat="43.93412" lon="0.62083">
        <ele>220.721575</ele>
        <time>2022-08-16T08:45:17.267Z</time>
      </trkpt>
      <trkpt lat="43.9342" lon="0.62078">
        <ele>220.148043</ele>
        <time>2022-08-16T08:45:21.267Z</time>
      </trkpt>
      <trkpt lat="43.93428" lon="0.6207">
        <ele>219.53795</ele>
        <time>2022-08-16T08:45:27.267Z</time>
      </trkpt>
      <trkpt lat="43.93438" lon="0.62063">
        <ele>218.843578</ele>
        <time>2022-08-16T08:45:32.267Z</time>
      </trkpt>
      <trkpt lat="43.93447" lon="0.62053">
        <ele>218.135855</ele>
        <time>2022-08-16T08:45:37.267Z</time>
      </trkpt>
      <trkpt lat="43.93452" lon="0.62041">
        <ele>217.960656</ele>
        <time>2022-08-16T08:45:45.267Z</time>
      </trkpt>
      <trkpt lat="43.93452" lon="0.62029">
        <ele>217.942969</ele>
        <time>2022-08-16T08:45:51.267Z</time>
      </trkpt>
      <trkpt lat="43.93459" lon="0.62017">
        <ele>217.922907</ele>
        <time>2022-08-16T08:45:59.267Z</time>
      </trkpt>
      <trkpt lat="43.93467" lon="0.62008">
        <ele>217.902896</ele>
        <time>2022-08-16T08:46:04.267Z</time>
      </trkpt>
      <trkpt lat="43.93468" lon="0.61994">
        <ele>217.883516</ele>
        <time>2022-08-16T08:46:14.267Z</time>
      </trkpt>
      <trkpt lat="43.93473" lon="0.61981">
        <ele>217.863502</ele>
        <time>2022-08-16T08:46:22.267Z</time>
      </trkpt>
      <trkpt lat="43.93481" lon="0.61971">
        <ele>217.842841</ele>
        <time>2022-08-16T08:46:29.267Z</time>
      </trkpt>
      <trkpt lat="43.93486" lon="0.61959">
        <ele>217.823563</ele>
        <time>2022-08-16T08:46:34.267Z</time>
      </trkpt>
      <trkpt lat="43.93489" lon="0.61946">
        <ele>217.805104</ele>
        <time>2022-08-16T08:46:40.267Z</time>
      </trkpt>
      <trkpt lat="43.93491" lon="0.61934">
        <ele>217.787266</ele>
        <time>2022-08-16T08:46:58.267Z</time>
      </trkpt>
      <trkpt lat="43.93495" lon="0.61922">
        <ele>217.769393</ele>
        <time>2022-08-16T08:47:08.267Z</time>
      </trkpt>
      <trkpt lat="43.93497" lon="0.61909">
        <ele>217.751585</ele>
        <time>2022-08-16T08:47:15.267Z</time>
      </trkpt>
      <trkpt lat="43.93504" lon="0.61898">
        <ele>217.732331</ele>
        <time>2022-08-16T08:47:22.267Z</time>
      </trkpt>
      <trkpt lat="43.93507" lon="0.61886">
        <ele>217.714533</ele>
        <time>2022-08-16T08:47:32.267Z</time>
      </trkpt>
      <trkpt lat="43.93512" lon="0.61874">
        <ele>217.694967</ele>
        <time>2022-08-16T08:47:41.267Z</time>
      </trkpt>
      <trkpt lat="43.93512" lon="0.6186">
        <ele>217.676348</ele>
        <time>2022-08-16T08:47:46.267Z</time>
      </trkpt>
      <trkpt lat="43.9351" lon="0.61847">
        <ele>217.658549</ele>
        <time>2022-08-16T08:48:03.267Z</time>
      </trkpt>
      <trkpt lat="43.93515" lon="0.61826">
        <ele>217.563747</ele>
        <time>2022-08-16T08:49:01.267Z</time>
      </trkpt>
      <trkpt lat="43.9352" lon="0.61814">
        <ele>217.128177</ele>
        <time>2022-08-16T08:49:10.267Z</time>
      </trkpt>
      <trkpt lat="43.93529" lon="0.61806">
        <ele>216.675117</ele>
        <time>2022-08-16T08:49:17.267Z</time>
      </trkpt>
      <trkpt lat="43.93533" lon="0.61793">
        <ele>216.215746</ele>
        <time>2022-08-16T08:49:24.267Z</time>
      </trkpt>
      <trkpt lat="43.93538" lon="0.6178">
        <ele>215.757188</ele>
        <time>2022-08-16T08:49:32.267Z</time>
      </trkpt>
      <trkpt lat="43.93542" lon="0.61766">
        <ele>215.281791</ele>
        <time>2022-08-16T08:49:41.267Z</time>
      </trkpt>
      <trkpt lat="43.93546" lon="0.61754">
        <ele>214.85212</ele>
        <time>2022-08-16T08:49:49.267Z</time>
      </trkpt>
      <trkpt lat="43.93549" lon="0.61741">
        <ele>214.418589</ele>
        <time>2022-08-16T08:49:56.267Z</time>
      </trkpt>
      <trkpt lat="43.93553" lon="0.61728">
        <ele>213.970007</ele>
        <time>2022-08-16T08:50:03.267Z</time>
      </trkpt>
      <trkpt lat="43.93556" lon="0.61715">
        <ele>213.54645</ele>
        <time>2022-08-16T08:50:10.267Z</time>
      </trkpt>
      <trkpt lat="43.93565" lon="0.61715">
        <ele>213.144607</ele>
        <time>2022-08-16T08:50:22.267Z</time>
      </trkpt>
      <trkpt lat="43.93575" lon="0.61716">
        <ele>212.742274</ele>
        <time>2022-08-16T08:50:54.267Z</time>
      </trkpt>
      <trkpt lat="43.93582" lon="0.61725">
        <ele>212.315951</ele>
        <time>2022-08-16T08:51:01.267Z</time>
      </trkpt>
      <trkpt lat="43.93591" lon="0.61725">
        <ele>211.887523</ele>
        <time>2022-08-16T08:51:08.267Z</time>
      </trkpt>
      <trkpt lat="43.93601" lon="0.61726">
        <ele>211.471008</ele>
        <time>2022-08-16T08:51:20.267Z</time>
      </trkpt>
      <trkpt lat="43.9361" lon="0.61721">
        <ele>211.022153</ele>
        <time>2022-08-16T08:51:30.267Z</time>
      </trkpt>
      <trkpt lat="43.93616" lon="0.61711">
        <ele>210.60857</ele>
        <time>2022-08-16T08:51:35.267Z</time>
      </trkpt>
      <trkpt lat="43.93621" lon="0.61699">
        <ele>210.179423</ele>
        <time>2022-08-16T08:51:43.267Z</time>
      </trkpt>
      <trkpt lat="43.93626" lon="0.61688">
        <ele>209.770743</ele>
        <time>2022-08-16T08:51:54.267Z</time>
      </trkpt>
      <trkpt lat="43.93627" lon="0.61674">
        <ele>209.486936</ele>
        <time>2022-08-16T08:52:01.267Z</time>
      </trkpt>
      <trkpt lat="43.93628" lon="0.61661">
        <ele>209.260583</ele>
        <time>2022-08-16T08:52:08.267Z</time>
      </trkpt>
      <trkpt lat="43.93628" lon="0.61648">
        <ele>209.028413</ele>
        <time>2022-08-16T08:52:14.267Z</time>
      </trkpt>
      <trkpt lat="43.93626" lon="0.61634">
        <ele>208.794245</ele>
        <time>2022-08-16T08:52:20.267Z</time>
      </trkpt>
      <trkpt lat="43.93628" lon="0.6162">
        <ele>208.543607</ele>
        <time>2022-08-16T08:52:30.267Z</time>
      </trkpt>
      <trkpt lat="43.93631" lon="0.61607">
        <ele>208.309512</ele>
        <time>2022-08-16T08:52:37.267Z</time>
      </trkpt>
      <trkpt lat="43.93633" lon="0.61595">
        <ele>208.091654</ele>
        <time>2022-08-16T08:52:43.267Z</time>
      </trkpt>
      <trkpt lat="43.93634" lon="0.61583">
        <ele>207.872879</ele>
        <time>2022-08-16T08:52:50.267Z</time>
      </trkpt>
      <trkpt lat="43.9364" lon="0.61595">
        <ele>207.615905</ele>
        <time>2022-08-16T08:53:05.267Z</time>
      </trkpt>
      <trkpt lat="43.93641" lon="0.61608">
        <ele>207.387032</ele>
        <time>2022-08-16T08:53:10.267Z</time>
      </trkpt>
      <trkpt lat="43.93641" lon="0.61622">
        <ele>207.149716</ele>
        <time>2022-08-16T08:53:17.267Z</time>
      </trkpt>
      <trkpt lat="43.9364" lon="0.61634">
        <ele>206.931498</ele>
        <time>2022-08-16T08:53:23.267Z</time>
      </trkpt>
      <trkpt lat="43.93637" lon="0.61648">
        <ele>206.685455</ele>
        <time>2022-08-16T08:53:31.267Z</time>
      </trkpt>
      <trkpt lat="43.93632" lon="0.61661">
        <ele>206.425486</ele>
        <time>2022-08-16T08:53:38.267Z</time>
      </trkpt>
      <trkpt lat="43.93627" lon="0.61673">
        <ele>206.188641</ele>
        <time>2022-08-16T08:53:45.267Z</time>
      </trkpt>
      <trkpt lat="43.93625" lon="0.61686">
        <ele>205.954271</ele>
        <time>2022-08-16T08:53:52.267Z</time>
      </trkpt>
      <trkpt lat="43.93622" lon="0.617">
        <ele>205.704247</ele>
        <time>2022-08-16T08:54:02.267Z</time>
      </trkpt>
      <trkpt lat="43.93619" lon="0.61715">
        <ele>205.447658</ele>
        <time>2022-08-16T08:54:09.267Z</time>
      </trkpt>
      <trkpt lat="43.93613" lon="0.61724">
        <ele>205.488533</ele>
        <time>2022-08-16T08:54:15.267Z</time>
      </trkpt>
      <trkpt lat="43.93604" lon="0.61727">
        <ele>205.67953</ele>
        <time>2022-08-16T08:54:22.267Z</time>
      </trkpt>
      <trkpt lat="43.93594" lon="0.61728">
        <ele>205.885952</ele>
        <time>2022-08-16T08:54:31.267Z</time>
      </trkpt>
      <trkpt lat="43.93585" lon="0.61731">
        <ele>206.090141</ele>
        <time>2022-08-16T08:54:42.267Z</time>
      </trkpt>
      <trkpt lat="43.93576" lon="0.6173">
        <ele>206.282487</ele>
        <time>2022-08-16T08:54:49.267Z</time>
      </trkpt>
      <trkpt lat="43.93574" lon="0.61716">
        <ele>206.485163</ele>
        <time>2022-08-16T08:55:00.267Z</time>
      </trkpt>
      <trkpt lat="43.93581" lon="0.61708">
        <ele>206.681711</ele>
        <time>2022-08-16T08:55:07.267Z</time>
      </trkpt>
      <trkpt lat="43.93587" lon="0.61696">
        <ele>206.884915</ele>
        <time>2022-08-16T08:55:14.267Z</time>
      </trkpt>
      <trkpt lat="43.93588" lon="0.61683">
        <ele>207.081128</ele>
        <time>2022-08-16T08:55:22.267Z</time>
      </trkpt>
      <trkpt lat="43.93595" lon="0.61675">
        <ele>207.280225</ele>
        <time>2022-08-16T08:55:29.267Z</time>
      </trkpt>
      <trkpt lat="43.93602" lon="0.61664">
        <ele>207.481284</ele>
        <time>2022-08-16T08:55:36.267Z</time>
      </trkpt>
      <trkpt lat="43.93605" lon="0.61652">
        <ele>207.674201</ele>
        <time>2022-08-16T08:55:44.267Z</time>
      </trkpt>
      <trkpt lat="43.93608" lon="0.6164">
        <ele>207.861858</ele>
        <time>2022-08-16T08:55:50.267Z</time>
      </trkpt>
      <trkpt lat="43.93608" lon="0.61627">
        <ele>208.059895</ele>
        <time>2022-08-16T08:55:56.267Z</time>
      </trkpt>
      <trkpt lat="43.93613" lon="0.61615">
        <ele>208.271149</ele>
        <time>2022-08-16T08:56:04.267Z</time>
      </trkpt>
      <trkpt lat="43.93615" lon="0.61602">
        <ele>208.470863</ele>
        <time>2022-08-16T08:56:10.267Z</time>
      </trkpt>
      <trkpt lat="43.93617" lon="0.61588">
        <ele>208.685157</ele>
        <time>2022-08-16T08:56:18.267Z</time>
      </trkpt>
      <trkpt lat="43.93625" lon="0.61582">
        <ele>208.883636</ele>
        <time>2022-08-16T08:56:30.267Z</time>
      </trkpt>
      <trkpt lat="43.93634" lon="0.6156">
        <ele>208.310976</ele>
        <time>2022-08-16T08:57:52.267Z</time>
      </trkpt>
      <trkpt lat="43.93636" lon="0.61548">
        <ele>207.221358</ele>
        <time>2022-08-16T08:58:07.267Z</time>
      </trkpt>
      <trkpt lat="43.93628" lon="0.61552">
        <ele>206.132962</ele>
        <time>2022-08-16T08:58:29.267Z</time>
      </trkpt>
      <trkpt lat="43.93618" lon="0.61548">
        <ele>204.962363</ele>
        <time>2022-08-16T08:58:42.267Z</time>
      </trkpt>
      <trkpt lat="43.93614" lon="0.6152">
        <ele>202.492032</ele>
        <time>2022-08-16T09:00:02.267Z</time>
      </trkpt>
      <trkpt lat="43.93622" lon="0.61528">
        <ele>201.326903</ele>
        <time>2022-08-16T09:00:21.267Z</time>
      </trkpt>
      <trkpt lat="43.93631" lon="0.61527">
        <ele>200.235963</ele>
        <time>2022-08-16T09:00:28.267Z</time>
      </trkpt>
      <trkpt lat="43.93641" lon="0.61532">
        <ele>198.994915</ele>
        <time>2022-08-16T09:00:37.267Z</time>
      </trkpt>
      <trkpt lat="43.9365" lon="0.61538">
        <ele>197.809814</ele>
        <time>2022-08-16T09:00:43.267Z</time>
      </trkpt>
      <trkpt lat="43.93648" lon="0.61526">
        <ele>196.717374</ele>
        <time>2022-08-16T09:01:00.267Z</time>
      </trkpt>
      <trkpt lat="43.9364" lon="0.61518">
        <ele>195.586167</ele>
        <time>2022-08-16T09:01:07.267Z</time>
      </trkpt>
      <trkpt lat="43.93631" lon="0.61508">
        <ele>194.266695</ele>
        <time>2022-08-16T09:01:14.267Z</time>
      </trkpt>
      <trkpt lat="43.93622" lon="0.61503">
        <ele>193.099868</ele>
        <time>2022-08-16T09:01:19.267Z</time>
      </trkpt>
      <trkpt lat="43.93624" lon="0.61491">
        <ele>192.003352</ele>
        <time>2022-08-16T09:01:30.267Z</time>
      </trkpt>
      <trkpt lat="43.93631" lon="0.61482">
        <ele>190.89354</ele>
        <time>2022-08-16T09:01:44.267Z</time>
      </trkpt>
      <trkpt lat="43.93641" lon="0.61478">
        <ele>189.615048</ele>
        <time>2022-08-16T09:01:52.267Z</time>
      </trkpt>
      <trkpt lat="43.93651" lon="0.61477">
        <ele>188.452806</ele>
        <time>2022-08-16T09:01:57.267Z</time>
      </trkpt>
      <trkpt lat="43.9366" lon="0.61477">
        <ele>187.319914</ele>
        <time>2022-08-16T09:02:04.267Z</time>
      </trkpt>
      <trkpt lat="43.9367" lon="0.61478">
        <ele>185.922676</ele>
        <time>2022-08-16T09:02:11.267Z</time>
      </trkpt>
      <trkpt lat="43.93678" lon="0.61476">
        <ele>184.622992</ele>
        <time>2022-08-16T09:02:17.267Z</time>
      </trkpt>
      <trkpt lat="43.93687" lon="0.6147">
        <ele>183.26331</ele>
        <time>2022-08-16T09:02:26.267Z</time>
      </trkpt>
      <trkpt lat="43.93689" lon="0.61458">
        <ele>181.920213</ele>
        <time>2022-08-16T09:02:33.267Z</time>
      </trkpt>
      <trkpt lat="43.93682" lon="0.61447">
        <ele>180.458247</ele>
        <time>2022-08-16T09:02:43.267Z</time>
      </trkpt>
      <trkpt lat="43.93673" lon="0.61439">
        <ele>179.001745</ele>
        <time>2022-08-16T09:02:47.267Z</time>
      </trkpt>
      <trkpt lat="43.93665" lon="0.6143">
        <ele>177.508167</ele>
        <time>2022-08-16T09:02:53.267Z</time>
      </trkpt>
      <trkpt lat="43.93659" lon="0.61421">
        <ele>176.215858</ele>
        <time>2022-08-16T09:02:59.267Z</time>
      </trkpt>
      <trkpt lat="43.93649" lon="0.61416">
        <ele>174.742134</ele>
        <time>2022-08-16T09:03:07.267Z</time>
      </trkpt>
      <trkpt lat="43.93642" lon="0.61406">
        <ele>173.305093</ele>
        <time>2022-08-16T09:03:13.267Z</time>
      </trkpt>
      <trkpt lat="43.93636" lon="0.61395">
        <ele>171.843121</ele>
        <time>2022-08-16T09:03:19.267Z</time>
      </trkpt>
      <trkpt lat="43.93628" lon="0.61386">
        <ele>170.395646</ele>
        <time>2022-08-16T09:03:26.267Z</time>
      </trkpt>
      <trkpt lat="43.93622" lon="0.61376">
        <ele>169.023558</ele>
        <time>2022-08-16T09:03:33.267Z</time>
      </trkpt>
      <trkpt lat="43.93618" lon="0.61363">
        <ele>167.605676</ele>
        <time>2022-08-16T09:03:40.267Z</time>
      </trkpt>
      <trkpt lat="43.93615" lon="0.6135">
        <ele>166.09698</ele>
        <time>2022-08-16T09:03:48.267Z</time>
      </trkpt>
      <trkpt lat="43.93609" lon="0.61338">
        <ele>164.635942</ele>
        <time>2022-08-16T09:03:54.267Z</time>
      </trkpt>
      <trkpt lat="43.93604" lon="0.61327">
        <ele>163.331332</ele>
        <time>2022-08-16T09:04:00.267Z</time>
      </trkpt>
      <trkpt lat="43.936" lon="0.61315">
        <ele>161.973301</ele>
        <time>2022-08-16T09:04:08.267Z</time>
      </trkpt>
      <trkpt lat="43.93596" lon="0.61303">
        <ele>160.957845</ele>
        <time>2022-08-16T09:04:16.267Z</time>
      </trkpt>
      <trkpt lat="43.9359" lon="0.61293">
        <ele>160.018581</ele>
        <time>2022-08-16T09:04:24.267Z</time>
      </trkpt>
      <trkpt lat="43.93582" lon="0.61285">
        <ele>159.067283</ele>
        <time>2022-08-16T09:04:32.267Z</time>
      </trkpt>
      <trkpt lat="43.93573" lon="0.61279">
        <ele>158.072811</ele>
        <time>2022-08-16T09:04:40.267Z</time>
      </trkpt>
      <trkpt lat="43.93566" lon="0.61273">
        <ele>157.180404</ele>
        <time>2022-08-16T09:04:44.267Z</time>
      </trkpt>
      <trkpt lat="43.93559" lon="0.61264">
        <ele>156.275382</ele>
        <time>2022-08-16T09:04:52.267Z</time>
      </trkpt>
      <trkpt lat="43.9355" lon="0.61257">
        <ele>155.259053</ele>
        <time>2022-08-16T09:05:05.267Z</time>
      </trkpt>
      <trkpt lat="43.9354" lon="0.61253">
        <ele>154.254005</ele>
        <time>2022-08-16T09:05:13.267Z</time>
      </trkpt>
      <trkpt lat="43.93531" lon="0.61255">
        <ele>153.287678</ele>
        <time>2022-08-16T09:05:20.267Z</time>
      </trkpt>
      <trkpt lat="43.93521" lon="0.61259">
        <ele>152.283973</ele>
        <time>2022-08-16T09:05:28.267Z</time>
      </trkpt>
      <trkpt lat="43.93511" lon="0.61259">
        <ele>151.271971</ele>
        <time>2022-08-16T09:05:33.267Z</time>
      </trkpt>
      <trkpt lat="43.93501" lon="0.61257">
        <ele>150.269801</ele>
        <time>2022-08-16T09:05:38.267Z</time>
      </trkpt>
      <trkpt lat="43.93491" lon="0.61258">
        <ele>149.285682</ele>
        <time>2022-08-16T09:05:45.267Z</time>
      </trkpt>
      <trkpt lat="43.93486" lon="0.61246">
        <ele>148.314847</ele>
        <time>2022-08-16T09:05:53.267Z</time>
      </trkpt>
      <trkpt lat="43.93477" lon="0.61249">
        <ele>147.360912</ele>
        <time>2022-08-16T09:06:00.267Z</time>
      </trkpt>
      <trkpt lat="43.93466" lon="0.61252">
        <ele>146.289248</ele>
        <time>2022-08-16T09:06:07.267Z</time>
      </trkpt>
      <trkpt lat="43.93456" lon="0.61256">
        <ele>145.290846</ele>
        <time>2022-08-16T09:06:15.267Z</time>
      </trkpt>
      <trkpt lat="43.93447" lon="0.61263">
        <ele>144.228628</ele>
        <time>2022-08-16T09:06:22.267Z</time>
      </trkpt>
      <trkpt lat="43.93438" lon="0.61268">
        <ele>143.414392</ele>
        <time>2022-08-16T09:06:29.267Z</time>
      </trkpt>
      <trkpt lat="43.9343" lon="0.61273">
        <ele>142.668429</ele>
        <time>2022-08-16T09:06:36.267Z</time>
      </trkpt>
      <trkpt lat="43.93421" lon="0.61277">
        <ele>141.905224</ele>
        <time>2022-08-16T09:06:42.267Z</time>
      </trkpt>
      <trkpt lat="43.93412" lon="0.61281">
        <ele>141.120948</ele>
        <time>2022-08-16T09:06:51.267Z</time>
      </trkpt>
      <trkpt lat="43.93402" lon="0.61286">
        <ele>140.319371</ele>
        <time>2022-08-16T09:06:59.267Z</time>
      </trkpt>
      <trkpt lat="43.93394" lon="0.61291">
        <ele>139.543761</ele>
        <time>2022-08-16T09:07:05.267Z</time>
      </trkpt>
      <trkpt lat="43.93385" lon="0.61296">
        <ele>138.788278</ele>
        <time>2022-08-16T09:07:12.267Z</time>
      </trkpt>
      <trkpt lat="43.93375" lon="0.61292">
        <ele>137.978143</ele>
        <time>2022-08-16T09:07:21.267Z</time>
      </trkpt>
      <trkpt lat="43.9338" lon="0.6128">
        <ele>137.165779</ele>
        <time>2022-08-16T09:07:29.267Z</time>
      </trkpt>
      <trkpt lat="43.93385" lon="0.61269">
        <ele>136.395136</ele>
        <time>2022-08-16T09:07:37.267Z</time>
      </trkpt>
      <trkpt lat="43.93391" lon="0.61258">
        <ele>135.610331</ele>
        <time>2022-08-16T09:07:45.267Z</time>
      </trkpt>
      <trkpt lat="43.93397" lon="0.61247">
        <ele>134.796987</ele>
        <time>2022-08-16T09:07:54.267Z</time>
      </trkpt>
      <trkpt lat="43.93398" lon="0.61235">
        <ele>134.048438</ele>
        <time>2022-08-16T09:08:02.267Z</time>
      </trkpt>
      <trkpt lat="43.934" lon="0.61221">
        <ele>133.265172</ele>
        <time>2022-08-16T09:08:09.267Z</time>
      </trkpt>
      <trkpt lat="43.93402" lon="0.61209">
        <ele>132.517086</ele>
        <time>2022-08-16T09:08:15.267Z</time>
      </trkpt>
      <trkpt lat="43.93403" lon="0.61197">
        <ele>131.78077</ele>
        <time>2022-08-16T09:08:21.267Z</time>
      </trkpt>
      <trkpt lat="43.93406" lon="0.61185">
        <ele>131.038865</ele>
        <time>2022-08-16T09:08:30.267Z</time>
      </trkpt>
      <trkpt lat="43.93409" lon="0.61172">
        <ele>130.266806</ele>
        <time>2022-08-16T09:08:37.267Z</time>
      </trkpt>
      <trkpt lat="43.93408" lon="0.6116">
        <ele>129.533471</ele>
        <time>2022-08-16T09:08:43.267Z</time>
      </trkpt>
      <trkpt lat="43.93411" lon="0.61147">
        <ele>128.984432</ele>
        <time>2022-08-16T09:08:50.267Z</time>
      </trkpt>
      <trkpt lat="43.93412" lon="0.61135">
        <ele>128.556348</ele>
        <time>2022-08-16T09:08:56.267Z</time>
      </trkpt>
      <trkpt lat="43.93418" lon="0.61124">
        <ele>128.10619</ele>
        <time>2022-08-16T09:09:15.267Z</time>
      </trkpt>
      <trkpt lat="43.9342" lon="0.61109">
        <ele>127.573891</ele>
        <time>2022-08-16T09:09:24.267Z</time>
      </trkpt>
      <trkpt lat="43.93422" lon="0.61096">
        <ele>127.113991</ele>
        <time>2022-08-16T09:09:30.267Z</time>
      </trkpt>
      <trkpt lat="43.93425" lon="0.61083">
        <ele>126.679303</ele>
        <time>2022-08-16T09:09:38.267Z</time>
      </trkpt>
      <trkpt lat="43.93426" lon="0.61069">
        <ele>126.201833</ele>
        <time>2022-08-16T09:09:44.267Z</time>
      </trkpt>
      <trkpt lat="43.93428" lon="0.61056">
        <ele>125.732933</ele>
        <time>2022-08-16T09:09:51.267Z</time>
      </trkpt>
      <trkpt lat="43.9343" lon="0.61043">
        <ele>125.283873</ele>
        <time>2022-08-16T09:10:00.267Z</time>
      </trkpt>
      <trkpt lat="43.93434" lon="0.6103">
        <ele>124.813373</ele>
        <time>2022-08-16T09:10:08.267Z</time>
      </trkpt>
      <trkpt lat="43.93437" lon="0.61017">
        <ele>124.354105</ele>
        <time>2022-08-16T09:10:15.267Z</time>
      </trkpt>
      <trkpt lat="43.93441" lon="0.61003">
        <ele>123.870752</ele>
        <time>2022-08-16T09:10:23.267Z</time>
      </trkpt>
      <trkpt lat="43.93441" lon="0.60991">
        <ele>123.440098</ele>
        <time>2022-08-16T09:10:30.267Z</time>
      </trkpt>
      <trkpt lat="43.93445" lon="0.60979">
        <ele>122.992279</ele>
        <time>2022-08-16T09:10:40.267Z</time>
      </trkpt>
      <trkpt lat="43.93447" lon="0.60966">
        <ele>122.553126</ele>
        <time>2022-08-16T09:10:47.267Z</time>
      </trkpt>
      <trkpt lat="43.93449" lon="0.60954">
        <ele>122.13004</ele>
        <time>2022-08-16T09:10:53.267Z</time>
      </trkpt>
      <trkpt lat="43.9345" lon="0.60941">
        <ele>121.698953</ele>
        <time>2022-08-16T09:10:59.267Z</time>
      </trkpt>
      <trkpt lat="43.9345" lon="0.60928">
        <ele>121.269528</ele>
        <time>2022-08-16T09:11:04.267Z</time>
      </trkpt>
      <trkpt lat="43.9345" lon="0.60916">
        <ele>120.843659</ele>
        <time>2022-08-16T09:11:10.267Z</time>
      </trkpt>
      <trkpt lat="43.9345" lon="0.60902">
        <ele>120.628825</ele>
        <time>2022-08-16T09:11:17.267Z</time>
      </trkpt>
      <trkpt lat="43.9345" lon="0.60889">
        <ele>120.42628</ele>
        <time>2022-08-16T09:11:26.267Z</time>
      </trkpt>
      <trkpt lat="43.93453" lon="0.60877">
        <ele>120.224918</ele>
        <time>2022-08-16T09:11:34.267Z</time>
      </trkpt>
      <trkpt lat="43.93455" lon="0.60863">
        <ele>120.009782</ele>
        <time>2022-08-16T09:11:41.267Z</time>
      </trkpt>
      <trkpt lat="43.93457" lon="0.6085">
        <ele>119.803997</ele>
        <time>2022-08-16T09:11:49.267Z</time>
      </trkpt>
      <trkpt lat="43.93461" lon="0.60838">
        <ele>119.594334</ele>
        <time>2022-08-16T09:11:56.267Z</time>
      </trkpt>
      <trkpt lat="43.93463" lon="0.60824">
        <ele>119.374978</ele>
        <time>2022-08-16T09:12:05.267Z</time>
      </trkpt>
      <trkpt lat="43.93465" lon="0.60811">
        <ele>119.174693</ele>
        <time>2022-08-16T09:12:12.267Z</time>
      </trkpt>
      <trkpt lat="43.93462" lon="0.60776">
        <ele>118.622623</ele>
        <time>2022-08-16T09:12:48.267Z</time>
      </trkpt>
      <trkpt lat="43.93465" lon="0.60763">
        <ele>118.416821</ele>
        <time>2022-08-16T09:12:55.267Z</time>
      </trkpt>
      <trkpt lat="43.93468" lon="0.60751">
        <ele>118.204561</ele>
        <time>2022-08-16T09:13:10.267Z</time>
      </trkpt>
      <trkpt lat="43.9347" lon="0.60738">
        <ele>118.008936</ele>
        <time>2022-08-16T09:13:17.267Z</time>
      </trkpt>
      <trkpt lat="43.93469" lon="0.60726">
        <ele>117.813693</ele>
        <time>2022-08-16T09:13:25.267Z</time>
      </trkpt>
      <trkpt lat="43.93471" lon="0.60713">
        <ele>117.616452</ele>
        <time>2022-08-16T09:13:30.267Z</time>
      </trkpt>
      <trkpt lat="43.93474" lon="0.60701">
        <ele>117.411298</ele>
        <time>2022-08-16T09:13:36.267Z</time>
      </trkpt>
      <trkpt lat="43.93476" lon="0.60687">
        <ele>117.186838</ele>
        <time>2022-08-16T09:13:45.267Z</time>
      </trkpt>
      <trkpt lat="43.9348" lon="0.60674">
        <ele>116.968554</ele>
        <time>2022-08-16T09:13:52.267Z</time>
      </trkpt>
      <trkpt lat="43.93484" lon="0.60661">
        <ele>117.522564</ele>
        <time>2022-08-16T09:13:59.267Z</time>
      </trkpt>
      <trkpt lat="43.93486" lon="0.60649">
        <ele>118.074579</ele>
        <time>2022-08-16T09:14:06.267Z</time>
      </trkpt>
      <trkpt lat="43.93489" lon="0.60637">
        <ele>118.62297</ele>
        <time>2022-08-16T09:14:13.267Z</time>
      </trkpt>
      <trkpt lat="43.93491" lon="0.60623">
        <ele>119.225799</ele>
        <time>2022-08-16T09:14:20.267Z</time>
      </trkpt>
      <trkpt lat="43.93493" lon="0.60611">
        <ele>119.786786</ele>
        <time>2022-08-16T09:14:27.267Z</time>
      </trkpt>
      <trkpt lat="43.93495" lon="0.60598">
        <ele>120.34423</ele>
        <time>2022-08-16T09:14:34.267Z</time>
      </trkpt>
      <trkpt lat="43.93497" lon="0.60585">
        <ele>120.965755</ele>
        <time>2022-08-16T09:14:43.267Z</time>
      </trkpt>
      <trkpt lat="43.93496" lon="0.60572">
        <ele>121.537274</ele>
        <time>2022-08-16T09:14:50.267Z</time>
      </trkpt>
      <trkpt lat="43.93494" lon="0.60559">
        <ele>122.107506</ele>
        <time>2022-08-16T09:14:55.267Z</time>
      </trkpt>
      <trkpt lat="43.93492" lon="0.60547">
        <ele>122.655896</ele>
        <time>2022-08-16T09:15:01.267Z</time>
      </trkpt>
      <trkpt lat="43.93487" lon="0.60536">
        <ele>123.204998</ele>
        <time>2022-08-16T09:15:07.267Z</time>
      </trkpt>
      <trkpt lat="43.93483" lon="0.60523">
        <ele>123.824865</ele>
        <time>2022-08-16T09:15:15.267Z</time>
      </trkpt>
      <trkpt lat="43.93479" lon="0.6051">
        <ele>124.425952</ele>
        <time>2022-08-16T09:15:21.267Z</time>
      </trkpt>
      <trkpt lat="43.93477" lon="0.60497">
        <ele>125.03304</ele>
        <time>2022-08-16T09:15:27.267Z</time>
      </trkpt>
      <trkpt lat="43.93473" lon="0.60484">
        <ele>125.632207</ele>
        <time>2022-08-16T09:15:34.267Z</time>
      </trkpt>
      <trkpt lat="43.93471" lon="0.60471">
        <ele>126.221043</ele>
        <time>2022-08-16T09:15:41.267Z</time>
      </trkpt>
      <trkpt lat="43.9347" lon="0.60458">
        <ele>126.793179</ele>
        <time>2022-08-16T09:15:48.267Z</time>
      </trkpt>
      <trkpt lat="43.93468" lon="0.60444">
        <ele>127.394385</ele>
        <time>2022-08-16T09:15:55.267Z</time>
      </trkpt>
      <trkpt lat="43.93466" lon="0.60431">
        <ele>127.900763</ele>
        <time>2022-08-16T09:16:03.267Z</time>
      </trkpt>
      <trkpt lat="43.93464" lon="0.60417">
        <ele>127.9902</ele>
        <time>2022-08-16T09:16:10.267Z</time>
      </trkpt>
      <trkpt lat="43.93462" lon="0.60404">
        <ele>128.077674</ele>
        <time>2022-08-16T09:16:17.267Z</time>
      </trkpt>
      <trkpt lat="43.93462" lon="0.6039">
        <ele>128.165416</ele>
        <time>2022-08-16T09:16:25.267Z</time>
      </trkpt>
      <trkpt lat="43.93467" lon="0.60378">
        <ele>128.251202</ele>
        <time>2022-08-16T09:16:32.267Z</time>
      </trkpt>
      <trkpt lat="43.93474" lon="0.6037">
        <ele>128.335724</ele>
        <time>2022-08-16T09:16:38.267Z</time>
      </trkpt>
      <trkpt lat="43.93483" lon="0.60366">
        <ele>128.417086</ele>
        <time>2022-08-16T09:16:44.267Z</time>
      </trkpt>
      <trkpt lat="43.93492" lon="0.60363">
        <ele>128.497729</ele>
        <time>2022-08-16T09:16:51.267Z</time>
      </trkpt>
      <trkpt lat="43.93502" lon="0.60362">
        <ele>128.582569</ele>
        <time>2022-08-16T09:16:58.267Z</time>
      </trkpt>
      <trkpt lat="43.93512" lon="0.60361">
        <ele>128.671184</ele>
        <time>2022-08-16T09:17:06.267Z</time>
      </trkpt>
      <trkpt lat="43.93521" lon="0.6036">
        <ele>128.751829</ele>
        <time>2022-08-16T09:17:13.267Z</time>
      </trkpt>
      <trkpt lat="43.9353" lon="0.60358">
        <ele>128.834819</ele>
        <time>2022-08-16T09:17:22.267Z</time>
      </trkpt>
      <trkpt lat="43.93539" lon="0.60359">
        <ele>128.917045</ele>
        <time>2022-08-16T09:17:30.267Z</time>
      </trkpt>
      <trkpt lat="43.93548" lon="0.60363">
        <ele>128.999831</ele>
        <time>2022-08-16T09:17:36.267Z</time>
      </trkpt>
      <trkpt lat="43.93559" lon="0.60362">
        <ele>129.093553</ele>
        <time>2022-08-16T09:17:46.267Z</time>
      </trkpt>
      <trkpt lat="43.93568" lon="0.6036">
        <ele>129.179352</ele>
        <time>2022-08-16T09:17:52.267Z</time>
      </trkpt>
      <trkpt lat="43.93579" lon="0.60358">
        <ele>129.271357</ele>
        <time>2022-08-16T09:17:59.267Z</time>
      </trkpt>
      <trkpt lat="43.93588" lon="0.60357">
        <ele>129.357015</ele>
        <time>2022-08-16T09:18:07.267Z</time>
      </trkpt>
      <trkpt lat="43.93599" lon="0.60357">
        <ele>129.448006</ele>
        <time>2022-08-16T09:18:15.267Z</time>
      </trkpt>
      <trkpt lat="43.93608" lon="0.60355">
        <ele>129.52022</ele>
        <time>2022-08-16T09:18:22.267Z</time>
      </trkpt>
      <trkpt lat="43.93618" lon="0.60354">
        <ele>129.585993</ele>
        <time>2022-08-16T09:18:29.267Z</time>
      </trkpt>
      <trkpt lat="43.93627" lon="0.60353">
        <ele>129.651806</ele>
        <time>2022-08-16T09:18:35.267Z</time>
      </trkpt>
      <trkpt lat="43.93637" lon="0.60351">
        <ele>129.72015</ele>
        <time>2022-08-16T09:18:42.267Z</time>
      </trkpt>
      <trkpt lat="43.93646" lon="0.60349">
        <ele>129.786144</ele>
        <time>2022-08-16T09:18:49.267Z</time>
      </trkpt>
      <trkpt lat="43.93655" lon="0.60349">
        <ele>129.851097</ele>
        <time>2022-08-16T09:19:09.267Z</time>
      </trkpt>
      <trkpt lat="43.93664" lon="0.60347">
        <ele>129.913763</ele>
        <time>2022-08-16T09:19:18.267Z</time>
      </trkpt>
      <trkpt lat="43.93673" lon="0.60343">
        <ele>129.976707</ele>
        <time>2022-08-16T09:19:26.267Z</time>
      </trkpt>
      <trkpt lat="43.9368" lon="0.60334">
        <ele>130.044162</ele>
        <time>2022-08-16T09:19:33.267Z</time>
      </trkpt>
      <trkpt lat="43.93688" lon="0.60327">
        <ele>130.107815</ele>
        <time>2022-08-16T09:19:41.267Z</time>
      </trkpt>
      <trkpt lat="43.93695" lon="0.60321">
        <ele>130.170635</ele>
        <time>2022-08-16T09:19:48.267Z</time>
      </trkpt>
      <trkpt lat="43.93704" lon="0.6032">
        <ele>130.233433</ele>
        <time>2022-08-16T09:19:55.267Z</time>
      </trkpt>
      <trkpt lat="43.93715" lon="0.6032">
        <ele>130.305378</ele>
        <time>2022-08-16T09:20:06.267Z</time>
      </trkpt>
      <trkpt lat="43.93724" lon="0.60318">
        <ele>130.373366</ele>
        <time>2022-08-16T09:20:14.267Z</time>
      </trkpt>
      <trkpt lat="43.93734" lon="0.60318">
        <ele>130.436904</ele>
        <time>2022-08-16T09:20:21.267Z</time>
      </trkpt>
      <trkpt lat="43.93743" lon="0.60316">
        <ele>130.506774</ele>
        <time>2022-08-16T09:20:28.267Z</time>
      </trkpt>
      <trkpt lat="43.93752" lon="0.60314">
        <ele>130.569674</ele>
        <time>2022-08-16T09:20:35.267Z</time>
      </trkpt>
      <trkpt lat="43.93762" lon="0.60312">
        <ele>130.637258</ele>
        <time>2022-08-16T09:20:43.267Z</time>
      </trkpt>
      <trkpt lat="43.93771" lon="0.60312">
        <ele>130.702189</ele>
        <time>2022-08-16T09:20:50.267Z</time>
      </trkpt>
      <trkpt lat="43.93781" lon="0.60309">
        <ele>131.088789</ele>
        <time>2022-08-16T09:20:57.267Z</time>
      </trkpt>
      <trkpt lat="43.93791" lon="0.60307">
        <ele>131.695279</ele>
        <time>2022-08-16T09:21:06.267Z</time>
      </trkpt>
      <trkpt lat="43.938" lon="0.60302">
        <ele>132.299233</ele>
        <time>2022-08-16T09:21:17.267Z</time>
      </trkpt>
      <trkpt lat="43.93802" lon="0.60289">
        <ele>132.868079</ele>
        <time>2022-08-16T09:21:24.267Z</time>
      </trkpt>
      <trkpt lat="43.938" lon="0.60277">
        <ele>133.434258</ele>
        <time>2022-08-16T09:21:32.267Z</time>
      </trkpt>
      <trkpt lat="43.938" lon="0.60263">
        <ele>134.035111</ele>
        <time>2022-08-16T09:21:41.267Z</time>
      </trkpt>
      <trkpt lat="43.93798" lon="0.6025">
        <ele>134.611033</ele>
        <time>2022-08-16T09:21:49.267Z</time>
      </trkpt>
      <trkpt lat="43.93794" lon="0.60237">
        <ele>135.223548</ele>
        <time>2022-08-16T09:21:56.267Z</time>
      </trkpt>
      <trkpt lat="43.93791" lon="0.60223">
        <ele>135.838051</ele>
        <time>2022-08-16T09:22:04.267Z</time>
      </trkpt>
      <trkpt lat="43.93787" lon="0.6021">
        <ele>136.458809</ele>
        <time>2022-08-16T09:22:15.267Z</time>
      </trkpt>
      <trkpt lat="43.93787" lon="0.60208">
        <ele>87</ele>
        <time>2022-08-16T09:22:24Z</time>
      </trkpt>
      <trkpt lat="43.93787" lon="0.60206">
        <ele>87</ele>
        <time>2022-08-16T09:22:25Z</time>
      </trkpt>
      <trkpt lat="43.93785" lon="0.60197">
        <ele>87</ele>
        <time>2022-08-16T09:22:30Z</time>
      </trkpt>
      <trkpt lat="43.93784" lon="0.60189">
        <ele>88</ele>
        <time>2022-08-16T09:22:35Z</time>
      </trkpt>
      <trkpt lat="43.93771" lon="0.60151">
        <ele>90</ele>
        <time>2022-08-16T09:23:01Z</time>
      </trkpt>
      <trkpt lat="43.9377" lon="0.60144">
        <ele>90</ele>
        <time>2022-08-16T09:23:05Z</time>
      </trkpt>
      <trkpt lat="43.93757" lon="0.60098">
        <ele>93</ele>
        <time>2022-08-16T09:23:32Z</time>
      </trkpt>
      <trkpt lat="43.93756" lon="0.60091">
        <ele>93</ele>
        <time>2022-08-16T09:23:37Z</time>
      </trkpt>
      <trkpt lat="43.93753" lon="0.60082">
        <ele>92</ele>
        <time>2022-08-16T09:23:43Z</time>
      </trkpt>
      <trkpt lat="43.93745" lon="0.60049">
        <ele>93</ele>
        <time>2022-08-16T09:24:03Z</time>
      </trkpt>
      <trkpt lat="43.93742" lon="0.60041">
        <ele>93</ele>
        <time>2022-08-16T09:24:08Z</time>
      </trkpt>
      <trkpt lat="43.9373" lon="0.59997">
        <ele>93</ele>
        <time>2022-08-16T09:24:36Z</time>
      </trkpt>
      <trkpt lat="43.93729" lon="0.5999">
        <ele>93</ele>
        <time>2022-08-16T09:24:40Z</time>
      </trkpt>
      <trkpt lat="43.93717" lon="0.59936">
        <ele>94</ele>
        <time>2022-08-16T09:25:12Z</time>
      </trkpt>
      <trkpt lat="43.93716" lon="0.59929">
        <ele>94</ele>
        <time>2022-08-16T09:25:17Z</time>
      </trkpt>
      <trkpt lat="43.93713" lon="0.59922">
        <ele>94</ele>
        <time>2022-08-16T09:25:21Z</time>
      </trkpt>
      <trkpt lat="43.93706" lon="0.59867">
        <ele>94</ele>
        <time>2022-08-16T09:25:52Z</time>
      </trkpt>
      <trkpt lat="43.93706" lon="0.59861">
        <ele>94</ele>
        <time>2022-08-16T09:25:55Z</time>
      </trkpt>
      <trkpt lat="43.93707" lon="0.59854">
        <ele>95</ele>
        <time>2022-08-16T09:25:59Z</time>
      </trkpt>
      <trkpt lat="43.93707" lon="0.59846">
        <ele>95</ele>
        <time>2022-08-16T09:26:03Z</time>
      </trkpt>
      <trkpt lat="43.93705" lon="0.59833">
        <ele>95</ele>
        <time>2022-08-16T09:26:10Z</time>
      </trkpt>
      <trkpt lat="43.93704" lon="0.59796">
        <ele>95</ele>
        <time>2022-08-16T09:26:30Z</time>
      </trkpt>
      <trkpt lat="43.93703" lon="0.59783">
        <ele>95</ele>
        <time>2022-08-16T09:26:37Z</time>
      </trkpt>
      <trkpt lat="43.93702" lon="0.59734">
        <ele>97</ele>
        <time>2022-08-16T09:27:05Z</time>
      </trkpt>
      <trkpt lat="43.93701" lon="0.59727">
        <ele>97</ele>
        <time>2022-08-16T09:27:09Z</time>
      </trkpt>
      <trkpt lat="43.93703" lon="0.59677">
        <ele>99</ele>
        <time>2022-08-16T09:27:37Z</time>
      </trkpt>
      <trkpt lat="43.93714" lon="0.59621">
        <ele>101</ele>
        <time>2022-08-16T09:28:10Z</time>
      </trkpt>
      <trkpt lat="43.93715" lon="0.59584">
        <ele>103</ele>
        <time>2022-08-16T09:28:30Z</time>
      </trkpt>
      <trkpt lat="43.93707" lon="0.5953">
        <ele>105</ele>
        <time>2022-08-16T09:29:02Z</time>
      </trkpt>
      <trkpt lat="43.937" lon="0.59478">
        <ele>107</ele>
        <time>2022-08-16T09:29:33Z</time>
      </trkpt>
      <trkpt lat="43.93696" lon="0.59465">
        <ele>107</ele>
        <time>2022-08-16T09:29:41Z</time>
      </trkpt>
      <trkpt lat="43.93694" lon="0.59451">
        <ele>107</ele>
        <time>2022-08-16T09:29:49Z</time>
      </trkpt>
      <trkpt lat="43.93693" lon="0.59443">
        <ele>107</ele>
        <time>2022-08-16T09:29:53Z</time>
      </trkpt>
      <trkpt lat="43.93696" lon="0.59429">
        <ele>108</ele>
        <time>2022-08-16T09:30:02Z</time>
      </trkpt>
      <trkpt lat="43.937" lon="0.59423">
        <ele>109</ele>
        <time>2022-08-16T09:30:06Z</time>
      </trkpt>
      <trkpt lat="43.93704" lon="0.5942">
        <ele>109</ele>
        <time>2022-08-16T09:30:10Z</time>
      </trkpt>
      <trkpt lat="43.93707" lon="0.59415">
        <ele>109</ele>
        <time>2022-08-16T09:30:13Z</time>
      </trkpt>
      <trkpt lat="43.93712" lon="0.59407">
        <ele>109</ele>
        <time>2022-08-16T09:30:39Z</time>
      </trkpt>
      <trkpt lat="43.93718" lon="0.59389">
        <ele>109</ele>
        <time>2022-08-16T09:30:53Z</time>
      </trkpt>
      <trkpt lat="43.93734" lon="0.59341">
        <ele>113</ele>
        <time>2022-08-16T09:31:25Z</time>
      </trkpt>
      <trkpt lat="43.93739" lon="0.59329">
        <ele>114</ele>
        <time>2022-08-16T09:31:33Z</time>
      </trkpt>
      <trkpt lat="43.93743" lon="0.59316">
        <ele>114</ele>
        <time>2022-08-16T09:31:41Z</time>
      </trkpt>
      <trkpt lat="43.93755" lon="0.59291">
        <ele>116</ele>
        <time>2022-08-16T09:32:14Z</time>
      </trkpt>
      <trkpt lat="43.93759" lon="0.59285">
        <ele>116</ele>
        <time>2022-08-16T09:32:18Z</time>
      </trkpt>
      <trkpt lat="43.93761" lon="0.5928">
        <ele>116</ele>
        <time>2022-08-16T09:32:22Z</time>
      </trkpt>
      <trkpt lat="43.93782" lon="0.59234">
        <ele>118</ele>
        <time>2022-08-16T09:32:57Z</time>
      </trkpt>
      <trkpt lat="43.93785" lon="0.59228">
        <ele>118</ele>
        <time>2022-08-16T09:33:01Z</time>
      </trkpt>
      <trkpt lat="43.93789" lon="0.59223">
        <ele>118</ele>
        <time>2022-08-16T09:33:05Z</time>
      </trkpt>
      <trkpt lat="43.93792" lon="0.59215">
        <ele>118</ele>
        <time>2022-08-16T09:33:17Z</time>
      </trkpt>
      <trkpt lat="43.93796" lon="0.5921">
        <ele>118</ele>
        <time>2022-08-16T09:33:22Z</time>
      </trkpt>
      <trkpt lat="43.93804" lon="0.59202">
        <ele>118</ele>
        <time>2022-08-16T09:33:30Z</time>
      </trkpt>
      <trkpt lat="43.93809" lon="0.59198">
        <ele>118</ele>
        <time>2022-08-16T09:33:34Z</time>
      </trkpt>
      <trkpt lat="43.93813" lon="0.59192">
        <ele>118</ele>
        <time>2022-08-16T09:33:38Z</time>
      </trkpt>
      <trkpt lat="43.93814" lon="0.59184">
        <ele>118</ele>
        <time>2022-08-16T09:33:43Z</time>
      </trkpt>
      <trkpt lat="43.93817" lon="0.5918">
        <ele>118</ele>
        <time>2022-08-16T09:33:48Z</time>
      </trkpt>
      <trkpt lat="43.93814" lon="0.59172">
        <ele>118</ele>
        <time>2022-08-16T09:33:54Z</time>
      </trkpt>
      <trkpt lat="43.93812" lon="0.59167">
        <ele>119</ele>
        <time>2022-08-16T09:33:58Z</time>
      </trkpt>
      <trkpt lat="43.93809" lon="0.59159">
        <ele>118</ele>
        <time>2022-08-16T09:34:06Z</time>
      </trkpt>
      <trkpt lat="43.93808" lon="0.59153">
        <ele>117</ele>
        <time>2022-08-16T09:34:12Z</time>
      </trkpt>
      <trkpt lat="43.93805" lon="0.59146">
        <ele>116</ele>
        <time>2022-08-16T09:34:16Z</time>
      </trkpt>
      <trkpt lat="43.93802" lon="0.59132">
        <ele>115</ele>
        <time>2022-08-16T09:34:24Z</time>
      </trkpt>
      <trkpt lat="43.93789" lon="0.59094">
        <ele>111</ele>
        <time>2022-08-16T09:34:48Z</time>
      </trkpt>
      <trkpt lat="43.93788" lon="0.59087">
        <ele>110</ele>
        <time>2022-08-16T09:34:53Z</time>
      </trkpt>
      <trkpt lat="43.93777" lon="0.59047">
        <ele>107</ele>
        <time>2022-08-16T09:35:17Z</time>
      </trkpt>
      <trkpt lat="43.93776" lon="0.59041">
        <ele>107</ele>
        <time>2022-08-16T09:35:21Z</time>
      </trkpt>
      <trkpt lat="43.93774" lon="0.59034">
        <ele>107</ele>
        <time>2022-08-16T09:35:25Z</time>
      </trkpt>
      <trkpt lat="43.93772" lon="0.59006">
        <ele>106</ele>
        <time>2022-08-16T09:35:42Z</time>
      </trkpt>
      <trkpt lat="43.93772" lon="0.58985">
        <ele>106</ele>
        <time>2022-08-16T09:35:55Z</time>
      </trkpt>
      <trkpt lat="43.93758" lon="0.58934">
        <ele>107</ele>
        <time>2022-08-16T09:36:26Z</time>
      </trkpt>
      <trkpt lat="43.9375" lon="0.58893">
        <ele>109</ele>
        <time>2022-08-16T09:36:51Z</time>
      </trkpt>
      <trkpt lat="43.93748" lon="0.58887">
        <ele>109</ele>
        <time>2022-08-16T09:36:55Z</time>
      </trkpt>
      <trkpt lat="43.93744" lon="0.58869">
        <ele>110</ele>
        <time>2022-08-16T09:37:11Z</time>
      </trkpt>
      <trkpt lat="43.93735" lon="0.58844">
        <ele>112</ele>
        <time>2022-08-16T09:37:30Z</time>
      </trkpt>
      <trkpt lat="43.93719" lon="0.58817">
        <ele>115</ele>
        <time>2022-08-16T09:37:52Z</time>
      </trkpt>
      <trkpt lat="43.93705" lon="0.58775">
        <ele>118</ele>
        <time>2022-08-16T09:38:22Z</time>
      </trkpt>
      <trkpt lat="43.93703" lon="0.58768">
        <ele>118</ele>
        <time>2022-08-16T09:38:26Z</time>
      </trkpt>
      <trkpt lat="43.93699" lon="0.58757">
        <ele>118</ele>
        <time>2022-08-16T09:38:34Z</time>
      </trkpt>
      <trkpt lat="43.93697" lon="0.58749">
        <ele>119</ele>
        <time>2022-08-16T09:38:39Z</time>
      </trkpt>
      <trkpt lat="43.937" lon="0.58744">
        <ele>119</ele>
        <time>2022-08-16T09:38:47Z</time>
      </trkpt>
      <trkpt lat="43.93703" lon="0.58738">
        <ele>120</ele>
        <time>2022-08-16T09:39:22Z</time>
      </trkpt>
      <trkpt lat="43.93705" lon="0.58729">
        <ele>121</ele>
        <time>2022-08-16T09:40:44Z</time>
      </trkpt>
      <trkpt lat="43.93699" lon="0.58719">
        <ele>122</ele>
        <time>2022-08-16T09:41:09Z</time>
      </trkpt>
      <trkpt lat="43.93694" lon="0.58698">
        <ele>124</ele>
        <time>2022-08-16T09:41:24Z</time>
      </trkpt>
      <trkpt lat="43.9368" lon="0.5865">
        <ele>126</ele>
        <time>2022-08-16T09:41:57Z</time>
      </trkpt>
      <trkpt lat="43.9367" lon="0.58597">
        <ele>128</ele>
        <time>2022-08-16T09:42:29Z</time>
      </trkpt>
      <trkpt lat="43.93668" lon="0.5859">
        <ele>128</ele>
        <time>2022-08-16T09:42:33Z</time>
      </trkpt>
      <trkpt lat="43.93666" lon="0.58585">
        <ele>129</ele>
        <time>2022-08-16T09:42:38Z</time>
      </trkpt>
      <trkpt lat="43.93661" lon="0.5856">
        <ele>129</ele>
        <time>2022-08-16T09:42:52Z</time>
      </trkpt>
      <trkpt lat="43.9366" lon="0.58546">
        <ele>130</ele>
        <time>2022-08-16T09:43:00Z</time>
      </trkpt>
      <trkpt lat="43.93661" lon="0.58533">
        <ele>130</ele>
        <time>2022-08-16T09:43:08Z</time>
      </trkpt>
      <trkpt lat="43.93662" lon="0.5852">
        <ele>130</ele>
        <time>2022-08-16T09:43:16Z</time>
      </trkpt>
      <trkpt lat="43.93662" lon="0.58507">
        <ele>131</ele>
        <time>2022-08-16T09:43:24Z</time>
      </trkpt>
      <trkpt lat="43.93655" lon="0.58467">
        <ele>132</ele>
        <time>2022-08-16T09:43:51Z</time>
      </trkpt>
      <trkpt lat="43.9365" lon="0.58467">
        <ele>132</ele>
        <time>2022-08-16T09:43:55Z</time>
      </trkpt>
      <trkpt lat="43.93645" lon="0.58468">
        <ele>132</ele>
        <time>2022-08-16T09:44:00Z</time>
      </trkpt>
      <trkpt lat="43.93641" lon="0.58467">
        <ele>132</ele>
        <time>2022-08-16T09:44:04Z</time>
      </trkpt>
      <trkpt lat="43.93626" lon="0.58471">
        <ele>132</ele>
        <time>2022-08-16T09:44:17Z</time>
      </trkpt>
      <trkpt lat="43.93607" lon="0.58475">
        <ele>134</ele>
        <time>2022-08-16T09:44:35Z</time>
      </trkpt>
      <trkpt lat="43.93573" lon="0.58478">
        <ele>138</ele>
        <time>2022-08-16T09:45:13Z</time>
      </trkpt>
      <trkpt lat="43.93557" lon="0.5848">
        <ele>141</ele>
        <time>2022-08-16T09:45:30Z</time>
      </trkpt>
      <trkpt lat="43.93553" lon="0.58482">
        <ele>141</ele>
        <time>2022-08-16T09:45:35Z</time>
      </trkpt>
      <trkpt lat="43.93549" lon="0.58486">
        <ele>142</ele>
        <time>2022-08-16T09:45:39Z</time>
      </trkpt>
      <trkpt lat="43.93533" lon="0.58484">
        <ele>144</ele>
        <time>2022-08-16T09:45:59Z</time>
      </trkpt>
      <trkpt lat="43.93528" lon="0.58485">
        <ele>145</ele>
        <time>2022-08-16T09:46:05Z</time>
      </trkpt>
      <trkpt lat="43.93516" lon="0.58521">
        <ele>150</ele>
        <time>2022-08-16T09:46:38Z</time>
      </trkpt>
      <trkpt lat="43.93513" lon="0.58533">
        <ele>150</ele>
        <time>2022-08-16T09:46:50Z</time>
      </trkpt>
      <trkpt lat="43.9351" lon="0.58539">
        <ele>151</ele>
        <time>2022-08-16T09:46:55Z</time>
      </trkpt>
      <trkpt lat="43.93504" lon="0.5856">
        <ele>153</ele>
        <time>2022-08-16T09:47:12Z</time>
      </trkpt>
      <trkpt lat="43.93499" lon="0.58566">
        <ele>154</ele>
        <time>2022-08-16T09:47:20Z</time>
      </trkpt>
      <trkpt lat="43.93497" lon="0.58559">
        <ele>155</ele>
        <time>2022-08-16T09:47:26Z</time>
      </trkpt>
      <trkpt lat="43.93496" lon="0.58552">
        <ele>155</ele>
        <time>2022-08-16T09:47:31Z</time>
      </trkpt>
      <trkpt lat="43.93492" lon="0.58544">
        <ele>155</ele>
        <time>2022-08-16T09:47:37Z</time>
      </trkpt>
      <trkpt lat="43.93487" lon="0.58518">
        <ele>155</ele>
        <time>2022-08-16T09:47:53Z</time>
      </trkpt>
      <trkpt lat="43.93486" lon="0.58504">
        <ele>155</ele>
        <time>2022-08-16T09:48:01Z</time>
      </trkpt>
      <trkpt lat="43.9347" lon="0.58451">
        <ele>156</ele>
        <time>2022-08-16T09:48:32Z</time>
      </trkpt>
      <trkpt lat="43.93466" lon="0.58439">
        <ele>156</ele>
        <time>2022-08-16T09:48:40Z</time>
      </trkpt>
      <trkpt lat="43.93461" lon="0.58426">
        <ele>156</ele>
        <time>2022-08-16T09:48:48Z</time>
      </trkpt>
      <trkpt lat="43.93456" lon="0.58407">
        <ele>156</ele>
        <time>2022-08-16T09:49:00Z</time>
      </trkpt>
      <trkpt lat="43.93455" lon="0.584">
        <ele>156</ele>
        <time>2022-08-16T09:49:04Z</time>
      </trkpt>
      <trkpt lat="43.9345" lon="0.58387">
        <ele>156</ele>
        <time>2022-08-16T09:49:12Z</time>
      </trkpt>
      <trkpt lat="43.93441" lon="0.58331">
        <ele>157</ele>
        <time>2022-08-16T09:49:44Z</time>
      </trkpt>
      <trkpt lat="43.93439" lon="0.58301">
        <ele>158</ele>
        <time>2022-08-16T09:50:02Z</time>
      </trkpt>
      <trkpt lat="43.9344" lon="0.58287">
        <ele>158</ele>
        <time>2022-08-16T09:50:10Z</time>
      </trkpt>
      <trkpt lat="43.93439" lon="0.58232">
        <ele>160</ele>
        <time>2022-08-16T09:50:42Z</time>
      </trkpt>
      <trkpt lat="43.93439" lon="0.58212">
        <ele>159</ele>
        <time>2022-08-16T09:50:54Z</time>
      </trkpt>
      <trkpt lat="43.93439" lon="0.58204">
        <ele>159</ele>
        <time>2022-08-16T09:50:58Z</time>
      </trkpt>
      <trkpt lat="43.93438" lon="0.58197">
        <ele>159</ele>
        <time>2022-08-16T09:51:02Z</time>
      </trkpt>
      <trkpt lat="43.93438" lon="0.58191">
        <ele>159</ele>
        <time>2022-08-16T09:51:05Z</time>
      </trkpt>
      <trkpt lat="43.93438" lon="0.58176">
        <ele>160</ele>
        <time>2022-08-16T09:51:13Z</time>
      </trkpt>
      <trkpt lat="43.93437" lon="0.58155">
        <ele>160</ele>
        <time>2022-08-16T09:51:25Z</time>
      </trkpt>
      <trkpt lat="43.93437" lon="0.58135">
        <ele>160</ele>
        <time>2022-08-16T09:51:51Z</time>
      </trkpt>
      <trkpt lat="43.93437" lon="0.58129">
        <ele>160</ele>
        <time>2022-08-16T09:51:56Z</time>
      </trkpt>
      <trkpt lat="43.93436" lon="0.58121">
        <ele>161</ele>
        <time>2022-08-16T09:52:00Z</time>
      </trkpt>
      <trkpt lat="43.93431" lon="0.58066">
        <ele>161</ele>
        <time>2022-08-16T09:52:31Z</time>
      </trkpt>
      <trkpt lat="43.93428" lon="0.58047">
        <ele>162</ele>
        <time>2022-08-16T09:52:43Z</time>
      </trkpt>
      <trkpt lat="43.93426" lon="0.58034">
        <ele>162</ele>
        <time>2022-08-16T09:52:50Z</time>
      </trkpt>
      <trkpt lat="43.93423" lon="0.57999">
        <ele>163</ele>
        <time>2022-08-16T09:53:10Z</time>
      </trkpt>
      <trkpt lat="43.93422" lon="0.57988">
        <ele>164</ele>
        <time>2022-08-16T09:53:27Z</time>
      </trkpt>
      <trkpt lat="43.93421" lon="0.57981">
        <ele>164</ele>
        <time>2022-08-16T09:53:31Z</time>
      </trkpt>
      <trkpt lat="43.93416" lon="0.57927">
        <ele>166</ele>
        <time>2022-08-16T09:54:03Z</time>
      </trkpt>
      <trkpt lat="43.9341" lon="0.57874">
        <ele>169</ele>
        <time>2022-08-16T09:54:35Z</time>
      </trkpt>
      <trkpt lat="43.93405" lon="0.57829">
        <ele>170</ele>
        <time>2022-08-16T09:55:07Z</time>
      </trkpt>
      <trkpt lat="43.93404" lon="0.57821">
        <ele>170</ele>
        <time>2022-08-16T09:55:11Z</time>
      </trkpt>
      <trkpt lat="43.93403" lon="0.57811">
        <ele>170</ele>
        <time>2022-08-16T09:55:54Z</time>
      </trkpt>
      <trkpt lat="43.93403" lon="0.57804">
        <ele>170</ele>
        <time>2022-08-16T09:55:58Z</time>
      </trkpt>
      <trkpt lat="43.93403" lon="0.57797">
        <ele>170</ele>
        <time>2022-08-16T09:56:02Z</time>
      </trkpt>
      <trkpt lat="43.93402" lon="0.57742">
        <ele>172</ele>
        <time>2022-08-16T09:56:35Z</time>
      </trkpt>
      <trkpt lat="43.93402" lon="0.57735">
        <ele>172</ele>
        <time>2022-08-16T09:56:39Z</time>
      </trkpt>
      <trkpt lat="43.93404" lon="0.57678">
        <ele>173</ele>
        <time>2022-08-16T09:57:10Z</time>
      </trkpt>
      <trkpt lat="43.93405" lon="0.57671">
        <ele>173</ele>
        <time>2022-08-16T09:57:14Z</time>
      </trkpt>
      <trkpt lat="43.93406" lon="0.57664">
        <ele>174</ele>
        <time>2022-08-16T09:57:18Z</time>
      </trkpt>
      <trkpt lat="43.93415" lon="0.57611">
        <ele>175</ele>
        <time>2022-08-16T09:57:49Z</time>
      </trkpt>
      <trkpt lat="43.93427" lon="0.57564">
        <ele>176</ele>
        <time>2022-08-16T09:58:22Z</time>
      </trkpt>
      <trkpt lat="43.93429" lon="0.57559">
        <ele>177</ele>
        <time>2022-08-16T09:58:25Z</time>
      </trkpt>
      <trkpt lat="43.9344" lon="0.57513">
        <ele>179</ele>
        <time>2022-08-16T09:58:53Z</time>
      </trkpt>
      <trkpt lat="43.93443" lon="0.57507">
        <ele>180</ele>
        <time>2022-08-16T09:58:57Z</time>
      </trkpt>
      <trkpt lat="43.93453" lon="0.57478">
        <ele>180</ele>
        <time>2022-08-16T09:59:16Z</time>
      </trkpt>
      <trkpt lat="43.9346" lon="0.57467">
        <ele>181</ele>
        <time>2022-08-16T09:59:25Z</time>
      </trkpt>
      <trkpt lat="43.93472" lon="0.57427">
        <ele>181</ele>
        <time>2022-08-16T09:59:49Z</time>
      </trkpt>
      <trkpt lat="43.93487" lon="0.57393">
        <ele>182</ele>
        <time>2022-08-16T10:00:12Z</time>
      </trkpt>
      <trkpt lat="43.93491" lon="0.57382">
        <ele>182</ele>
        <time>2022-08-16T10:00:23Z</time>
      </trkpt>
      <trkpt lat="43.93507" lon="0.57347">
        <ele>183</ele>
        <time>2022-08-16T10:00:53Z</time>
      </trkpt>
      <trkpt lat="43.9351" lon="0.57341">
        <ele>183</ele>
        <time>2022-08-16T10:00:57Z</time>
      </trkpt>
      <trkpt lat="43.93513" lon="0.57335">
        <ele>183</ele>
        <time>2022-08-16T10:01:01Z</time>
      </trkpt>
      <trkpt lat="43.93527" lon="0.57309">
        <ele>184</ele>
        <time>2022-08-16T10:01:20Z</time>
      </trkpt>
      <trkpt lat="43.93532" lon="0.57307">
        <ele>184</ele>
        <time>2022-08-16T10:01:26Z</time>
      </trkpt>
      <trkpt lat="43.93536" lon="0.57303">
        <ele>184</ele>
        <time>2022-08-16T10:01:30Z</time>
      </trkpt>
      <trkpt lat="43.93545" lon="0.57298">
        <ele>185</ele>
        <time>2022-08-16T10:01:38Z</time>
      </trkpt>
      <trkpt lat="43.93583" lon="0.5728">
        <ele>185</ele>
        <time>2022-08-16T10:02:09Z</time>
      </trkpt>
      <trkpt lat="43.93618" lon="0.5725">
        <ele>185</ele>
        <time>2022-08-16T10:02:41Z</time>
      </trkpt>
      <trkpt lat="43.93623" lon="0.57242">
        <ele>185</ele>
        <time>2022-08-16T10:02:50Z</time>
      </trkpt>
      <trkpt lat="43.93634" lon="0.57228">
        <ele>186</ele>
        <time>2022-08-16T10:03:02Z</time>
      </trkpt>
      <trkpt lat="43.93637" lon="0.57223">
        <ele>186</ele>
        <time>2022-08-16T10:03:07Z</time>
      </trkpt>
      <trkpt lat="43.93644" lon="0.5721">
        <ele>187</ele>
        <time>2022-08-16T10:03:19Z</time>
      </trkpt>
      <trkpt lat="43.93646" lon="0.57204">
        <ele>187</ele>
        <time>2022-08-16T10:03:23Z</time>
      </trkpt>
      <trkpt lat="43.93659" lon="0.57168">
        <ele>188</ele>
        <time>2022-08-16T10:03:48Z</time>
      </trkpt>
      <trkpt lat="43.93662" lon="0.57157">
        <ele>188</ele>
        <time>2022-08-16T10:04:00Z</time>
      </trkpt>
      <trkpt lat="43.93667" lon="0.57145">
        <ele>188</ele>
        <time>2022-08-16T10:04:08Z</time>
      </trkpt>
      <trkpt lat="43.93683" lon="0.57103">
        <ele>188</ele>
        <time>2022-08-16T10:04:37Z</time>
      </trkpt>
      <trkpt lat="43.93685" lon="0.57098">
        <ele>188</ele>
        <time>2022-08-16T10:04:41Z</time>
      </trkpt>
      <trkpt lat="43.93688" lon="0.57092">
        <ele>188</ele>
        <time>2022-08-16T10:04:45Z</time>
      </trkpt>
      <trkpt lat="43.93691" lon="0.57079">
        <ele>187</ele>
        <time>2022-08-16T10:04:53Z</time>
      </trkpt>
      <trkpt lat="43.93699" lon="0.5706">
        <ele>187</ele>
        <time>2022-08-16T10:05:05Z</time>
      </trkpt>
      <trkpt lat="43.93701" lon="0.57053">
        <ele>187</ele>
        <time>2022-08-16T10:05:09Z</time>
      </trkpt>
      <trkpt lat="43.93709" lon="0.57036">
        <ele>187</ele>
        <time>2022-08-16T10:05:21Z</time>
      </trkpt>
      <trkpt lat="43.93712" lon="0.57029">
        <ele>187</ele>
        <time>2022-08-16T10:05:25Z</time>
      </trkpt>
      <trkpt lat="43.93714" lon="0.57023">
        <ele>187</ele>
        <time>2022-08-16T10:05:29Z</time>
      </trkpt>
      <trkpt lat="43.93733" lon="0.56973">
        <ele>187</ele>
        <time>2022-08-16T10:06:00Z</time>
      </trkpt>
      <trkpt lat="43.93748" lon="0.56931">
        <ele>186</ele>
        <time>2022-08-16T10:06:27Z</time>
      </trkpt>
      <trkpt lat="43.9375" lon="0.56924">
        <ele>186</ele>
        <time>2022-08-16T10:06:31Z</time>
      </trkpt>
      <trkpt lat="43.93755" lon="0.56897">
        <ele>185</ele>
        <time>2022-08-16T10:07:10Z</time>
      </trkpt>
      <trkpt lat="43.93759" lon="0.56877">
        <ele>185</ele>
        <time>2022-08-16T10:07:23Z</time>
      </trkpt>
      <trkpt lat="43.93762" lon="0.56865">
        <ele>185</ele>
        <time>2022-08-16T10:07:31Z</time>
      </trkpt>
      <trkpt lat="43.93776" lon="0.56817">
        <ele>183</ele>
        <time>2022-08-16T10:08:03Z</time>
      </trkpt>
      <trkpt lat="43.93778" lon="0.56811">
        <ele>182</ele>
        <time>2022-08-16T10:08:07Z</time>
      </trkpt>
      <trkpt lat="43.93779" lon="0.56804">
        <ele>181</ele>
        <time>2022-08-16T10:08:11Z</time>
      </trkpt>
      <trkpt lat="43.93782" lon="0.56798">
        <ele>180</ele>
        <time>2022-08-16T10:08:15Z</time>
      </trkpt>
      <trkpt lat="43.93789" lon="0.56772">
        <ele>179</ele>
        <time>2022-08-16T10:08:31Z</time>
      </trkpt>
      <trkpt lat="43.93792" lon="0.56719">
        <ele>177</ele>
        <time>2022-08-16T10:09:03Z</time>
      </trkpt>
      <trkpt lat="43.93792" lon="0.56713">
        <ele>177</ele>
        <time>2022-08-16T10:09:07Z</time>
      </trkpt>
      <trkpt lat="43.93792" lon="0.56707">
        <ele>177</ele>
        <time>2022-08-16T10:09:11Z</time>
      </trkpt>
      <trkpt lat="43.93788" lon="0.56678">
        <ele>176</ele>
        <time>2022-08-16T10:09:29Z</time>
      </trkpt>
      <trkpt lat="43.93787" lon="0.56666">
        <ele>176</ele>
        <time>2022-08-16T10:09:50Z</time>
      </trkpt>
      <trkpt lat="43.93786" lon="0.56637">
        <ele>175</ele>
        <time>2022-08-16T10:10:08Z</time>
      </trkpt>
      <trkpt lat="43.93785" lon="0.5663">
        <ele>175</ele>
        <time>2022-08-16T10:10:12Z</time>
      </trkpt>
      <trkpt lat="43.93786" lon="0.56621">
        <ele>175</ele>
        <time>2022-08-16T10:10:19Z</time>
      </trkpt>
      <trkpt lat="43.93787" lon="0.56607">
        <ele>174</ele>
        <time>2022-08-16T10:10:28Z</time>
      </trkpt>
      <trkpt lat="43.93788" lon="0.56594">
        <ele>172</ele>
        <time>2022-08-16T10:10:37Z</time>
      </trkpt>
      <trkpt lat="43.93789" lon="0.56587">
        <ele>171</ele>
        <time>2022-08-16T10:10:47Z</time>
      </trkpt>
      <trkpt lat="43.93791" lon="0.56554">
        <ele>168</ele>
        <time>2022-08-16T10:11:13Z</time>
      </trkpt>
      <trkpt lat="43.9379" lon="0.56547">
        <ele>168</ele>
        <time>2022-08-16T10:11:17Z</time>
      </trkpt>
      <trkpt lat="43.9379" lon="0.56533">
        <ele>167</ele>
        <time>2022-08-16T10:11:25Z</time>
      </trkpt>
      <trkpt lat="43.9379" lon="0.56527">
        <ele>167</ele>
        <time>2022-08-16T10:11:29Z</time>
      </trkpt>
      <trkpt lat="43.9379" lon="0.56507">
        <ele>166</ele>
        <time>2022-08-16T10:11:41Z</time>
      </trkpt>
      <trkpt lat="43.93795" lon="0.56486">
        <ele>166</ele>
        <time>2022-08-16T10:11:53Z</time>
      </trkpt>
      <trkpt lat="43.93798" lon="0.56473">
        <ele>167</ele>
        <time>2022-08-16T10:12:02Z</time>
      </trkpt>
      <trkpt lat="43.93818" lon="0.56424">
        <ele>167</ele>
        <time>2022-08-16T10:12:35Z</time>
      </trkpt>
      <trkpt lat="43.93833" lon="0.56397">
        <ele>168</ele>
        <time>2022-08-16T10:13:09Z</time>
      </trkpt>
      <trkpt lat="43.93834" lon="0.56388">
        <ele>168</ele>
        <time>2022-08-16T10:13:37Z</time>
      </trkpt>
      <trkpt lat="43.93853" lon="0.56343">
        <ele>170</ele>
        <time>2022-08-16T10:14:11Z</time>
      </trkpt>
      <trkpt lat="43.93855" lon="0.56336">
        <ele>171</ele>
        <time>2022-08-16T10:14:15Z</time>
      </trkpt>
      <trkpt lat="43.93871" lon="0.5629">
        <ele>175</ele>
        <time>2022-08-16T10:14:47Z</time>
      </trkpt>
      <trkpt lat="43.93881" lon="0.56254">
        <ele>178</ele>
        <time>2022-08-16T10:15:11Z</time>
      </trkpt>
      <trkpt lat="43.93883" lon="0.56247">
        <ele>178</ele>
        <time>2022-08-16T10:15:15Z</time>
      </trkpt>
      <trkpt lat="43.9389" lon="0.56222">
        <ele>179</ele>
        <time>2022-08-16T10:15:30Z</time>
      </trkpt>
      <trkpt lat="43.93895" lon="0.56209">
        <ele>180</ele>
        <time>2022-08-16T10:15:39Z</time>
      </trkpt>
      <trkpt lat="43.93897" lon="0.56201">
        <ele>180</ele>
        <time>2022-08-16T10:15:44Z</time>
      </trkpt>
      <trkpt lat="43.9391" lon="0.56174">
        <ele>181</ele>
        <time>2022-08-16T10:16:01Z</time>
      </trkpt>
      <trkpt lat="43.93911" lon="0.56168">
        <ele>181</ele>
        <time>2022-08-16T10:16:05Z</time>
      </trkpt>
      <trkpt lat="43.93913" lon="0.56161">
        <ele>181</ele>
        <time>2022-08-16T10:16:09Z</time>
      </trkpt>
      <trkpt lat="43.93915" lon="0.56154">
        <ele>181</ele>
        <time>2022-08-16T10:16:13Z</time>
      </trkpt>
      <trkpt lat="43.93921" lon="0.56142">
        <ele>181</ele>
        <time>2022-08-16T10:16:21Z</time>
      </trkpt>
      <trkpt lat="43.93923" lon="0.56135">
        <ele>181</ele>
        <time>2022-08-16T10:16:25Z</time>
      </trkpt>
      <trkpt lat="43.93925" lon="0.56121">
        <ele>181</ele>
        <time>2022-08-16T10:16:33Z</time>
      </trkpt>
      <trkpt lat="43.93926" lon="0.56115">
        <ele>181</ele>
        <time>2022-08-16T10:16:37Z</time>
      </trkpt>
      <trkpt lat="43.93929" lon="0.56108">
        <ele>181</ele>
        <time>2022-08-16T10:16:41Z</time>
      </trkpt>
      <trkpt lat="43.9393" lon="0.56095">
        <ele>181</ele>
        <time>2022-08-16T10:16:49Z</time>
      </trkpt>
      <trkpt lat="43.93939" lon="0.56054">
        <ele>181</ele>
        <time>2022-08-16T10:17:13Z</time>
      </trkpt>
      <trkpt lat="43.93942" lon="0.56048">
        <ele>181</ele>
        <time>2022-08-16T10:17:17Z</time>
      </trkpt>
      <trkpt lat="43.93942" lon="0.56041">
        <ele>181</ele>
        <time>2022-08-16T10:17:21Z</time>
      </trkpt>
      <trkpt lat="43.93945" lon="0.56028">
        <ele>181</ele>
        <time>2022-08-16T10:17:29Z</time>
      </trkpt>
      <trkpt lat="43.93947" lon="0.56012">
        <ele>181</ele>
        <time>2022-08-16T10:18:01Z</time>
      </trkpt>
      <trkpt lat="43.93947" lon="0.56006">
        <ele>181</ele>
        <time>2022-08-16T10:18:05Z</time>
      </trkpt>
      <trkpt lat="43.93951" lon="0.55984">
        <ele>180</ele>
        <time>2022-08-16T10:18:18Z</time>
      </trkpt>
      <trkpt lat="43.93952" lon="0.55978">
        <ele>180</ele>
        <time>2022-08-16T10:18:22Z</time>
      </trkpt>
      <trkpt lat="43.93952" lon="0.55971">
        <ele>180</ele>
        <time>2022-08-16T10:18:26Z</time>
      </trkpt>
      <trkpt lat="43.93962" lon="0.55925">
        <ele>179</ele>
        <time>2022-08-16T10:18:53Z</time>
      </trkpt>
      <trkpt lat="43.9398" lon="0.55877">
        <ele>179</ele>
        <time>2022-08-16T10:19:26Z</time>
      </trkpt>
      <trkpt lat="43.93985" lon="0.55865">
        <ele>178</ele>
        <time>2022-08-16T10:19:34Z</time>
      </trkpt>
      <trkpt lat="43.93991" lon="0.55853">
        <ele>179</ele>
        <time>2022-08-16T10:19:42Z</time>
      </trkpt>
      <trkpt lat="43.93993" lon="0.55847">
        <ele>179</ele>
        <time>2022-08-16T10:19:46Z</time>
      </trkpt>
      <trkpt lat="43.94007" lon="0.55812">
        <ele>178</ele>
        <time>2022-08-16T10:20:10Z</time>
      </trkpt>
      <trkpt lat="43.94023" lon="0.55763">
        <ele>177</ele>
        <time>2022-08-16T10:20:42Z</time>
      </trkpt>
      <trkpt lat="43.94026" lon="0.55755">
        <ele>176</ele>
        <time>2022-08-16T10:20:48Z</time>
      </trkpt>
      <trkpt lat="43.94039" lon="0.55723">
        <ele>177</ele>
        <time>2022-08-16T10:21:08Z</time>
      </trkpt>
      <trkpt lat="43.94043" lon="0.55711">
        <ele>176</ele>
        <time>2022-08-16T10:21:17Z</time>
      </trkpt>
      <trkpt lat="43.94048" lon="0.55699">
        <ele>176</ele>
        <time>2022-08-16T10:21:25Z</time>
      </trkpt>
      <trkpt lat="43.94064" lon="0.55649">
        <ele>176</ele>
        <time>2022-08-16T10:21:57Z</time>
      </trkpt>
      <trkpt lat="43.94066" lon="0.55643">
        <ele>176</ele>
        <time>2022-08-16T10:22:01Z</time>
      </trkpt>
      <trkpt lat="43.94065" lon="0.55635">
        <ele>176</ele>
        <time>2022-08-16T10:22:15Z</time>
      </trkpt>
      <trkpt lat="43.94066" lon="0.55629">
        <ele>176</ele>
        <time>2022-08-16T10:22:19Z</time>
      </trkpt>
      <trkpt lat="43.94071" lon="0.55618">
        <ele>175</ele>
        <time>2022-08-16T10:22:28Z</time>
      </trkpt>
      <trkpt lat="43.94076" lon="0.55612">
        <ele>175</ele>
        <time>2022-08-16T10:22:46Z</time>
      </trkpt>
      <trkpt lat="43.94078" lon="0.55606">
        <ele>175</ele>
        <time>2022-08-16T10:22:51Z</time>
      </trkpt>
      <trkpt lat="43.9408" lon="0.556">
        <ele>175</ele>
        <time>2022-08-16T10:22:59Z</time>
      </trkpt>
      <trkpt lat="43.94074" lon="0.55594">
        <ele>175</ele>
        <time>2022-08-16T10:23:34Z</time>
      </trkpt>
      <trkpt lat="43.94073" lon="0.55588">
        <ele>176</ele>
        <time>2022-08-16T10:23:38Z</time>
      </trkpt>
      <trkpt lat="43.94074" lon="0.55573">
        <ele>176</ele>
        <time>2022-08-16T10:23:46Z</time>
      </trkpt>
      <trkpt lat="43.94075" lon="0.55566">
        <ele>175</ele>
        <time>2022-08-16T10:23:50Z</time>
      </trkpt>
      <trkpt lat="43.94077" lon="0.55509">
        <ele>175</ele>
        <time>2022-08-16T10:24:23Z</time>
      </trkpt>
      <trkpt lat="43.94078" lon="0.55473">
        <ele>175</ele>
        <time>2022-08-16T10:24:44Z</time>
      </trkpt>
      <trkpt lat="43.94084" lon="0.55418">
        <ele>175</ele>
        <time>2022-08-16T10:25:16Z</time>
      </trkpt>
      <trkpt lat="43.94086" lon="0.55411">
        <ele>175</ele>
        <time>2022-08-16T10:25:20Z</time>
      </trkpt>
      <trkpt lat="43.94087" lon="0.55403">
        <ele>175</ele>
        <time>2022-08-16T10:25:24Z</time>
      </trkpt>
      <trkpt lat="43.94102" lon="0.5535">
        <ele>175</ele>
        <time>2022-08-16T10:25:56Z</time>
      </trkpt>
      <trkpt lat="43.94117" lon="0.55297">
        <ele>176</ele>
        <time>2022-08-16T10:26:28Z</time>
      </trkpt>
      <trkpt lat="43.94135" lon="0.55248">
        <ele>178</ele>
        <time>2022-08-16T10:27:00Z</time>
      </trkpt>
      <trkpt lat="43.94138" lon="0.55242">
        <ele>178</ele>
        <time>2022-08-16T10:27:04Z</time>
      </trkpt>
      <trkpt lat="43.9414" lon="0.55235">
        <ele>178</ele>
        <time>2022-08-16T10:27:08Z</time>
      </trkpt>
      <trkpt lat="43.94143" lon="0.5523">
        <ele>179</ele>
        <time>2022-08-16T10:27:12Z</time>
      </trkpt>
      <trkpt lat="43.94151" lon="0.55212">
        <ele>179</ele>
        <time>2022-08-16T10:27:24Z</time>
      </trkpt>
      <trkpt lat="43.94162" lon="0.5518">
        <ele>179</ele>
        <time>2022-08-16T10:27:45Z</time>
      </trkpt>
      <trkpt lat="43.94181" lon="0.55145">
        <ele>179</ele>
        <time>2022-08-16T10:28:08Z</time>
      </trkpt>
      <trkpt lat="43.94205" lon="0.55098">
        <ele>178</ele>
        <time>2022-08-16T10:28:40Z</time>
      </trkpt>
      <trkpt lat="43.94208" lon="0.55093">
        <ele>178</ele>
        <time>2022-08-16T10:28:44Z</time>
      </trkpt>
      <trkpt lat="43.94211" lon="0.55089">
        <ele>178</ele>
        <time>2022-08-16T10:28:48Z</time>
      </trkpt>
      <trkpt lat="43.94221" lon="0.55072">
        <ele>178</ele>
        <time>2022-08-16T10:29:00Z</time>
      </trkpt>
      <trkpt lat="43.94234" lon="0.5505">
        <ele>179</ele>
        <time>2022-08-16T10:29:16Z</time>
      </trkpt>
      <trkpt lat="43.94249" lon="0.55013">
        <ele>178</ele>
        <time>2022-08-16T10:29:39Z</time>
      </trkpt>
      <trkpt lat="43.94257" lon="0.54958">
        <ele>178</ele>
        <time>2022-08-16T10:30:12Z</time>
      </trkpt>
      <trkpt lat="43.94259" lon="0.54937">
        <ele>178</ele>
        <time>2022-08-16T10:30:24Z</time>
      </trkpt>
      <trkpt lat="43.9426" lon="0.54923">
        <ele>178</ele>
        <time>2022-08-16T10:30:32Z</time>
      </trkpt>
      <trkpt lat="43.94266" lon="0.54867">
        <ele>178</ele>
        <time>2022-08-16T10:31:04Z</time>
      </trkpt>
      <trkpt lat="43.94273" lon="0.54812">
        <ele>178</ele>
        <time>2022-08-16T10:31:35Z</time>
      </trkpt>
      <trkpt lat="43.94275" lon="0.54805">
        <ele>178</ele>
        <time>2022-08-16T10:31:39Z</time>
      </trkpt>
      <trkpt lat="43.94279" lon="0.54785">
        <ele>178</ele>
        <time>2022-08-16T10:31:52Z</time>
      </trkpt>
      <trkpt lat="43.94292" lon="0.54754">
        <ele>177</ele>
        <time>2022-08-16T10:32:12Z</time>
      </trkpt>
      <trkpt lat="43.94294" lon="0.54748">
        <ele>178</ele>
        <time>2022-08-16T10:32:16Z</time>
      </trkpt>
      <trkpt lat="43.94311" lon="0.5471">
        <ele>178</ele>
        <time>2022-08-16T10:32:48Z</time>
      </trkpt>
      <trkpt lat="43.94316" lon="0.54698">
        <ele>178</ele>
        <time>2022-08-16T10:32:56Z</time>
      </trkpt>
      <trkpt lat="43.94319" lon="0.54684">
        <ele>178</ele>
        <time>2022-08-16T10:33:04Z</time>
      </trkpt>
      <trkpt lat="43.94322" lon="0.54678">
        <ele>178</ele>
        <time>2022-08-16T10:33:08Z</time>
      </trkpt>
      <trkpt lat="43.94325" lon="0.54664">
        <ele>178</ele>
        <time>2022-08-16T10:33:16Z</time>
      </trkpt>
      <trkpt lat="43.94328" lon="0.54657">
        <ele>177</ele>
        <time>2022-08-16T10:33:21Z</time>
      </trkpt>
      <trkpt lat="43.94334" lon="0.54618">
        <ele>177</ele>
        <time>2022-08-16T10:33:45Z</time>
      </trkpt>
      <trkpt lat="43.94336" lon="0.54563">
        <ele>175</ele>
        <time>2022-08-16T10:34:17Z</time>
      </trkpt>
      <trkpt lat="43.94338" lon="0.5454">
        <ele>175</ele>
        <time>2022-08-16T10:34:29Z</time>
      </trkpt>
      <trkpt lat="43.94338" lon="0.54533">
        <ele>175</ele>
        <time>2022-08-16T10:34:32Z</time>
      </trkpt>
      <trkpt lat="43.94339" lon="0.54526">
        <ele>175</ele>
        <time>2022-08-16T10:34:37Z</time>
      </trkpt>
      <trkpt lat="43.94337" lon="0.54505">
        <ele>175</ele>
        <time>2022-08-16T10:34:47Z</time>
      </trkpt>
      <trkpt lat="43.94339" lon="0.54477">
        <ele>175</ele>
        <time>2022-08-16T10:35:02Z</time>
      </trkpt>
      <trkpt lat="43.94339" lon="0.54463">
        <ele>174</ele>
        <time>2022-08-16T10:35:11Z</time>
      </trkpt>
      <trkpt lat="43.94339" lon="0.54456">
        <ele>174</ele>
        <time>2022-08-16T10:35:19Z</time>
      </trkpt>
      <trkpt lat="43.94337" lon="0.54448">
        <ele>174</ele>
        <time>2022-08-16T10:35:30Z</time>
      </trkpt>
      <trkpt lat="43.94338" lon="0.54441">
        <ele>174</ele>
        <time>2022-08-16T10:35:35Z</time>
      </trkpt>
      <trkpt lat="43.94338" lon="0.54396">
        <ele>173</ele>
        <time>2022-08-16T10:36:03Z</time>
      </trkpt>
      <trkpt lat="43.94342" lon="0.54387">
        <ele>173</ele>
        <time>2022-08-16T10:36:22Z</time>
      </trkpt>
      <trkpt lat="43.94344" lon="0.54366">
        <ele>173</ele>
        <time>2022-08-16T10:36:35Z</time>
      </trkpt>
      <trkpt lat="43.9434" lon="0.54311">
        <ele>174</ele>
        <time>2022-08-16T10:37:07Z</time>
      </trkpt>
      <trkpt lat="43.94335" lon="0.54269">
        <ele>174</ele>
        <time>2022-08-16T10:37:32Z</time>
      </trkpt>
      <trkpt lat="43.94334" lon="0.54262">
        <ele>174</ele>
        <time>2022-08-16T10:37:35Z</time>
      </trkpt>
      <trkpt lat="43.94332" lon="0.54248">
        <ele>174</ele>
        <time>2022-08-16T10:37:43Z</time>
      </trkpt>
      <trkpt lat="43.9433" lon="0.54242">
        <ele>174</ele>
        <time>2022-08-16T10:37:47Z</time>
      </trkpt>
      <trkpt lat="43.94327" lon="0.54236">
        <ele>174</ele>
        <time>2022-08-16T10:37:51Z</time>
      </trkpt>
      <trkpt lat="43.94325" lon="0.54229">
        <ele>174</ele>
        <time>2022-08-16T10:37:55Z</time>
      </trkpt>
      <trkpt lat="43.94323" lon="0.54208">
        <ele>174</ele>
        <time>2022-08-16T10:38:07Z</time>
      </trkpt>
      <trkpt lat="43.9432" lon="0.54202">
        <ele>174</ele>
        <time>2022-08-16T10:38:11Z</time>
      </trkpt>
      <trkpt lat="43.94312" lon="0.54145">
        <ele>173</ele>
        <time>2022-08-16T10:38:43Z</time>
      </trkpt>
      <trkpt lat="43.9431" lon="0.5412">
        <ele>172</ele>
        <time>2022-08-16T10:38:57Z</time>
      </trkpt>
      <trkpt lat="43.94309" lon="0.54113">
        <ele>172</ele>
        <time>2022-08-16T10:39:01Z</time>
      </trkpt>
      <trkpt lat="43.94309" lon="0.54105">
        <ele>172</ele>
        <time>2022-08-16T10:39:06Z</time>
      </trkpt>
      <trkpt lat="43.94315" lon="0.54084">
        <ele>171</ele>
        <time>2022-08-16T10:39:19Z</time>
      </trkpt>
      <trkpt lat="43.94327" lon="0.54054">
        <ele>171</ele>
        <time>2022-08-16T10:39:42Z</time>
      </trkpt>
      <trkpt lat="43.94325" lon="0.54047">
        <ele>171</ele>
        <time>2022-08-16T10:39:47Z</time>
      </trkpt>
      <trkpt lat="43.94314" lon="0.54044">
        <ele>171</ele>
        <time>2022-08-16T10:40:00Z</time>
      </trkpt>
      <trkpt lat="43.94311" lon="0.54037">
        <ele>170</ele>
        <time>2022-08-16T10:40:06Z</time>
      </trkpt>
      <trkpt lat="43.9431" lon="0.54036">
        <ele>169</ele>
        <time>2022-08-16T10:41:48Z</time>
      </trkpt>
      <trkpt lat="43.94305" lon="0.54045">
        <ele>167</ele>
        <time>2022-08-16T10:42:02Z</time>
      </trkpt>
      <trkpt lat="43.94298" lon="0.54042">
        <ele>166</ele>
        <time>2022-08-16T10:42:08Z</time>
      </trkpt>
      <trkpt lat="43.94291" lon="0.54032">
        <ele>165</ele>
        <time>2022-08-16T10:42:18Z</time>
      </trkpt>
      <trkpt lat="43.94285" lon="0.54012">
        <ele>164</ele>
        <time>2022-08-16T10:42:36Z</time>
      </trkpt>
      <trkpt lat="43.94284" lon="0.53996">
        <ele>163</ele>
        <time>2022-08-16T10:42:51Z</time>
      </trkpt>
      <trkpt lat="43.94276" lon="0.54009">
        <ele>163</ele>
        <time>2022-08-16T10:48:13Z</time>
      </trkpt>
      <trkpt lat="43.9428" lon="0.54001">
        <ele>162</ele>
        <time>2022-08-16T10:49:45Z</time>
      </trkpt>
      <trkpt lat="43.9428" lon="0.54002">
        <ele>163</ele>
        <time>2022-08-16T10:51:56Z</time>
      </trkpt>
      <trkpt lat="43.94283" lon="0.53995">
        <ele>163</ele>
        <time>2022-08-16T10:52:09Z</time>
      </trkpt>
      <trkpt lat="43.94288" lon="0.53992">
        <ele>163</ele>
        <time>2022-08-16T10:58:55Z</time>
      </trkpt>
      <trkpt lat="43.94287" lon="0.53999">
        <ele>163</ele>
        <time>2022-08-16T10:58:58Z</time>
      </trkpt>
      <trkpt lat="43.94283" lon="0.54">
        <ele>163</ele>
        <time>2022-08-16T11:05:09Z</time>
      </trkpt>
      <trkpt lat="43.94285" lon="0.54006">
        <ele>162</ele>
        <time>2022-08-16T11:09:32Z</time>
      </trkpt>
      <trkpt lat="43.9428" lon="0.54007">
        <ele>162</ele>
        <time>2022-08-16T11:11:10Z</time>
      </trkpt>
      <trkpt lat="43.94281" lon="0.54006">
        <ele>162</ele>
        <time>2022-08-16T11:13:32Z</time>
      </trkpt>
      <trkpt lat="43.94283" lon="0.53999">
        <ele>162</ele>
        <time>2022-08-16T11:15:54Z</time>
      </trkpt>
      <trkpt lat="43.94289" lon="0.53999">
        <ele>162</ele>
        <time>2022-08-16T11:17:41Z</time>
      </trkpt>
      <trkpt lat="43.94282" lon="0.54008">
        <ele>163</ele>
        <time>2022-08-16T11:25:24Z</time>
      </trkpt>
      <trkpt lat="43.94284" lon="0.53996">
        <ele>163</ele>
        <time>2022-08-16T11:26:35Z</time>
      </trkpt>
      <trkpt lat="43.9428" lon="0.53997">
        <ele>163</ele>
        <time>2022-08-16T11:29:04Z</time>
      </trkpt>
      <trkpt lat="43.94282" lon="0.53987">
        <ele>163</ele>
        <time>2022-08-16T11:29:36Z</time>
      </trkpt>
      <trkpt lat="43.94279" lon="0.5397">
        <ele>162</ele>
        <time>2022-08-16T11:29:47Z</time>
      </trkpt>
      <trkpt lat="43.94278" lon="0.53961">
        <ele>162</ele>
        <time>2022-08-16T11:29:58Z</time>
      </trkpt>
      <trkpt lat="43.94273" lon="0.53947">
        <ele>160</ele>
        <time>2022-08-16T11:32:11Z</time>
      </trkpt>
      <trkpt lat="43.94271" lon="0.53939">
        <ele>160</ele>
        <time>2022-08-16T11:32:17Z</time>
      </trkpt>
      <trkpt lat="43.94272" lon="0.53931">
        <ele>160</ele>
        <time>2022-08-16T11:32:22Z</time>
      </trkpt>
      <trkpt lat="43.94271" lon="0.53924">
        <ele>159</ele>
        <time>2022-08-16T11:32:27Z</time>
      </trkpt>
      <trkpt lat="43.94262" lon="0.53901">
        <ele>157</ele>
        <time>2022-08-16T11:32:45Z</time>
      </trkpt>
      <trkpt lat="43.94255" lon="0.53889">
        <ele>155</ele>
        <time>2022-08-16T11:32:54Z</time>
      </trkpt>
      <trkpt lat="43.94246" lon="0.53865">
        <ele>152</ele>
        <time>2022-08-16T11:33:10Z</time>
      </trkpt>
      <trkpt lat="43.94242" lon="0.5386">
        <ele>151</ele>
        <time>2022-08-16T11:33:13Z</time>
      </trkpt>
      <trkpt lat="43.94233" lon="0.53837">
        <ele>149</ele>
        <time>2022-08-16T11:33:28Z</time>
      </trkpt>
      <trkpt lat="43.94232" lon="0.53829">
        <ele>148</ele>
        <time>2022-08-16T11:33:32Z</time>
      </trkpt>
      <trkpt lat="43.94227" lon="0.53817">
        <ele>146</ele>
        <time>2022-08-16T11:33:39Z</time>
      </trkpt>
      <trkpt lat="43.94225" lon="0.5381">
        <ele>146</ele>
        <time>2022-08-16T11:33:44Z</time>
      </trkpt>
      <trkpt lat="43.94228" lon="0.53784">
        <ele>144</ele>
        <time>2022-08-16T11:34:13Z</time>
      </trkpt>
      <trkpt lat="43.94227" lon="0.5377">
        <ele>143</ele>
        <time>2022-08-16T11:34:21Z</time>
      </trkpt>
      <trkpt lat="43.94225" lon="0.53763">
        <ele>142</ele>
        <time>2022-08-16T11:34:25Z</time>
      </trkpt>
      <trkpt lat="43.94227" lon="0.53748">
        <ele>141</ele>
        <time>2022-08-16T11:34:33Z</time>
      </trkpt>
      <trkpt lat="43.94229" lon="0.53741">
        <ele>140</ele>
        <time>2022-08-16T11:34:38Z</time>
      </trkpt>
      <trkpt lat="43.94236" lon="0.5373">
        <ele>139</ele>
        <time>2022-08-16T11:34:46Z</time>
      </trkpt>
      <trkpt lat="43.94266" lon="0.537">
        <ele>136</ele>
        <time>2022-08-16T11:35:18Z</time>
      </trkpt>
      <trkpt lat="43.94282" lon="0.53683">
        <ele>136</ele>
        <time>2022-08-16T11:35:34Z</time>
      </trkpt>
      <trkpt lat="43.94314" lon="0.5366">
        <ele>133</ele>
        <time>2022-08-16T11:36:02Z</time>
      </trkpt>
      <trkpt lat="43.94322" lon="0.53651">
        <ele>133</ele>
        <time>2022-08-16T11:36:10Z</time>
      </trkpt>
      <trkpt lat="43.94333" lon="0.53644">
        <ele>131</ele>
        <time>2022-08-16T11:36:18Z</time>
      </trkpt>
      <trkpt lat="43.94343" lon="0.53636">
        <ele>129</ele>
        <time>2022-08-16T11:36:27Z</time>
      </trkpt>
      <trkpt lat="43.94345" lon="0.5363">
        <ele>128</ele>
        <time>2022-08-16T11:36:32Z</time>
      </trkpt>
      <trkpt lat="43.94349" lon="0.53624">
        <ele>126</ele>
        <time>2022-08-16T11:36:37Z</time>
      </trkpt>
      <trkpt lat="43.94353" lon="0.5362">
        <ele>125</ele>
        <time>2022-08-16T11:36:41Z</time>
      </trkpt>
      <trkpt lat="43.94357" lon="0.53619">
        <ele>124</ele>
        <time>2022-08-16T11:36:45Z</time>
      </trkpt>
      <trkpt lat="43.94362" lon="0.5362">
        <ele>123</ele>
        <time>2022-08-16T11:36:49Z</time>
      </trkpt>
      <trkpt lat="43.94365" lon="0.53614">
        <ele>122</ele>
        <time>2022-08-16T11:36:54Z</time>
      </trkpt>
      <trkpt lat="43.94365" lon="0.53607">
        <ele>121</ele>
        <time>2022-08-16T11:36:58Z</time>
      </trkpt>
      <trkpt lat="43.9436" lon="0.53594">
        <ele>120</ele>
        <time>2022-08-16T11:37:08Z</time>
      </trkpt>
      <trkpt lat="43.94357" lon="0.53587">
        <ele>119</ele>
        <time>2022-08-16T11:37:12Z</time>
      </trkpt>
      <trkpt lat="43.94354" lon="0.53576">
        <ele>118</ele>
        <time>2022-08-16T11:37:20Z</time>
      </trkpt>
      <trkpt lat="43.94351" lon="0.5357">
        <ele>117</ele>
        <time>2022-08-16T11:37:24Z</time>
      </trkpt>
      <trkpt lat="43.94341" lon="0.53541">
        <ele>114</ele>
        <time>2022-08-16T11:37:43Z</time>
      </trkpt>
      <trkpt lat="43.94339" lon="0.53535">
        <ele>114</ele>
        <time>2022-08-16T11:37:47Z</time>
      </trkpt>
      <trkpt lat="43.94336" lon="0.53523">
        <ele>112</ele>
        <time>2022-08-16T11:37:55Z</time>
      </trkpt>
      <trkpt lat="43.94317" lon="0.53481">
        <ele>107</ele>
        <time>2022-08-16T11:38:22Z</time>
      </trkpt>
      <trkpt lat="43.94304" lon="0.53442">
        <ele>105</ele>
        <time>2022-08-16T11:38:45Z</time>
      </trkpt>
      <trkpt lat="43.94299" lon="0.5343">
        <ele>105</ele>
        <time>2022-08-16T11:38:52Z</time>
      </trkpt>
      <trkpt lat="43.94297" lon="0.53423">
        <ele>105</ele>
        <time>2022-08-16T11:38:57Z</time>
      </trkpt>
      <trkpt lat="43.94295" lon="0.5341">
        <ele>105</ele>
        <time>2022-08-16T11:39:05Z</time>
      </trkpt>
      <trkpt lat="43.94288" lon="0.53391">
        <ele>104</ele>
        <time>2022-08-16T11:39:17Z</time>
      </trkpt>
      <trkpt lat="43.94271" lon="0.53339">
        <ele>105</ele>
        <time>2022-08-16T11:39:49Z</time>
      </trkpt>
      <trkpt lat="43.94259" lon="0.53289">
        <ele>106</ele>
        <time>2022-08-16T11:40:16Z</time>
      </trkpt>
      <trkpt lat="43.94245" lon="0.53253">
        <ele>109</ele>
        <time>2022-08-16T11:40:40Z</time>
      </trkpt>
      <trkpt lat="43.9424" lon="0.53242">
        <ele>110</ele>
        <time>2022-08-16T11:40:48Z</time>
      </trkpt>
      <trkpt lat="43.94238" lon="0.53236">
        <ele>110</ele>
        <time>2022-08-16T11:40:52Z</time>
      </trkpt>
      <trkpt lat="43.9422" lon="0.53189">
        <ele>111</ele>
        <time>2022-08-16T11:41:23Z</time>
      </trkpt>
      <trkpt lat="43.94215" lon="0.53176">
        <ele>111</ele>
        <time>2022-08-16T11:41:31Z</time>
      </trkpt>
      <trkpt lat="43.94213" lon="0.5317">
        <ele>111</ele>
        <time>2022-08-16T11:41:35Z</time>
      </trkpt>
      <trkpt lat="43.94209" lon="0.53166">
        <ele>111</ele>
        <time>2022-08-16T11:41:40Z</time>
      </trkpt>
      <trkpt lat="43.94204" lon="0.53166">
        <ele>111</ele>
        <time>2022-08-16T11:41:44Z</time>
      </trkpt>
      <trkpt lat="43.94194" lon="0.53168">
        <ele>111</ele>
        <time>2022-08-16T11:41:52Z</time>
      </trkpt>
      <trkpt lat="43.94189" lon="0.53167">
        <ele>111</ele>
        <time>2022-08-16T11:41:56Z</time>
      </trkpt>
      <trkpt lat="43.94185" lon="0.53165">
        <ele>111</ele>
        <time>2022-08-16T11:42:00Z</time>
      </trkpt>
      <trkpt lat="43.94182" lon="0.5316">
        <ele>111</ele>
        <time>2022-08-16T11:42:05Z</time>
      </trkpt>
      <trkpt lat="43.94178" lon="0.53149">
        <ele>111</ele>
        <time>2022-08-16T11:42:12Z</time>
      </trkpt>
      <trkpt lat="43.94166" lon="0.53111">
        <ele>112</ele>
        <time>2022-08-16T11:42:42Z</time>
      </trkpt>
      <trkpt lat="43.94165" lon="0.53105">
        <ele>112</ele>
        <time>2022-08-16T11:42:46Z</time>
      </trkpt>
      <trkpt lat="43.94161" lon="0.53092">
        <ele>112</ele>
        <time>2022-08-16T11:42:54Z</time>
      </trkpt>
      <trkpt lat="43.94148" lon="0.53042">
        <ele>113</ele>
        <time>2022-08-16T11:43:26Z</time>
      </trkpt>
      <trkpt lat="43.94147" lon="0.53035">
        <ele>113</ele>
        <time>2022-08-16T11:43:31Z</time>
      </trkpt>
      <trkpt lat="43.94138" lon="0.53004">
        <ele>114</ele>
        <time>2022-08-16T11:43:52Z</time>
      </trkpt>
      <trkpt lat="43.94137" lon="0.52998">
        <ele>114</ele>
        <time>2022-08-16T11:43:56Z</time>
      </trkpt>
      <trkpt lat="43.94137" lon="0.52991">
        <ele>114</ele>
        <time>2022-08-16T11:44:01Z</time>
      </trkpt>
      <trkpt lat="43.94136" lon="0.52985">
        <ele>114</ele>
        <time>2022-08-16T11:44:06Z</time>
      </trkpt>
      <trkpt lat="43.94136" lon="0.52978">
        <ele>114</ele>
        <time>2022-08-16T11:44:10Z</time>
      </trkpt>
      <trkpt lat="43.94134" lon="0.52972">
        <ele>114</ele>
        <time>2022-08-16T11:44:14Z</time>
      </trkpt>
      <trkpt lat="43.9413" lon="0.52966">
        <ele>114</ele>
        <time>2022-08-16T11:44:22Z</time>
      </trkpt>
      <trkpt lat="43.94125" lon="0.52947">
        <ele>115</ele>
        <time>2022-08-16T11:44:35Z</time>
      </trkpt>
      <trkpt lat="43.94124" lon="0.52926">
        <ele>116</ele>
        <time>2022-08-16T11:44:46Z</time>
      </trkpt>
      <trkpt lat="43.94126" lon="0.52913">
        <ele>116</ele>
        <time>2022-08-16T11:44:54Z</time>
      </trkpt>
      <trkpt lat="43.94133" lon="0.52904">
        <ele>116</ele>
        <time>2022-08-16T11:45:02Z</time>
      </trkpt>
      <trkpt lat="43.94139" lon="0.52894">
        <ele>117</ele>
        <time>2022-08-16T11:45:11Z</time>
      </trkpt>
      <trkpt lat="43.9414" lon="0.52887">
        <ele>118</ele>
        <time>2022-08-16T11:45:16Z</time>
      </trkpt>
      <trkpt lat="43.94135" lon="0.52857">
        <ele>120</ele>
        <time>2022-08-16T11:45:50Z</time>
      </trkpt>
      <trkpt lat="43.94128" lon="0.52818">
        <ele>122</ele>
        <time>2022-08-16T11:46:15Z</time>
      </trkpt>
      <trkpt lat="43.94125" lon="0.52813">
        <ele>122</ele>
        <time>2022-08-16T11:46:19Z</time>
      </trkpt>
      <trkpt lat="43.94118" lon="0.52805">
        <ele>123</ele>
        <time>2022-08-16T11:46:27Z</time>
      </trkpt>
      <trkpt lat="43.94108" lon="0.52793">
        <ele>126</ele>
        <time>2022-08-16T11:46:48Z</time>
      </trkpt>
      <trkpt lat="43.94107" lon="0.52786">
        <ele>127</ele>
        <time>2022-08-16T11:46:53Z</time>
      </trkpt>
      <trkpt lat="43.94102" lon="0.52774">
        <ele>127</ele>
        <time>2022-08-16T11:47:01Z</time>
      </trkpt>
      <trkpt lat="43.94084" lon="0.5273">
        <ele>127</ele>
        <time>2022-08-16T11:47:33Z</time>
      </trkpt>
      <trkpt lat="43.94073" lon="0.52692">
        <ele>127</ele>
        <time>2022-08-16T11:47:58Z</time>
      </trkpt>
      <trkpt lat="43.94067" lon="0.52642">
        <ele>129</ele>
        <time>2022-08-16T11:48:29Z</time>
      </trkpt>
      <trkpt lat="43.94066" lon="0.52636">
        <ele>129</ele>
        <time>2022-08-16T11:48:33Z</time>
      </trkpt>
      <trkpt lat="43.94064" lon="0.52618">
        <ele>130</ele>
        <time>2022-08-16T11:48:46Z</time>
      </trkpt>
      <trkpt lat="43.94054" lon="0.52591">
        <ele>132</ele>
        <time>2022-08-16T11:49:05Z</time>
      </trkpt>
      <trkpt lat="43.94042" lon="0.5257">
        <ele>133</ele>
        <time>2022-08-16T11:49:23Z</time>
      </trkpt>
      <trkpt lat="43.94024" lon="0.52527">
        <ele>135</ele>
        <time>2022-08-16T11:49:54Z</time>
      </trkpt>
      <trkpt lat="43.94011" lon="0.52492">
        <ele>137</ele>
        <time>2022-08-16T11:50:21Z</time>
      </trkpt>
      <trkpt lat="43.93998" lon="0.52439">
        <ele>139</ele>
        <time>2022-08-16T11:50:57Z</time>
      </trkpt>
      <trkpt lat="43.93992" lon="0.52389">
        <ele>141</ele>
        <time>2022-08-16T11:51:29Z</time>
      </trkpt>
      <trkpt lat="43.93995" lon="0.52334">
        <ele>143</ele>
        <time>2022-08-16T11:52:02Z</time>
      </trkpt>
      <trkpt lat="43.93996" lon="0.5232">
        <ele>144</ele>
        <time>2022-08-16T11:52:10Z</time>
      </trkpt>
      <trkpt lat="43.94001" lon="0.52288">
        <ele>146</ele>
        <time>2022-08-16T11:52:35Z</time>
      </trkpt>
      <trkpt lat="43.94002" lon="0.52277">
        <ele>146</ele>
        <time>2022-08-16T11:52:49Z</time>
      </trkpt>
      <trkpt lat="43.94008" lon="0.52249">
        <ele>148</ele>
        <time>2022-08-16T11:53:09Z</time>
      </trkpt>
      <trkpt lat="43.9401" lon="0.5223">
        <ele>148</ele>
        <time>2022-08-16T11:53:29Z</time>
      </trkpt>
      <trkpt lat="43.94016" lon="0.5218">
        <ele>152</ele>
        <time>2022-08-16T11:54:04Z</time>
      </trkpt>
      <trkpt lat="43.94016" lon="0.52167">
        <ele>152</ele>
        <time>2022-08-16T11:54:12Z</time>
      </trkpt>
      <trkpt lat="43.94017" lon="0.52157">
        <ele>153</ele>
        <time>2022-08-16T11:54:24Z</time>
      </trkpt>
      <trkpt lat="43.94016" lon="0.52151">
        <ele>153</ele>
        <time>2022-08-16T11:54:28Z</time>
      </trkpt>
      <trkpt lat="43.94019" lon="0.52107">
        <ele>156</ele>
        <time>2022-08-16T11:54:58Z</time>
      </trkpt>
      <trkpt lat="43.94018" lon="0.52099">
        <ele>156</ele>
        <time>2022-08-16T11:55:04Z</time>
      </trkpt>
      <trkpt lat="43.94014" lon="0.52093">
        <ele>156</ele>
        <time>2022-08-16T11:55:14Z</time>
      </trkpt>
      <trkpt lat="43.94011" lon="0.52088">
        <ele>156</ele>
        <time>2022-08-16T11:55:18Z</time>
      </trkpt>
      <trkpt lat="43.93993" lon="0.5207">
        <ele>158</ele>
        <time>2022-08-16T11:55:51Z</time>
      </trkpt>
      <trkpt lat="43.93969" lon="0.52045">
        <ele>161</ele>
        <time>2022-08-16T11:56:23Z</time>
      </trkpt>
      <trkpt lat="43.93964" lon="0.5204">
        <ele>162</ele>
        <time>2022-08-16T11:56:28Z</time>
      </trkpt>
      <trkpt lat="43.93955" lon="0.52033">
        <ele>164</ele>
        <time>2022-08-16T11:56:51Z</time>
      </trkpt>
      <trkpt lat="43.93951" lon="0.52027">
        <ele>164</ele>
        <time>2022-08-16T11:58:05Z</time>
      </trkpt>
      <trkpt lat="43.93921" lon="0.51996">
        <ele>169</ele>
        <time>2022-08-16T11:58:44Z</time>
      </trkpt>
      <trkpt lat="43.93899" lon="0.51973">
        <ele>173</ele>
        <time>2022-08-16T11:59:32Z</time>
      </trkpt>
      <trkpt lat="43.93881" lon="0.51954">
        <ele>177</ele>
        <time>2022-08-16T12:00:05Z</time>
      </trkpt>
      <trkpt lat="43.93851" lon="0.5193">
        <ele>182</ele>
        <time>2022-08-16T12:00:37Z</time>
      </trkpt>
      <trkpt lat="43.93847" lon="0.51926">
        <ele>182</ele>
        <time>2022-08-16T12:00:42Z</time>
      </trkpt>
      <trkpt lat="43.93841" lon="0.51921">
        <ele>184</ele>
        <time>2022-08-16T12:00:58Z</time>
      </trkpt>
      <trkpt lat="43.93837" lon="0.51918">
        <ele>183</ele>
        <time>2022-08-16T12:01:02Z</time>
      </trkpt>
      <trkpt lat="43.93834" lon="0.51914">
        <ele>183</ele>
        <time>2022-08-16T12:01:06Z</time>
      </trkpt>
      <trkpt lat="43.9382" lon="0.51904">
        <ele>185</ele>
        <time>2022-08-16T12:01:19Z</time>
      </trkpt>
      <trkpt lat="43.93813" lon="0.51895">
        <ele>185</ele>
        <time>2022-08-16T12:01:27Z</time>
      </trkpt>
      <trkpt lat="43.93804" lon="0.51886">
        <ele>184</ele>
        <time>2022-08-16T12:01:36Z</time>
      </trkpt>
      <trkpt lat="43.93799" lon="0.51873">
        <ele>183</ele>
        <time>2022-08-16T12:01:45Z</time>
      </trkpt>
      <trkpt lat="43.93799" lon="0.51866">
        <ele>183</ele>
        <time>2022-08-16T12:01:49Z</time>
      </trkpt>
      <trkpt lat="43.93797" lon="0.51859">
        <ele>183</ele>
        <time>2022-08-16T12:01:54Z</time>
      </trkpt>
      <trkpt lat="43.93798" lon="0.51846">
        <ele>183</ele>
        <time>2022-08-16T12:02:01Z</time>
      </trkpt>
      <trkpt lat="43.93799" lon="0.51831">
        <ele>184</ele>
        <time>2022-08-16T12:02:10Z</time>
      </trkpt>
      <trkpt lat="43.938" lon="0.51824">
        <ele>184</ele>
        <time>2022-08-16T12:02:13Z</time>
      </trkpt>
      <trkpt lat="43.93806" lon="0.51769">
        <ele>187</ele>
        <time>2022-08-16T12:02:45Z</time>
      </trkpt>
      <trkpt lat="43.93812" lon="0.51714">
        <ele>189</ele>
        <time>2022-08-16T12:03:17Z</time>
      </trkpt>
      <trkpt lat="43.93814" lon="0.51708">
        <ele>189</ele>
        <time>2022-08-16T12:03:21Z</time>
      </trkpt>
      <trkpt lat="43.93815" lon="0.51693">
        <ele>189</ele>
        <time>2022-08-16T12:03:29Z</time>
      </trkpt>
      <trkpt lat="43.93824" lon="0.51633">
        <ele>190</ele>
        <time>2022-08-16T12:04:13Z</time>
      </trkpt>
      <trkpt lat="43.93826" lon="0.51612">
        <ele>190</ele>
        <time>2022-08-16T12:04:25Z</time>
      </trkpt>
      <trkpt lat="43.93826" lon="0.51605">
        <ele>190</ele>
        <time>2022-08-16T12:04:29Z</time>
      </trkpt>
      <trkpt lat="43.93826" lon="0.51598">
        <ele>191</ele>
        <time>2022-08-16T12:04:33Z</time>
      </trkpt>
      <trkpt lat="43.93831" lon="0.51545">
        <ele>192</ele>
        <time>2022-08-16T12:05:05Z</time>
      </trkpt>
      <trkpt lat="43.93831" lon="0.51537">
        <ele>193</ele>
        <time>2022-08-16T12:05:09Z</time>
      </trkpt>
      <trkpt lat="43.93831" lon="0.51523">
        <ele>194</ele>
        <time>2022-08-16T12:05:18Z</time>
      </trkpt>
      <trkpt lat="43.93828" lon="0.51503">
        <ele>195</ele>
        <time>2022-08-16T12:05:42Z</time>
      </trkpt>
      <trkpt lat="43.93826" lon="0.51479">
        <ele>196</ele>
        <time>2022-08-16T12:05:57Z</time>
      </trkpt>
      <trkpt lat="43.93825" lon="0.51466">
        <ele>197</ele>
        <time>2022-08-16T12:06:05Z</time>
      </trkpt>
      <trkpt lat="43.93824" lon="0.51459">
        <ele>197</ele>
        <time>2022-08-16T12:06:09Z</time>
      </trkpt>
      <trkpt lat="43.93824" lon="0.51444">
        <ele>197</ele>
        <time>2022-08-16T12:06:17Z</time>
      </trkpt>
      <trkpt lat="43.93824" lon="0.51404">
        <ele>197</ele>
        <time>2022-08-16T12:06:41Z</time>
      </trkpt>
      <trkpt lat="43.93834" lon="0.51371">
        <ele>197</ele>
        <time>2022-08-16T12:07:00Z</time>
      </trkpt>
      <trkpt lat="43.93839" lon="0.51359">
        <ele>197</ele>
        <time>2022-08-16T12:07:08Z</time>
      </trkpt>
      <trkpt lat="43.93851" lon="0.51337">
        <ele>197</ele>
        <time>2022-08-16T12:07:24Z</time>
      </trkpt>
      <trkpt lat="43.93875" lon="0.51302">
        <ele>197</ele>
        <time>2022-08-16T12:07:53Z</time>
      </trkpt>
      <trkpt lat="43.93877" lon="0.51296">
        <ele>197</ele>
        <time>2022-08-16T12:07:57Z</time>
      </trkpt>
      <trkpt lat="43.93878" lon="0.51289">
        <ele>197</ele>
        <time>2022-08-16T12:08:17Z</time>
      </trkpt>
      <trkpt lat="43.93881" lon="0.51285">
        <ele>197</ele>
        <time>2022-08-16T12:08:21Z</time>
      </trkpt>
      <trkpt lat="43.93885" lon="0.5128">
        <ele>196</ele>
        <time>2022-08-16T12:08:25Z</time>
      </trkpt>
      <trkpt lat="43.93889" lon="0.51275">
        <ele>197</ele>
        <time>2022-08-16T12:08:30Z</time>
      </trkpt>
      <trkpt lat="43.93892" lon="0.5127">
        <ele>197</ele>
        <time>2022-08-16T12:08:34Z</time>
      </trkpt>
      <trkpt lat="43.93897" lon="0.5126">
        <ele>196</ele>
        <time>2022-08-16T12:08:42Z</time>
      </trkpt>
      <trkpt lat="43.939" lon="0.51254">
        <ele>196</ele>
        <time>2022-08-16T12:08:46Z</time>
      </trkpt>
      <trkpt lat="43.93915" lon="0.51217">
        <ele>194</ele>
        <time>2022-08-16T12:09:10Z</time>
      </trkpt>
      <trkpt lat="43.93922" lon="0.512">
        <ele>194</ele>
        <time>2022-08-16T12:09:21Z</time>
      </trkpt>
      <trkpt lat="43.93928" lon="0.51188">
        <ele>194</ele>
        <time>2022-08-16T12:09:29Z</time>
      </trkpt>
      <trkpt lat="43.9393" lon="0.51181">
        <ele>194</ele>
        <time>2022-08-16T12:09:33Z</time>
      </trkpt>
      <trkpt lat="43.93933" lon="0.51176">
        <ele>193</ele>
        <time>2022-08-16T12:09:37Z</time>
      </trkpt>
      <trkpt lat="43.93936" lon="0.51169">
        <ele>193</ele>
        <time>2022-08-16T12:09:41Z</time>
      </trkpt>
      <trkpt lat="43.93938" lon="0.51164">
        <ele>193</ele>
        <time>2022-08-16T12:09:45Z</time>
      </trkpt>
      <trkpt lat="43.93944" lon="0.51152">
        <ele>194</ele>
        <time>2022-08-16T12:09:53Z</time>
      </trkpt>
      <trkpt lat="43.93947" lon="0.51146">
        <ele>194</ele>
        <time>2022-08-16T12:10:40Z</time>
      </trkpt>
      <trkpt lat="43.93949" lon="0.51139">
        <ele>193</ele>
        <time>2022-08-16T12:10:52Z</time>
      </trkpt>
      <trkpt lat="43.93952" lon="0.51134">
        <ele>194</ele>
        <time>2022-08-16T12:10:56Z</time>
      </trkpt>
      <trkpt lat="43.9396" lon="0.5111">
        <ele>194</ele>
        <time>2022-08-16T12:11:12Z</time>
      </trkpt>
      <trkpt lat="43.93962" lon="0.51104">
        <ele>194</ele>
        <time>2022-08-16T12:11:16Z</time>
      </trkpt>
      <trkpt lat="43.93962" lon="0.51098">
        <ele>193</ele>
        <time>2022-08-16T12:11:19Z</time>
      </trkpt>
      <trkpt lat="43.93966" lon="0.51086">
        <ele>194</ele>
        <time>2022-08-16T12:11:27Z</time>
      </trkpt>
      <trkpt lat="43.93981" lon="0.51046">
        <ele>191</ele>
        <time>2022-08-16T12:11:58Z</time>
      </trkpt>
      <trkpt lat="43.93988" lon="0.51029">
        <ele>189</ele>
        <time>2022-08-16T12:12:08Z</time>
      </trkpt>
      <trkpt lat="43.93998" lon="0.51019">
        <ele>186</ele>
        <time>2022-08-16T12:12:16Z</time>
      </trkpt>
      <trkpt lat="43.94005" lon="0.51009">
        <ele>185</ele>
        <time>2022-08-16T12:12:24Z</time>
      </trkpt>
      <trkpt lat="43.94013" lon="0.50997">
        <ele>183</ele>
        <time>2022-08-16T12:12:37Z</time>
      </trkpt>
      <trkpt lat="43.94025" lon="0.50985">
        <ele>181</ele>
        <time>2022-08-16T12:13:09Z</time>
      </trkpt>
      <trkpt lat="43.94055" lon="0.50935">
        <ele>176</ele>
        <time>2022-08-16T12:13:42Z</time>
      </trkpt>
      <trkpt lat="43.94062" lon="0.50925">
        <ele>174</ele>
        <time>2022-08-16T12:13:49Z</time>
      </trkpt>
      <trkpt lat="43.94081" lon="0.50889">
        <ele>173</ele>
        <time>2022-08-16T12:14:13Z</time>
      </trkpt>
      <trkpt lat="43.94084" lon="0.50884">
        <ele>173</ele>
        <time>2022-08-16T12:14:17Z</time>
      </trkpt>
      <trkpt lat="43.94088" lon="0.50881">
        <ele>173</ele>
        <time>2022-08-16T12:14:21Z</time>
      </trkpt>
      <trkpt lat="43.94092" lon="0.50875">
        <ele>172</ele>
        <time>2022-08-16T12:14:26Z</time>
      </trkpt>
      <trkpt lat="43.94096" lon="0.50871">
        <ele>172</ele>
        <time>2022-08-16T12:14:30Z</time>
      </trkpt>
      <trkpt lat="43.94105" lon="0.50866">
        <ele>171</ele>
        <time>2022-08-16T12:14:38Z</time>
      </trkpt>
      <trkpt lat="43.9412" lon="0.50849">
        <ele>171</ele>
        <time>2022-08-16T12:14:55Z</time>
      </trkpt>
      <trkpt lat="43.94128" lon="0.5084">
        <ele>171</ele>
        <time>2022-08-16T12:15:03Z</time>
      </trkpt>
      <trkpt lat="43.94131" lon="0.50834">
        <ele>171</ele>
        <time>2022-08-16T12:15:07Z</time>
      </trkpt>
      <trkpt lat="43.94142" lon="0.50812">
        <ele>171</ele>
        <time>2022-08-16T12:15:23Z</time>
      </trkpt>
      <trkpt lat="43.94143" lon="0.50806">
        <ele>170</ele>
        <time>2022-08-16T12:15:27Z</time>
      </trkpt>
      <trkpt lat="43.94148" lon="0.50794">
        <ele>170</ele>
        <time>2022-08-16T12:15:35Z</time>
      </trkpt>
      <trkpt lat="43.94149" lon="0.50789">
        <ele>170</ele>
        <time>2022-08-16T12:15:38Z</time>
      </trkpt>
      <trkpt lat="43.94153" lon="0.50783">
        <ele>169</ele>
        <time>2022-08-16T12:15:42Z</time>
      </trkpt>
      <trkpt lat="43.94168" lon="0.5073">
        <ele>166</ele>
        <time>2022-08-16T12:16:14Z</time>
      </trkpt>
      <trkpt lat="43.94175" lon="0.50712">
        <ele>164</ele>
        <time>2022-08-16T12:16:25Z</time>
      </trkpt>
      <trkpt lat="43.94182" lon="0.50695">
        <ele>165</ele>
        <time>2022-08-16T12:16:37Z</time>
      </trkpt>
      <trkpt lat="43.94185" lon="0.5069">
        <ele>165</ele>
        <time>2022-08-16T12:16:41Z</time>
      </trkpt>
      <trkpt lat="43.94187" lon="0.50684">
        <ele>165</ele>
        <time>2022-08-16T12:16:45Z</time>
      </trkpt>
      <trkpt lat="43.9419" lon="0.50679">
        <ele>165</ele>
        <time>2022-08-16T12:16:49Z</time>
      </trkpt>
      <trkpt lat="43.94192" lon="0.50672">
        <ele>166</ele>
        <time>2022-08-16T12:16:54Z</time>
      </trkpt>
      <trkpt lat="43.94201" lon="0.50631">
        <ele>167</ele>
        <time>2022-08-16T12:17:23Z</time>
      </trkpt>
      <trkpt lat="43.94204" lon="0.50626">
        <ele>168</ele>
        <time>2022-08-16T12:17:27Z</time>
      </trkpt>
      <trkpt lat="43.94231" lon="0.50588">
        <ele>170</ele>
        <time>2022-08-16T12:18:01Z</time>
      </trkpt>
      <trkpt lat="43.94235" lon="0.50578">
        <ele>170</ele>
        <time>2022-08-16T12:18:33Z</time>
      </trkpt>
      <trkpt lat="43.94251" lon="0.50546">
        <ele>172</ele>
        <time>2022-08-16T12:18:56Z</time>
      </trkpt>
      <trkpt lat="43.94258" lon="0.50537">
        <ele>173</ele>
        <time>2022-08-16T12:19:05Z</time>
      </trkpt>
      <trkpt lat="43.94273" lon="0.50506">
        <ele>174</ele>
        <time>2022-08-16T12:19:36Z</time>
      </trkpt>
      <trkpt lat="43.94274" lon="0.505">
        <ele>174</ele>
        <time>2022-08-16T12:19:40Z</time>
      </trkpt>
      <trkpt lat="43.94276" lon="0.50494">
        <ele>174</ele>
        <time>2022-08-16T12:19:43Z</time>
      </trkpt>
      <trkpt lat="43.94279" lon="0.50487">
        <ele>174</ele>
        <time>2022-08-16T12:19:48Z</time>
      </trkpt>
      <trkpt lat="43.94286" lon="0.50467">
        <ele>173</ele>
        <time>2022-08-16T12:20:02Z</time>
      </trkpt>
      <trkpt lat="43.94299" lon="0.50429">
        <ele>174</ele>
        <time>2022-08-16T12:20:25Z</time>
      </trkpt>
      <trkpt lat="43.94301" lon="0.50424">
        <ele>175</ele>
        <time>2022-08-16T12:20:29Z</time>
      </trkpt>
      <trkpt lat="43.94302" lon="0.50417">
        <ele>175</ele>
        <time>2022-08-16T12:20:33Z</time>
      </trkpt>
      <trkpt lat="43.94305" lon="0.50411">
        <ele>175</ele>
        <time>2022-08-16T12:20:38Z</time>
      </trkpt>
      <trkpt lat="43.94311" lon="0.5039">
        <ele>176</ele>
        <time>2022-08-16T12:20:51Z</time>
      </trkpt>
      <trkpt lat="43.94314" lon="0.50367">
        <ele>175</ele>
        <time>2022-08-16T12:21:03Z</time>
      </trkpt>
      <trkpt lat="43.94316" lon="0.50361">
        <ele>175</ele>
        <time>2022-08-16T12:21:07Z</time>
      </trkpt>
      <trkpt lat="43.94317" lon="0.50353">
        <ele>175</ele>
        <time>2022-08-16T12:21:11Z</time>
      </trkpt>
      <trkpt lat="43.94321" lon="0.5034">
        <ele>175</ele>
        <time>2022-08-16T12:21:19Z</time>
      </trkpt>
      <trkpt lat="43.94322" lon="0.50333">
        <ele>176</ele>
        <time>2022-08-16T12:21:23Z</time>
      </trkpt>
      <trkpt lat="43.94325" lon="0.5032">
        <ele>176</ele>
        <time>2022-08-16T12:21:30Z</time>
      </trkpt>
      <trkpt lat="43.94326" lon="0.50313">
        <ele>177</ele>
        <time>2022-08-16T12:21:34Z</time>
      </trkpt>
      <trkpt lat="43.94328" lon="0.50307">
        <ele>177</ele>
        <time>2022-08-16T12:21:38Z</time>
      </trkpt>
      <trkpt lat="43.94329" lon="0.503">
        <ele>177</ele>
        <time>2022-08-16T12:21:42Z</time>
      </trkpt>
      <trkpt lat="43.94334" lon="0.50273">
        <ele>177</ele>
        <time>2022-08-16T12:21:59Z</time>
      </trkpt>
      <trkpt lat="43.94337" lon="0.50259">
        <ele>177</ele>
        <time>2022-08-16T12:22:07Z</time>
      </trkpt>
      <trkpt lat="43.94339" lon="0.50245">
        <ele>177</ele>
        <time>2022-08-16T12:22:15Z</time>
      </trkpt>
      <trkpt lat="43.94342" lon="0.50231">
        <ele>177</ele>
        <time>2022-08-16T12:22:22Z</time>
      </trkpt>
      <trkpt lat="43.94343" lon="0.50224">
        <ele>177</ele>
        <time>2022-08-16T12:22:25Z</time>
      </trkpt>
      <trkpt lat="43.94344" lon="0.50218">
        <ele>177</ele>
        <time>2022-08-16T12:22:29Z</time>
      </trkpt>
      <trkpt lat="43.94349" lon="0.50199">
        <ele>176</ele>
        <time>2022-08-16T12:22:41Z</time>
      </trkpt>
      <trkpt lat="43.94353" lon="0.50178">
        <ele>178</ele>
        <time>2022-08-16T12:22:53Z</time>
      </trkpt>
      <trkpt lat="43.94358" lon="0.50166">
        <ele>178</ele>
        <time>2022-08-16T12:23:02Z</time>
      </trkpt>
      <trkpt lat="43.9436" lon="0.50159">
        <ele>178</ele>
        <time>2022-08-16T12:23:06Z</time>
      </trkpt>
      <trkpt lat="43.9436" lon="0.50151">
        <ele>178</ele>
        <time>2022-08-16T12:23:10Z</time>
      </trkpt>
      <trkpt lat="43.94363" lon="0.50139">
        <ele>178</ele>
        <time>2022-08-16T12:23:18Z</time>
      </trkpt>
      <trkpt lat="43.94366" lon="0.50132">
        <ele>178</ele>
        <time>2022-08-16T12:23:22Z</time>
      </trkpt>
      <trkpt lat="43.9437" lon="0.50119">
        <ele>178</ele>
        <time>2022-08-16T12:23:30Z</time>
      </trkpt>
      <trkpt lat="43.94372" lon="0.50113">
        <ele>178</ele>
        <time>2022-08-16T12:23:34Z</time>
      </trkpt>
      <trkpt lat="43.94382" lon="0.50087">
        <ele>178</ele>
        <time>2022-08-16T12:23:50Z</time>
      </trkpt>
      <trkpt lat="43.94383" lon="0.50082">
        <ele>178</ele>
        <time>2022-08-16T12:23:54Z</time>
      </trkpt>
      <trkpt lat="43.94387" lon="0.50075">
        <ele>178</ele>
        <time>2022-08-16T12:24:52Z</time>
      </trkpt>
      <trkpt lat="43.94406" lon="0.50027">
        <ele>178</ele>
        <time>2022-08-16T12:25:24Z</time>
      </trkpt>
      <trkpt lat="43.94409" lon="0.50021">
        <ele>178</ele>
        <time>2022-08-16T12:25:28Z</time>
      </trkpt>
      <trkpt lat="43.94411" lon="0.50015">
        <ele>178</ele>
        <time>2022-08-16T12:25:32Z</time>
      </trkpt>
      <trkpt lat="43.94416" lon="0.50003">
        <ele>178</ele>
        <time>2022-08-16T12:25:40Z</time>
      </trkpt>
      <trkpt lat="43.94419" lon="0.49998">
        <ele>178</ele>
        <time>2022-08-16T12:25:45Z</time>
      </trkpt>
      <trkpt lat="43.94426" lon="0.49981">
        <ele>178</ele>
        <time>2022-08-16T12:25:57Z</time>
      </trkpt>
      <trkpt lat="43.94433" lon="0.49971">
        <ele>178</ele>
        <time>2022-08-16T12:26:05Z</time>
      </trkpt>
      <trkpt lat="43.94435" lon="0.49965">
        <ele>178</ele>
        <time>2022-08-16T12:26:09Z</time>
      </trkpt>
      <trkpt lat="43.94441" lon="0.49953">
        <ele>178</ele>
        <time>2022-08-16T12:26:16Z</time>
      </trkpt>
      <trkpt lat="43.94443" lon="0.49949">
        <ele>178</ele>
        <time>2022-08-16T12:26:20Z</time>
      </trkpt>
      <trkpt lat="43.94445" lon="0.49943">
        <ele>178</ele>
        <time>2022-08-16T12:26:23Z</time>
      </trkpt>
      <trkpt lat="43.94447" lon="0.49938">
        <ele>179</ele>
        <time>2022-08-16T12:26:27Z</time>
      </trkpt>
      <trkpt lat="43.94452" lon="0.49925">
        <ele>179</ele>
        <time>2022-08-16T12:26:35Z</time>
      </trkpt>
      <trkpt lat="43.94457" lon="0.49913">
        <ele>179</ele>
        <time>2022-08-16T12:26:43Z</time>
      </trkpt>
      <trkpt lat="43.94462" lon="0.49901">
        <ele>178</ele>
        <time>2022-08-16T12:26:51Z</time>
      </trkpt>
      <trkpt lat="43.94465" lon="0.49888">
        <ele>178</ele>
        <time>2022-08-16T12:26:59Z</time>
      </trkpt>
      <trkpt lat="43.94467" lon="0.49881">
        <ele>179</ele>
        <time>2022-08-16T12:27:03Z</time>
      </trkpt>
      <trkpt lat="43.94478" lon="0.49827">
        <ele>179</ele>
        <time>2022-08-16T12:27:35Z</time>
      </trkpt>
      <trkpt lat="43.9448" lon="0.4982">
        <ele>179</ele>
        <time>2022-08-16T12:27:39Z</time>
      </trkpt>
      <trkpt lat="43.94481" lon="0.49813">
        <ele>179</ele>
        <time>2022-08-16T12:27:43Z</time>
      </trkpt>
      <trkpt lat="43.94485" lon="0.498">
        <ele>179</ele>
        <time>2022-08-16T12:27:51Z</time>
      </trkpt>
      <trkpt lat="43.94489" lon="0.49763">
        <ele>179</ele>
        <time>2022-08-16T12:28:14Z</time>
      </trkpt>
      <trkpt lat="43.94489" lon="0.49748">
        <ele>179</ele>
        <time>2022-08-16T12:28:23Z</time>
      </trkpt>
      <trkpt lat="43.94495" lon="0.49715">
        <ele>180</ele>
        <time>2022-08-16T12:28:42Z</time>
      </trkpt>
      <trkpt lat="43.945" lon="0.49703">
        <ele>180</ele>
        <time>2022-08-16T12:28:51Z</time>
      </trkpt>
      <trkpt lat="43.94505" lon="0.49682">
        <ele>180</ele>
        <time>2022-08-16T12:29:04Z</time>
      </trkpt>
      <trkpt lat="43.94517" lon="0.4965">
        <ele>180</ele>
        <time>2022-08-16T12:29:24Z</time>
      </trkpt>
      <trkpt lat="43.94518" lon="0.49643">
        <ele>180</ele>
        <time>2022-08-16T12:29:28Z</time>
      </trkpt>
      <trkpt lat="43.9452" lon="0.49635">
        <ele>180</ele>
        <time>2022-08-16T12:29:33Z</time>
      </trkpt>
      <trkpt lat="43.94523" lon="0.49629">
        <ele>180</ele>
        <time>2022-08-16T12:29:37Z</time>
      </trkpt>
      <trkpt lat="43.94536" lon="0.4959">
        <ele>179</ele>
        <time>2022-08-16T12:30:02Z</time>
      </trkpt>
      <trkpt lat="43.94541" lon="0.49578">
        <ele>178</ele>
        <time>2022-08-16T12:30:10Z</time>
      </trkpt>
      <trkpt lat="43.94542" lon="0.49572">
        <ele>179</ele>
        <time>2022-08-16T12:30:14Z</time>
      </trkpt>
      <trkpt lat="43.94546" lon="0.49566">
        <ele>179</ele>
        <time>2022-08-16T12:30:18Z</time>
      </trkpt>
      <trkpt lat="43.94552" lon="0.49555">
        <ele>179</ele>
        <time>2022-08-16T12:30:26Z</time>
      </trkpt>
      <trkpt lat="43.94572" lon="0.49508">
        <ele>178</ele>
        <time>2022-08-16T12:30:58Z</time>
      </trkpt>
      <trkpt lat="43.94574" lon="0.49496">
        <ele>178</ele>
        <time>2022-08-16T12:31:05Z</time>
      </trkpt>
      <trkpt lat="43.94576" lon="0.49489">
        <ele>178</ele>
        <time>2022-08-16T12:31:09Z</time>
      </trkpt>
      <trkpt lat="43.94579" lon="0.49477">
        <ele>178</ele>
        <time>2022-08-16T12:31:17Z</time>
      </trkpt>
      <trkpt lat="43.94586" lon="0.49458">
        <ele>178</ele>
        <time>2022-08-16T12:32:07Z</time>
      </trkpt>
      <trkpt lat="43.94589" lon="0.49452">
        <ele>178</ele>
        <time>2022-08-16T12:32:12Z</time>
      </trkpt>
      <trkpt lat="43.94592" lon="0.49446">
        <ele>179</ele>
        <time>2022-08-16T12:32:17Z</time>
      </trkpt>
      <trkpt lat="43.94593" lon="0.4944">
        <ele>178</ele>
        <time>2022-08-16T12:32:21Z</time>
      </trkpt>
      <trkpt lat="43.94598" lon="0.49421">
        <ele>178</ele>
        <time>2022-08-16T12:32:31Z</time>
      </trkpt>
      <trkpt lat="43.94606" lon="0.49402">
        <ele>179</ele>
        <time>2022-08-16T12:32:43Z</time>
      </trkpt>
      <trkpt lat="43.94607" lon="0.49395">
        <ele>179</ele>
        <time>2022-08-16T12:32:47Z</time>
      </trkpt>
      <trkpt lat="43.94613" lon="0.49384">
        <ele>180</ele>
        <time>2022-08-16T12:32:55Z</time>
      </trkpt>
      <trkpt lat="43.94616" lon="0.49378">
        <ele>180</ele>
        <time>2022-08-16T12:32:59Z</time>
      </trkpt>
      <trkpt lat="43.94618" lon="0.49373">
        <ele>180</ele>
        <time>2022-08-16T12:33:03Z</time>
      </trkpt>
      <trkpt lat="43.94622" lon="0.49361">
        <ele>180</ele>
        <time>2022-08-16T12:33:11Z</time>
      </trkpt>
      <trkpt lat="43.94625" lon="0.49355">
        <ele>180</ele>
        <time>2022-08-16T12:33:15Z</time>
      </trkpt>
      <trkpt lat="43.94637" lon="0.49326">
        <ele>181</ele>
        <time>2022-08-16T12:33:35Z</time>
      </trkpt>
      <trkpt lat="43.94639" lon="0.49319">
        <ele>180</ele>
        <time>2022-08-16T12:33:40Z</time>
      </trkpt>
      <trkpt lat="43.94645" lon="0.49307">
        <ele>180</ele>
        <time>2022-08-16T12:33:49Z</time>
      </trkpt>
      <trkpt lat="43.94648" lon="0.49301">
        <ele>180</ele>
        <time>2022-08-16T12:33:53Z</time>
      </trkpt>
      <trkpt lat="43.94649" lon="0.49294">
        <ele>180</ele>
        <time>2022-08-16T12:33:57Z</time>
      </trkpt>
      <trkpt lat="43.94654" lon="0.49283">
        <ele>181</ele>
        <time>2022-08-16T12:34:05Z</time>
      </trkpt>
      <trkpt lat="43.94668" lon="0.49229">
        <ele>178</ele>
        <time>2022-08-16T12:34:36Z</time>
      </trkpt>
      <trkpt lat="43.94672" lon="0.49224">
        <ele>178</ele>
        <time>2022-08-16T12:34:40Z</time>
      </trkpt>
      <trkpt lat="43.94679" lon="0.49198">
        <ele>177</ele>
        <time>2022-08-16T12:34:57Z</time>
      </trkpt>
      <trkpt lat="43.9468" lon="0.49185">
        <ele>177</ele>
        <time>2022-08-16T12:35:05Z</time>
      </trkpt>
      <trkpt lat="43.94684" lon="0.49173">
        <ele>177</ele>
        <time>2022-08-16T12:35:13Z</time>
      </trkpt>
      <trkpt lat="43.94689" lon="0.4914">
        <ele>177</ele>
        <time>2022-08-16T12:35:33Z</time>
      </trkpt>
      <trkpt lat="43.94691" lon="0.49134">
        <ele>177</ele>
        <time>2022-08-16T12:35:37Z</time>
      </trkpt>
      <trkpt lat="43.94693" lon="0.49127">
        <ele>177</ele>
        <time>2022-08-16T12:35:41Z</time>
      </trkpt>
      <trkpt lat="43.94695" lon="0.49096">
        <ele>176</ele>
        <time>2022-08-16T12:36:18Z</time>
      </trkpt>
      <trkpt lat="43.94699" lon="0.49041">
        <ele>176</ele>
        <time>2022-08-16T12:36:52Z</time>
      </trkpt>
      <trkpt lat="43.94698" lon="0.48986">
        <ele>176</ele>
        <time>2022-08-16T12:37:23Z</time>
      </trkpt>
      <trkpt lat="43.94701" lon="0.48957">
        <ele>176</ele>
        <time>2022-08-16T12:37:40Z</time>
      </trkpt>
      <trkpt lat="43.94702" lon="0.48951">
        <ele>175</ele>
        <time>2022-08-16T12:37:45Z</time>
      </trkpt>
      <trkpt lat="43.94706" lon="0.48943">
        <ele>169</ele>
        <time>2022-08-16T12:43:40Z</time>
      </trkpt>
      <trkpt lat="43.94744" lon="0.48952">
        <ele>166</ele>
        <time>2022-08-16T12:44:12Z</time>
      </trkpt>
      <trkpt lat="43.94785" lon="0.48953">
        <ele>163</ele>
        <time>2022-08-16T12:44:44Z</time>
      </trkpt>
      <trkpt lat="43.94821" lon="0.48953">
        <ele>161</ele>
        <time>2022-08-16T12:45:24Z</time>
      </trkpt>
      <trkpt lat="43.94826" lon="0.48953">
        <ele>160</ele>
        <time>2022-08-16T12:45:28Z</time>
      </trkpt>
      <trkpt lat="43.94841" lon="0.48947">
        <ele>160</ele>
        <time>2022-08-16T12:45:54Z</time>
      </trkpt>
      <trkpt lat="43.94864" lon="0.48932">
        <ele>157</ele>
        <time>2022-08-16T12:46:20Z</time>
      </trkpt>
      <trkpt lat="43.94869" lon="0.4893">
        <ele>157</ele>
        <time>2022-08-16T12:46:24Z</time>
      </trkpt>
      <trkpt lat="43.94883" lon="0.4893">
        <ele>156</ele>
        <time>2022-08-16T12:46:34Z</time>
      </trkpt>
      <trkpt lat="43.94892" lon="0.48933">
        <ele>156</ele>
        <time>2022-08-16T12:46:40Z</time>
      </trkpt>
      <trkpt lat="43.9493" lon="0.48948">
        <ele>154</ele>
        <time>2022-08-16T12:47:12Z</time>
      </trkpt>
      <trkpt lat="43.9497" lon="0.48961">
        <ele>151</ele>
        <time>2022-08-16T12:47:45Z</time>
      </trkpt>
      <trkpt lat="43.95008" lon="0.48977">
        <ele>146</ele>
        <time>2022-08-16T12:48:17Z</time>
      </trkpt>
      <trkpt lat="43.95021" lon="0.48985">
        <ele>145</ele>
        <time>2022-08-16T12:48:29Z</time>
      </trkpt>
      <trkpt lat="43.95045" lon="0.48992">
        <ele>143</ele>
        <time>2022-08-16T12:48:45Z</time>
      </trkpt>
      <trkpt lat="43.95065" lon="0.49004">
        <ele>142</ele>
        <time>2022-08-16T12:49:33Z</time>
      </trkpt>
      <trkpt lat="43.951" lon="0.49032">
        <ele>142</ele>
        <time>2022-08-16T12:50:07Z</time>
      </trkpt>
      <trkpt lat="43.95105" lon="0.49034">
        <ele>142</ele>
        <time>2022-08-16T12:50:12Z</time>
      </trkpt>
      <trkpt lat="43.95115" lon="0.49037">
        <ele>142</ele>
        <time>2022-08-16T12:50:20Z</time>
      </trkpt>
      <trkpt lat="43.95135" lon="0.49039">
        <ele>142</ele>
        <time>2022-08-16T12:51:01Z</time>
      </trkpt>
      <trkpt lat="43.9516" lon="0.49037">
        <ele>144</ele>
        <time>2022-08-16T12:51:23Z</time>
      </trkpt>
      <trkpt lat="43.95188" lon="0.49023">
        <ele>146</ele>
        <time>2022-08-16T12:51:49Z</time>
      </trkpt>
      <trkpt lat="43.95193" lon="0.49023">
        <ele>147</ele>
        <time>2022-08-16T12:51:53Z</time>
      </trkpt>
      <trkpt lat="43.95199" lon="0.49019">
        <ele>147</ele>
        <time>2022-08-16T12:51:59Z</time>
      </trkpt>
      <trkpt lat="43.9523" lon="0.49013">
        <ele>151</ele>
        <time>2022-08-16T12:52:34Z</time>
      </trkpt>
      <trkpt lat="43.95244" lon="0.49007">
        <ele>153</ele>
        <time>2022-08-16T12:52:48Z</time>
      </trkpt>
      <trkpt lat="43.95257" lon="0.49009">
        <ele>155</ele>
        <time>2022-08-16T12:53:12Z</time>
      </trkpt>
      <trkpt lat="43.95262" lon="0.49009">
        <ele>155</ele>
        <time>2022-08-16T12:53:16Z</time>
      </trkpt>
      <trkpt lat="43.95277" lon="0.49009">
        <ele>154</ele>
        <time>2022-08-16T12:53:29Z</time>
      </trkpt>
      <trkpt lat="43.95283" lon="0.49007">
        <ele>153</ele>
        <time>2022-08-16T12:53:59Z</time>
      </trkpt>
      <trkpt lat="43.95321" lon="0.48998">
        <ele>150</ele>
        <time>2022-08-16T12:54:30Z</time>
      </trkpt>
      <trkpt lat="43.95326" lon="0.48996">
        <ele>150</ele>
        <time>2022-08-16T12:54:34Z</time>
      </trkpt>
      <trkpt lat="43.95367" lon="0.48992">
        <ele>150</ele>
        <time>2022-08-16T12:55:06Z</time>
      </trkpt>
      <trkpt lat="43.95383" lon="0.48992">
        <ele>150</ele>
        <time>2022-08-16T12:55:18Z</time>
      </trkpt>
      <trkpt lat="43.95393" lon="0.4899">
        <ele>150</ele>
        <time>2022-08-16T12:55:26Z</time>
      </trkpt>
      <trkpt lat="43.954" lon="0.48992">
        <ele>150</ele>
        <time>2022-08-16T12:55:34Z</time>
      </trkpt>
      <trkpt lat="43.95406" lon="0.48991">
        <ele>150</ele>
        <time>2022-08-16T12:55:38Z</time>
      </trkpt>
      <trkpt lat="43.9542" lon="0.48996">
        <ele>152</ele>
        <time>2022-08-16T12:55:51Z</time>
      </trkpt>
      <trkpt lat="43.95441" lon="0.49011">
        <ele>154</ele>
        <time>2022-08-16T12:56:21Z</time>
      </trkpt>
      <trkpt lat="43.95445" lon="0.49014">
        <ele>155</ele>
        <time>2022-08-16T12:56:25Z</time>
      </trkpt>
      <trkpt lat="43.95449" lon="0.49016">
        <ele>156</ele>
        <time>2022-08-16T12:57:57Z</time>
      </trkpt>
      <trkpt lat="43.95453" lon="0.49019">
        <ele>156</ele>
        <time>2022-08-16T12:58:13Z</time>
      </trkpt>
      <trkpt lat="43.9549" lon="0.49041">
        <ele>159</ele>
        <time>2022-08-16T12:58:46Z</time>
      </trkpt>
      <trkpt lat="43.955" lon="0.49049">
        <ele>160</ele>
        <time>2022-08-16T12:59:04Z</time>
      </trkpt>
      <trkpt lat="43.95504" lon="0.49052">
        <ele>161</ele>
        <time>2022-08-16T12:59:24Z</time>
      </trkpt>
      <trkpt lat="43.95534" lon="0.49069">
        <ele>164</ele>
        <time>2022-08-16T12:59:58Z</time>
      </trkpt>
      <trkpt lat="43.95558" lon="0.49087">
        <ele>167</ele>
        <time>2022-08-16T13:00:32Z</time>
      </trkpt>
      <trkpt lat="43.95563" lon="0.49089">
        <ele>167</ele>
        <time>2022-08-16T13:00:36Z</time>
      </trkpt>
      <trkpt lat="43.95597" lon="0.49114">
        <ele>173</ele>
        <time>2022-08-16T13:01:12Z</time>
      </trkpt>
      <trkpt lat="43.95607" lon="0.49119">
        <ele>173</ele>
        <time>2022-08-16T13:01:23Z</time>
      </trkpt>
      <trkpt lat="43.95612" lon="0.49119">
        <ele>174</ele>
        <time>2022-08-16T13:01:28Z</time>
      </trkpt>
      <trkpt lat="43.95617" lon="0.49121">
        <ele>173</ele>
        <time>2022-08-16T13:01:32Z</time>
      </trkpt>
      <trkpt lat="43.95637" lon="0.4913">
        <ele>169</ele>
        <time>2022-08-16T13:01:53Z</time>
      </trkpt>
      <trkpt lat="43.95642" lon="0.49129">
        <ele>169</ele>
        <time>2022-08-16T13:01:58Z</time>
      </trkpt>
      <trkpt lat="43.95653" lon="0.49127">
        <ele>167</ele>
        <time>2022-08-16T13:02:06Z</time>
      </trkpt>
      <trkpt lat="43.95691" lon="0.49125">
        <ele>163</ele>
        <time>2022-08-16T13:02:40Z</time>
      </trkpt>
      <trkpt lat="43.95696" lon="0.49124">
        <ele>163</ele>
        <time>2022-08-16T13:02:44Z</time>
      </trkpt>
      <trkpt lat="43.95707" lon="0.49126">
        <ele>162</ele>
        <time>2022-08-16T13:02:53Z</time>
      </trkpt>
      <trkpt lat="43.95748" lon="0.4912">
        <ele>159</ele>
        <time>2022-08-16T13:03:27Z</time>
      </trkpt>
      <trkpt lat="43.95785" lon="0.49115">
        <ele>156</ele>
        <time>2022-08-16T13:03:58Z</time>
      </trkpt>
      <trkpt lat="43.95832" lon="0.49111">
        <ele>153</ele>
        <time>2022-08-16T13:04:30Z</time>
      </trkpt>
      <trkpt lat="43.95856" lon="0.49111">
        <ele>152</ele>
        <time>2022-08-16T13:04:47Z</time>
      </trkpt>
      <trkpt lat="43.9589" lon="0.49106">
        <ele>148</ele>
        <time>2022-08-16T13:05:21Z</time>
      </trkpt>
      <trkpt lat="43.95895" lon="0.49107">
        <ele>148</ele>
        <time>2022-08-16T13:05:26Z</time>
      </trkpt>
      <trkpt lat="43.959" lon="0.49105">
        <ele>147</ele>
        <time>2022-08-16T13:05:30Z</time>
      </trkpt>
      <trkpt lat="43.95906" lon="0.49105">
        <ele>147</ele>
        <time>2022-08-16T13:05:35Z</time>
      </trkpt>
      <trkpt lat="43.95917" lon="0.49106">
        <ele>147</ele>
        <time>2022-08-16T13:05:45Z</time>
      </trkpt>
      <trkpt lat="43.95925" lon="0.49103">
        <ele>148</ele>
        <time>2022-08-16T13:05:58Z</time>
      </trkpt>
      <trkpt lat="43.95929" lon="0.49107">
        <ele>148</ele>
        <time>2022-08-16T13:07:08Z</time>
      </trkpt>
      <trkpt lat="43.95935" lon="0.49107">
        <ele>148</ele>
        <time>2022-08-16T13:07:26Z</time>
      </trkpt>
      <trkpt lat="43.95958" lon="0.49122">
        <ele>153</ele>
        <time>2022-08-16T13:07:53Z</time>
      </trkpt>
      <trkpt lat="43.95963" lon="0.49124">
        <ele>155</ele>
        <time>2022-08-16T13:08:12Z</time>
      </trkpt>
      <trkpt lat="43.95968" lon="0.49127">
        <ele>156</ele>
        <time>2022-08-16T13:08:30Z</time>
      </trkpt>
      <trkpt lat="43.96002" lon="0.49142">
        <ele>161</ele>
        <time>2022-08-16T13:09:05Z</time>
      </trkpt>
      <trkpt lat="43.96007" lon="0.49145">
        <ele>161</ele>
        <time>2022-08-16T13:09:10Z</time>
      </trkpt>
      <trkpt lat="43.96015" lon="0.49154">
        <ele>162</ele>
        <time>2022-08-16T13:09:20Z</time>
      </trkpt>
      <trkpt lat="43.96022" lon="0.49167">
        <ele>163</ele>
        <time>2022-08-16T13:09:33Z</time>
      </trkpt>
      <trkpt lat="43.9604" lon="0.4919">
        <ele>165</ele>
        <time>2022-08-16T13:09:55Z</time>
      </trkpt>
      <trkpt lat="43.96049" lon="0.49208">
        <ele>167</ele>
        <time>2022-08-16T13:10:09Z</time>
      </trkpt>
      <trkpt lat="43.96057" lon="0.49219">
        <ele>168</ele>
        <time>2022-08-16T13:10:20Z</time>
      </trkpt>
      <trkpt lat="43.9608" lon="0.49257">
        <ele>168</ele>
        <time>2022-08-16T13:10:50Z</time>
      </trkpt>
      <trkpt lat="43.96083" lon="0.49261">
        <ele>168</ele>
        <time>2022-08-16T13:10:54Z</time>
      </trkpt>
      <trkpt lat="43.96097" lon="0.49274">
        <ele>167</ele>
        <time>2022-08-16T13:11:06Z</time>
      </trkpt>
      <trkpt lat="43.96106" lon="0.49291">
        <ele>168</ele>
        <time>2022-08-16T13:11:18Z</time>
      </trkpt>
      <trkpt lat="43.96121" lon="0.49336">
        <ele>171</ele>
        <time>2022-08-16T13:11:47Z</time>
      </trkpt>
      <trkpt lat="43.96124" lon="0.49342">
        <ele>171</ele>
        <time>2022-08-16T13:11:51Z</time>
      </trkpt>
      <trkpt lat="43.96134" lon="0.4936">
        <ele>172</ele>
        <time>2022-08-16T13:12:04Z</time>
      </trkpt>
      <trkpt lat="43.96138" lon="0.49364">
        <ele>172</ele>
        <time>2022-08-16T13:12:08Z</time>
      </trkpt>
      <trkpt lat="43.9617" lon="0.49377">
        <ele>173</ele>
        <time>2022-08-16T13:12:39Z</time>
      </trkpt>
      <trkpt lat="43.96193" lon="0.49388">
        <ele>176</ele>
        <time>2022-08-16T13:13:07Z</time>
      </trkpt>
      <trkpt lat="43.96201" lon="0.49388">
        <ele>176</ele>
        <time>2022-08-16T13:13:26Z</time>
      </trkpt>
      <trkpt lat="43.96211" lon="0.49399">
        <ele>177</ele>
        <time>2022-08-16T13:13:40Z</time>
      </trkpt>
      <trkpt lat="43.96229" lon="0.49403">
        <ele>180</ele>
        <time>2022-08-16T13:14:00Z</time>
      </trkpt>
      <trkpt lat="43.96234" lon="0.49408">
        <ele>181</ele>
        <time>2022-08-16T13:14:13Z</time>
      </trkpt>
      <trkpt lat="43.96235" lon="0.49409">
        <ele>182</ele>
        <time>2022-08-16T13:15:22Z</time>
      </trkpt>
      <trkpt lat="43.96242" lon="0.49412">
        <ele>182</ele>
        <time>2022-08-16T13:15:35Z</time>
      </trkpt>
      <trkpt lat="43.96246" lon="0.49415">
        <ele>183</ele>
        <time>2022-08-16T13:15:39Z</time>
      </trkpt>
      <trkpt lat="43.96261" lon="0.49424">
        <ele>185</ele>
        <time>2022-08-16T13:15:56Z</time>
      </trkpt>
      <trkpt lat="43.96265" lon="0.49425">
        <ele>186</ele>
        <time>2022-08-16T13:16:06Z</time>
      </trkpt>
      <trkpt lat="43.9627" lon="0.49421">
        <ele>186</ele>
        <time>2022-08-16T13:16:22Z</time>
      </trkpt>
      <trkpt lat="43.96276" lon="0.49426">
        <ele>187</ele>
        <time>2022-08-16T13:16:31Z</time>
      </trkpt>
      <trkpt lat="43.96281" lon="0.49427">
        <ele>187</ele>
        <time>2022-08-16T13:16:37Z</time>
      </trkpt>
      <trkpt lat="43.96285" lon="0.49431">
        <ele>188</ele>
        <time>2022-08-16T13:16:40Z</time>
      </trkpt>
      <trkpt lat="43.96292" lon="0.49434">
        <ele>189</ele>
        <time>2022-08-16T13:16:47Z</time>
      </trkpt>
      <trkpt lat="43.96297" lon="0.4944">
        <ele>190</ele>
        <time>2022-08-16T13:16:52Z</time>
      </trkpt>
      <trkpt lat="43.96308" lon="0.49445">
        <ele>191</ele>
        <time>2022-08-16T13:17:04Z</time>
      </trkpt>
      <trkpt lat="43.96322" lon="0.49447">
        <ele>193</ele>
        <time>2022-08-16T13:17:41Z</time>
      </trkpt>
      <trkpt lat="43.96327" lon="0.4945">
        <ele>194</ele>
        <time>2022-08-16T13:17:46Z</time>
      </trkpt>
      <trkpt lat="43.96335" lon="0.4945">
        <ele>194</ele>
        <time>2022-08-16T13:17:55Z</time>
      </trkpt>
      <trkpt lat="43.96355" lon="0.49468">
        <ele>198</ele>
        <time>2022-08-16T13:18:23Z</time>
      </trkpt>
      <trkpt lat="43.96371" lon="0.49474">
        <ele>202</ele>
        <time>2022-08-16T13:18:42Z</time>
      </trkpt>
      <trkpt lat="43.96377" lon="0.49473">
        <ele>202</ele>
        <time>2022-08-16T13:18:55Z</time>
      </trkpt>
      <trkpt lat="43.96407" lon="0.49474">
        <ele>206</ele>
        <time>2022-08-16T13:19:29Z</time>
      </trkpt>
      <trkpt lat="43.96412" lon="0.49477">
        <ele>207</ele>
        <time>2022-08-16T13:19:35Z</time>
      </trkpt>
      <trkpt lat="43.96418" lon="0.49484">
        <ele>208</ele>
        <time>2022-08-16T13:19:43Z</time>
      </trkpt>
      <trkpt lat="43.96421" lon="0.49477">
        <ele>209</ele>
        <time>2022-08-16T13:20:02Z</time>
      </trkpt>
      <trkpt lat="43.96421" lon="0.49469">
        <ele>208</ele>
        <time>2022-08-16T13:20:07Z</time>
      </trkpt>
      <trkpt lat="43.96428" lon="0.49443">
        <ele>208</ele>
        <time>2022-08-16T13:20:24Z</time>
      </trkpt>
      <trkpt lat="43.9645" lon="0.49402">
        <ele>208</ele>
        <time>2022-08-16T13:20:54Z</time>
      </trkpt>
      <trkpt lat="43.96473" lon="0.49354">
        <ele>206</ele>
        <time>2022-08-16T13:21:26Z</time>
      </trkpt>
      <trkpt lat="43.96487" lon="0.49296">
        <ele>204</ele>
        <time>2022-08-16T13:21:59Z</time>
      </trkpt>
      <trkpt lat="43.96496" lon="0.4924">
        <ele>203</ele>
        <time>2022-08-16T13:22:31Z</time>
      </trkpt>
      <trkpt lat="43.96506" lon="0.49194">
        <ele>202</ele>
        <time>2022-08-16T13:22:59Z</time>
      </trkpt>
      <trkpt lat="43.9651" lon="0.49188">
        <ele>202</ele>
        <time>2022-08-16T13:23:03Z</time>
      </trkpt>
      <trkpt lat="43.96533" lon="0.49167">
        <ele>202</ele>
        <time>2022-08-16T13:23:24Z</time>
      </trkpt>
      <trkpt lat="43.96545" lon="0.49152">
        <ele>202</ele>
        <time>2022-08-16T13:23:39Z</time>
      </trkpt>
      <trkpt lat="43.9655" lon="0.49135">
        <ele>203</ele>
        <time>2022-08-16T13:23:49Z</time>
      </trkpt>
      <trkpt lat="43.96571" lon="0.49103">
        <ele>204</ele>
        <time>2022-08-16T13:24:21Z</time>
      </trkpt>
      <trkpt lat="43.96574" lon="0.49098">
        <ele>204</ele>
        <time>2022-08-16T13:24:25Z</time>
      </trkpt>
      <trkpt lat="43.96578" lon="0.49094">
        <ele>204</ele>
        <time>2022-08-16T13:24:29Z</time>
      </trkpt>
      <trkpt lat="43.96587" lon="0.49084">
        <ele>205</ele>
        <time>2022-08-16T13:24:40Z</time>
      </trkpt>
      <trkpt lat="43.96591" lon="0.49079">
        <ele>205</ele>
        <time>2022-08-16T13:24:44Z</time>
      </trkpt>
      <trkpt lat="43.96598" lon="0.49068">
        <ele>205</ele>
        <time>2022-08-16T13:24:52Z</time>
      </trkpt>
      <trkpt lat="43.96614" lon="0.49052">
        <ele>205</ele>
        <time>2022-08-16T13:25:08Z</time>
      </trkpt>
      <trkpt lat="43.96629" lon="0.49044">
        <ele>205</ele>
        <time>2022-08-16T13:25:20Z</time>
      </trkpt>
      <trkpt lat="43.96634" lon="0.49041">
        <ele>205</ele>
        <time>2022-08-16T13:25:25Z</time>
      </trkpt>
      <trkpt lat="43.96642" lon="0.49035">
        <ele>205</ele>
        <time>2022-08-16T13:25:33Z</time>
      </trkpt>
      <trkpt lat="43.96648" lon="0.49034">
        <ele>205</ele>
        <time>2022-08-16T13:25:39Z</time>
      </trkpt>
      <trkpt lat="43.96665" lon="0.49023">
        <ele>205</ele>
        <time>2022-08-16T13:25:55Z</time>
      </trkpt>
      <trkpt lat="43.96679" lon="0.49016">
        <ele>205</ele>
        <time>2022-08-16T13:26:06Z</time>
      </trkpt>
      <trkpt lat="43.96684" lon="0.49014">
        <ele>205</ele>
        <time>2022-08-16T13:26:11Z</time>
      </trkpt>
      <trkpt lat="43.9672" lon="0.48993">
        <ele>205</ele>
        <time>2022-08-16T13:26:43Z</time>
      </trkpt>
      <trkpt lat="43.9673" lon="0.48988">
        <ele>205</ele>
        <time>2022-08-16T13:26:52Z</time>
      </trkpt>
      <trkpt lat="43.96753" lon="0.48971">
        <ele>204</ele>
        <time>2022-08-16T13:27:12Z</time>
      </trkpt>
      <trkpt lat="43.9676" lon="0.48969">
        <ele>204</ele>
        <time>2022-08-16T13:27:20Z</time>
      </trkpt>
      <trkpt lat="43.96774" lon="0.48971">
        <ele>204</ele>
        <time>2022-08-16T13:27:38Z</time>
      </trkpt>
      <trkpt lat="43.96779" lon="0.48974">
        <ele>204</ele>
        <time>2022-08-16T13:27:43Z</time>
      </trkpt>
      <trkpt lat="43.96784" lon="0.4898">
        <ele>205</ele>
        <time>2022-08-16T13:27:51Z</time>
      </trkpt>
      <trkpt lat="43.96779" lon="0.48983">
        <ele>204</ele>
        <time>2022-08-16T13:28:12Z</time>
      </trkpt>
      <trkpt lat="43.96786" lon="0.48987">
        <ele>204</ele>
        <time>2022-08-16T13:28:42Z</time>
      </trkpt>
      <trkpt lat="43.96791" lon="0.48989">
        <ele>204</ele>
        <time>2022-08-16T13:28:46Z</time>
      </trkpt>
      <trkpt lat="43.96824" lon="0.49022">
        <ele>205</ele>
        <time>2022-08-16T13:29:17Z</time>
      </trkpt>
      <trkpt lat="43.96833" lon="0.49032">
        <ele>205</ele>
        <time>2022-08-16T13:29:25Z</time>
      </trkpt>
      <trkpt lat="43.96859" lon="0.49057">
        <ele>207</ele>
        <time>2022-08-16T13:29:49Z</time>
      </trkpt>
      <trkpt lat="43.96863" lon="0.49054">
        <ele>207</ele>
        <time>2022-08-16T13:29:57Z</time>
      </trkpt>
      <trkpt lat="43.96892" lon="0.49037">
        <ele>208</ele>
        <time>2022-08-16T13:30:25Z</time>
      </trkpt>
      <trkpt lat="43.96895" lon="0.49033">
        <ele>208</ele>
        <time>2022-08-16T13:30:30Z</time>
      </trkpt>
      <trkpt lat="43.9693" lon="0.49">
        <ele>211</ele>
        <time>2022-08-16T13:31:05Z</time>
      </trkpt>
      <trkpt lat="43.96939" lon="0.48992">
        <ele>211</ele>
        <time>2022-08-16T13:31:12Z</time>
      </trkpt>
      <trkpt lat="43.96968" lon="0.48974">
        <ele>211</ele>
        <time>2022-08-16T13:31:37Z</time>
      </trkpt>
      <trkpt lat="43.96972" lon="0.4897">
        <ele>212</ele>
        <time>2022-08-16T13:31:41Z</time>
      </trkpt>
      <trkpt lat="43.9698" lon="0.48961">
        <ele>211</ele>
        <time>2022-08-16T13:31:49Z</time>
      </trkpt>
      <trkpt lat="43.96999" lon="0.48946">
        <ele>212</ele>
        <time>2022-08-16T13:32:15Z</time>
      </trkpt>
      <trkpt lat="43.97006" lon="0.48935">
        <ele>212</ele>
        <time>2022-08-16T13:32:23Z</time>
      </trkpt>
      <trkpt lat="43.97034" lon="0.48896">
        <ele>212</ele>
        <time>2022-08-16T13:32:54Z</time>
      </trkpt>
      <trkpt lat="43.97062" lon="0.48854">
        <ele>213</ele>
        <time>2022-08-16T13:33:27Z</time>
      </trkpt>
      <trkpt lat="43.97068" lon="0.48844">
        <ele>212</ele>
        <time>2022-08-16T13:33:34Z</time>
      </trkpt>
      <trkpt lat="43.97072" lon="0.48839">
        <ele>212</ele>
        <time>2022-08-16T13:33:39Z</time>
      </trkpt>
      <trkpt lat="43.97074" lon="0.48833">
        <ele>212</ele>
        <time>2022-08-16T13:33:43Z</time>
      </trkpt>
      <trkpt lat="43.97077" lon="0.48827">
        <ele>212</ele>
        <time>2022-08-16T13:33:48Z</time>
      </trkpt>
      <trkpt lat="43.97081" lon="0.48822">
        <ele>212</ele>
        <time>2022-08-16T13:33:53Z</time>
      </trkpt>
      <trkpt lat="43.97084" lon="0.48816">
        <ele>212</ele>
        <time>2022-08-16T13:33:57Z</time>
      </trkpt>
      <trkpt lat="43.97119" lon="0.48786">
        <ele>212</ele>
        <time>2022-08-16T13:34:29Z</time>
      </trkpt>
      <trkpt lat="43.97157" lon="0.48758">
        <ele>211</ele>
        <time>2022-08-16T13:35:02Z</time>
      </trkpt>
      <trkpt lat="43.97168" lon="0.48752">
        <ele>210</ele>
        <time>2022-08-16T13:35:10Z</time>
      </trkpt>
      <trkpt lat="43.97188" lon="0.4874">
        <ele>211</ele>
        <time>2022-08-16T13:35:29Z</time>
      </trkpt>
      <trkpt lat="43.97202" lon="0.48732">
        <ele>211</ele>
        <time>2022-08-16T13:35:41Z</time>
      </trkpt>
      <trkpt lat="43.97211" lon="0.48724">
        <ele>211</ele>
        <time>2022-08-16T13:36:00Z</time>
      </trkpt>
      <trkpt lat="43.97217" lon="0.4872">
        <ele>211</ele>
        <time>2022-08-16T13:36:05Z</time>
      </trkpt>
      <trkpt lat="43.97222" lon="0.48718">
        <ele>211</ele>
        <time>2022-08-16T13:36:09Z</time>
      </trkpt>
      <trkpt lat="43.97237" lon="0.48714">
        <ele>211</ele>
        <time>2022-08-16T13:36:20Z</time>
      </trkpt>
      <trkpt lat="43.97247" lon="0.48715">
        <ele>211</ele>
        <time>2022-08-16T13:36:27Z</time>
      </trkpt>
      <trkpt lat="43.97252" lon="0.48714">
        <ele>211</ele>
        <time>2022-08-16T13:36:31Z</time>
      </trkpt>
      <trkpt lat="43.97275" lon="0.48717">
        <ele>211</ele>
        <time>2022-08-16T13:36:49Z</time>
      </trkpt>
      <trkpt lat="43.9728" lon="0.48715">
        <ele>211</ele>
        <time>2022-08-16T13:36:53Z</time>
      </trkpt>
      <trkpt lat="43.97289" lon="0.48715">
        <ele>211</ele>
        <time>2022-08-16T13:37:01Z</time>
      </trkpt>
      <trkpt lat="43.973" lon="0.48712">
        <ele>211</ele>
        <time>2022-08-16T13:37:10Z</time>
      </trkpt>
      <trkpt lat="43.97339" lon="0.48698">
        <ele>211</ele>
        <time>2022-08-16T13:37:43Z</time>
      </trkpt>
      <trkpt lat="43.97376" lon="0.48682">
        <ele>212</ele>
        <time>2022-08-16T13:38:13Z</time>
      </trkpt>
      <trkpt lat="43.97385" lon="0.48683">
        <ele>211</ele>
        <time>2022-08-16T13:38:21Z</time>
      </trkpt>
      <trkpt lat="43.9739" lon="0.48682">
        <ele>212</ele>
        <time>2022-08-16T13:38:25Z</time>
      </trkpt>
      <trkpt lat="43.97394" lon="0.48679">
        <ele>212</ele>
        <time>2022-08-16T13:38:29Z</time>
      </trkpt>
      <trkpt lat="43.97404" lon="0.48675">
        <ele>211</ele>
        <time>2022-08-16T13:38:37Z</time>
      </trkpt>
      <trkpt lat="43.97418" lon="0.48666">
        <ele>211</ele>
        <time>2022-08-16T13:38:50Z</time>
      </trkpt>
      <trkpt lat="43.97423" lon="0.48665">
        <ele>211</ele>
        <time>2022-08-16T13:38:54Z</time>
      </trkpt>
      <trkpt lat="43.97427" lon="0.4867">
        <ele>211</ele>
        <time>2022-08-16T13:38:57Z</time>
      </trkpt>
      <trkpt lat="43.97429" lon="0.48675">
        <ele>211</ele>
        <time>2022-08-16T13:39:00Z</time>
      </trkpt>
      <trkpt lat="43.9743" lon="0.48682">
        <ele>211</ele>
        <time>2022-08-16T13:39:04Z</time>
      </trkpt>
      <trkpt lat="43.97432" lon="0.48719">
        <ele>209</ele>
        <time>2022-08-16T13:39:26Z</time>
      </trkpt>
      <trkpt lat="43.97437" lon="0.48741">
        <ele>207</ele>
        <time>2022-08-16T13:39:39Z</time>
      </trkpt>
      <trkpt lat="43.97437" lon="0.4875">
        <ele>206</ele>
        <time>2022-08-16T13:39:43Z</time>
      </trkpt>
      <trkpt lat="43.97442" lon="0.48771">
        <ele>205</ele>
        <time>2022-08-16T13:39:57Z</time>
      </trkpt>
      <trkpt lat="43.97443" lon="0.48779">
        <ele>204</ele>
        <time>2022-08-16T13:40:02Z</time>
      </trkpt>
      <trkpt lat="43.97446" lon="0.48792">
        <ele>203</ele>
        <time>2022-08-16T13:40:11Z</time>
      </trkpt>
      <trkpt lat="43.97446" lon="0.48801">
        <ele>203</ele>
        <time>2022-08-16T13:40:20Z</time>
      </trkpt>
      <trkpt lat="43.97449" lon="0.4881">
        <ele>203</ele>
        <time>2022-08-16T13:40:27Z</time>
      </trkpt>
      <trkpt lat="43.97459" lon="0.48863">
        <ele>201</ele>
        <time>2022-08-16T13:41:03Z</time>
      </trkpt>
      <trkpt lat="43.97469" lon="0.48918">
        <ele>199</ele>
        <time>2022-08-16T13:41:38Z</time>
      </trkpt>
      <trkpt lat="43.97472" lon="0.48941">
        <ele>199</ele>
        <time>2022-08-16T13:41:52Z</time>
      </trkpt>
      <trkpt lat="43.97478" lon="0.48962">
        <ele>198</ele>
        <time>2022-08-16T13:42:05Z</time>
      </trkpt>
      <trkpt lat="43.9748" lon="0.48991">
        <ele>198</ele>
        <time>2022-08-16T13:42:24Z</time>
      </trkpt>
      <trkpt lat="43.97488" lon="0.49027">
        <ele>197</ele>
        <time>2022-08-16T13:42:46Z</time>
      </trkpt>
      <trkpt lat="43.9749" lon="0.4904">
        <ele>196</ele>
        <time>2022-08-16T13:42:54Z</time>
      </trkpt>
      <trkpt lat="43.97493" lon="0.49053">
        <ele>196</ele>
        <time>2022-08-16T13:43:02Z</time>
      </trkpt>
      <trkpt lat="43.97495" lon="0.49059">
        <ele>195</ele>
        <time>2022-08-16T13:43:07Z</time>
      </trkpt>
      <trkpt lat="43.97503" lon="0.49111">
        <ele>194</ele>
        <time>2022-08-16T13:43:39Z</time>
      </trkpt>
      <trkpt lat="43.97506" lon="0.49124">
        <ele>193</ele>
        <time>2022-08-16T13:43:47Z</time>
      </trkpt>
      <trkpt lat="43.97506" lon="0.49132">
        <ele>193</ele>
        <time>2022-08-16T13:43:52Z</time>
      </trkpt>
      <trkpt lat="43.97508" lon="0.49138">
        <ele>192</ele>
        <time>2022-08-16T13:43:56Z</time>
      </trkpt>
      <trkpt lat="43.97508" lon="0.49146">
        <ele>192</ele>
        <time>2022-08-16T13:44:00Z</time>
      </trkpt>
      <trkpt lat="43.97518" lon="0.4917">
        <ele>191</ele>
        <time>2022-08-16T13:44:17Z</time>
      </trkpt>
      <trkpt lat="43.97542" lon="0.49198">
        <ele>190</ele>
        <time>2022-08-16T13:44:43Z</time>
      </trkpt>
      <trkpt lat="43.9756" lon="0.49211">
        <ele>189</ele>
        <time>2022-08-16T13:44:59Z</time>
      </trkpt>
      <trkpt lat="43.97573" lon="0.49219">
        <ele>187</ele>
        <time>2022-08-16T13:45:09Z</time>
      </trkpt>
      <trkpt lat="43.9758" lon="0.49227">
        <ele>186</ele>
        <time>2022-08-16T13:45:18Z</time>
      </trkpt>
      <trkpt lat="43.97594" lon="0.49237">
        <ele>186</ele>
        <time>2022-08-16T13:45:31Z</time>
      </trkpt>
      <trkpt lat="43.97628" lon="0.49278">
        <ele>184</ele>
        <time>2022-08-16T13:46:08Z</time>
      </trkpt>
      <trkpt lat="43.97632" lon="0.49281">
        <ele>184</ele>
        <time>2022-08-16T13:46:13Z</time>
      </trkpt>
      <trkpt lat="43.97637" lon="0.49287">
        <ele>184</ele>
        <time>2022-08-16T13:46:19Z</time>
      </trkpt>
      <trkpt lat="43.97641" lon="0.4929">
        <ele>184</ele>
        <time>2022-08-16T13:46:23Z</time>
      </trkpt>
      <trkpt lat="43.97669" lon="0.49322">
        <ele>183</ele>
        <time>2022-08-16T13:46:55Z</time>
      </trkpt>
      <trkpt lat="43.97684" lon="0.49337">
        <ele>182</ele>
        <time>2022-08-16T13:47:12Z</time>
      </trkpt>
      <trkpt lat="43.9769" lon="0.49348">
        <ele>181</ele>
        <time>2022-08-16T13:47:20Z</time>
      </trkpt>
      <trkpt lat="43.97699" lon="0.49349">
        <ele>181</ele>
        <time>2022-08-16T13:47:42Z</time>
      </trkpt>
      <trkpt lat="43.97703" lon="0.49352">
        <ele>180</ele>
        <time>2022-08-16T13:47:47Z</time>
      </trkpt>
      <trkpt lat="43.97721" lon="0.4937">
        <ele>179</ele>
        <time>2022-08-16T13:48:06Z</time>
      </trkpt>
      <trkpt lat="43.97724" lon="0.49375">
        <ele>178</ele>
        <time>2022-08-16T13:48:10Z</time>
      </trkpt>
      <trkpt lat="43.97734" lon="0.49384">
        <ele>178</ele>
        <time>2022-08-16T13:48:22Z</time>
      </trkpt>
      <trkpt lat="43.97739" lon="0.49387">
        <ele>177</ele>
        <time>2022-08-16T13:48:27Z</time>
      </trkpt>
      <trkpt lat="43.97775" lon="0.49416">
        <ele>176</ele>
        <time>2022-08-16T13:49:04Z</time>
      </trkpt>
      <trkpt lat="43.97809" lon="0.49441">
        <ele>176</ele>
        <time>2022-08-16T13:49:38Z</time>
      </trkpt>
      <trkpt lat="43.97849" lon="0.49462">
        <ele>175</ele>
        <time>2022-08-16T13:50:11Z</time>
      </trkpt>
      <trkpt lat="43.97863" lon="0.49472">
        <ele>175</ele>
        <time>2022-08-16T13:50:23Z</time>
      </trkpt>
      <trkpt lat="43.97867" lon="0.49476">
        <ele>175</ele>
        <time>2022-08-16T13:50:28Z</time>
      </trkpt>
      <trkpt lat="43.97872" lon="0.49479">
        <ele>175</ele>
        <time>2022-08-16T13:50:33Z</time>
      </trkpt>
      <trkpt lat="43.97876" lon="0.49484">
        <ele>175</ele>
        <time>2022-08-16T13:50:38Z</time>
      </trkpt>
      <trkpt lat="43.9788" lon="0.49486">
        <ele>175</ele>
        <time>2022-08-16T13:50:55Z</time>
      </trkpt>
      <trkpt lat="43.97885" lon="0.4949">
        <ele>175</ele>
        <time>2022-08-16T13:51:00Z</time>
      </trkpt>
      <trkpt lat="43.9789" lon="0.49493">
        <ele>174</ele>
        <time>2022-08-16T13:51:04Z</time>
      </trkpt>
      <trkpt lat="43.97904" lon="0.49504">
        <ele>174</ele>
        <time>2022-08-16T13:51:22Z</time>
      </trkpt>
      <trkpt lat="43.97905" lon="0.49511">
        <ele>174</ele>
        <time>2022-08-16T13:51:27Z</time>
      </trkpt>
      <trkpt lat="43.9791" lon="0.49509">
        <ele>175</ele>
        <time>2022-08-16T13:51:47Z</time>
      </trkpt>
      <trkpt lat="43.97919" lon="0.49513">
        <ele>175</ele>
        <time>2022-08-16T13:51:57Z</time>
      </trkpt>
      <trkpt lat="43.97932" lon="0.49517">
        <ele>175</ele>
        <time>2022-08-16T13:52:17Z</time>
      </trkpt>
      <trkpt lat="43.97961" lon="0.49519">
        <ele>176</ele>
        <time>2022-08-16T13:52:42Z</time>
      </trkpt>
      <trkpt lat="43.97975" lon="0.49518">
        <ele>177</ele>
        <time>2022-08-16T13:52:55Z</time>
      </trkpt>
      <trkpt lat="43.97989" lon="0.49518">
        <ele>177</ele>
        <time>2022-08-16T13:53:07Z</time>
      </trkpt>
      <trkpt lat="43.97995" lon="0.49519">
        <ele>178</ele>
        <time>2022-08-16T13:53:14Z</time>
      </trkpt>
      <trkpt lat="43.98011" lon="0.49519">
        <ele>179</ele>
        <time>2022-08-16T13:53:26Z</time>
      </trkpt>
      <trkpt lat="43.98017" lon="0.4952">
        <ele>179</ele>
        <time>2022-08-16T13:53:31Z</time>
      </trkpt>
      <trkpt lat="43.98055" lon="0.49523">
        <ele>182</ele>
        <time>2022-08-16T13:54:05Z</time>
      </trkpt>
      <trkpt lat="43.98077" lon="0.49525">
        <ele>182</ele>
        <time>2022-08-16T13:54:25Z</time>
      </trkpt>
      <trkpt lat="43.98081" lon="0.4955">
        <ele>180</ele>
        <time>2022-08-16T13:54:48Z</time>
      </trkpt>
      <trkpt lat="43.98076" lon="0.49557">
        <ele>181</ele>
        <time>2022-08-16T13:55:29Z</time>
      </trkpt>
      <trkpt lat="43.98046" lon="0.49581">
        <ele>182</ele>
        <time>2022-08-16T13:55:59Z</time>
      </trkpt>
      <trkpt lat="43.98041" lon="0.49585">
        <ele>182</ele>
        <time>2022-08-16T13:56:03Z</time>
      </trkpt>
      <trkpt lat="43.9804" lon="0.49593">
        <ele>182</ele>
        <time>2022-08-16T13:56:08Z</time>
      </trkpt>
      <trkpt lat="43.98031" lon="0.49632">
        <ele>181</ele>
        <time>2022-08-16T13:56:40Z</time>
      </trkpt>
      <trkpt lat="43.9802" lon="0.49669">
        <ele>181</ele>
        <time>2022-08-16T13:57:06Z</time>
      </trkpt>
      <trkpt lat="43.98023" lon="0.49677">
        <ele>180</ele>
        <time>2022-08-16T13:57:12Z</time>
      </trkpt>
      <trkpt lat="43.9803" lon="0.49685">
        <ele>179</ele>
        <time>2022-08-16T13:57:20Z</time>
      </trkpt>
      <trkpt lat="43.98038" lon="0.49694">
        <ele>179</ele>
        <time>2022-08-16T13:57:29Z</time>
      </trkpt>
      <trkpt lat="43.98044" lon="0.49704">
        <ele>180</ele>
        <time>2022-08-16T13:57:39Z</time>
      </trkpt>
      <trkpt lat="43.98071" lon="0.49738">
        <ele>182</ele>
        <time>2022-08-16T13:58:13Z</time>
      </trkpt>
      <trkpt lat="43.98099" lon="0.49767">
        <ele>184</ele>
        <time>2022-08-16T13:58:48Z</time>
      </trkpt>
      <trkpt lat="43.98104" lon="0.49773">
        <ele>185</ele>
        <time>2022-08-16T13:58:56Z</time>
      </trkpt>
      <trkpt lat="43.98107" lon="0.49781">
        <ele>185</ele>
        <time>2022-08-16T13:59:08Z</time>
      </trkpt>
      <trkpt lat="43.98108" lon="0.49787">
        <ele>185</ele>
        <time>2022-08-16T13:59:14Z</time>
      </trkpt>
      <trkpt lat="43.98106" lon="0.49799">
        <ele>186</ele>
        <time>2022-08-16T13:59:25Z</time>
      </trkpt>
      <trkpt lat="43.98106" lon="0.49807">
        <ele>186</ele>
        <time>2022-08-16T13:59:30Z</time>
      </trkpt>
      <trkpt lat="43.9811" lon="0.49822">
        <ele>186</ele>
        <time>2022-08-16T13:59:40Z</time>
      </trkpt>
      <trkpt lat="43.98111" lon="0.49828">
        <ele>187</ele>
        <time>2022-08-16T14:00:22Z</time>
      </trkpt>
      <trkpt lat="43.98128" lon="0.4986">
        <ele>188</ele>
        <time>2022-08-16T14:00:50Z</time>
      </trkpt>
      <trkpt lat="43.98132" lon="0.49863">
        <ele>188</ele>
        <time>2022-08-16T14:00:54Z</time>
      </trkpt>
      <trkpt lat="43.98138" lon="0.49869">
        <ele>189</ele>
        <time>2022-08-16T14:01:02Z</time>
      </trkpt>
      <trkpt lat="43.98145" lon="0.49884">
        <ele>190</ele>
        <time>2022-08-16T14:01:12Z</time>
      </trkpt>
      <trkpt lat="43.98151" lon="0.49897">
        <ele>192</ele>
        <time>2022-08-16T14:01:30Z</time>
      </trkpt>
      <trkpt lat="43.98154" lon="0.4989">
        <ele>192</ele>
        <time>2022-08-16T14:01:35Z</time>
      </trkpt>
      <trkpt lat="43.98157" lon="0.49882">
        <ele>192</ele>
        <time>2022-08-16T14:01:42Z</time>
      </trkpt>
      <trkpt lat="43.98155" lon="0.49872">
        <ele>192</ele>
        <time>2022-08-16T14:01:52Z</time>
      </trkpt>
      <trkpt lat="43.98147" lon="0.49863">
        <ele>192</ele>
        <time>2022-08-16T14:02:01Z</time>
      </trkpt>
      <trkpt lat="43.98146" lon="0.49855">
        <ele>193</ele>
        <time>2022-08-16T14:02:22Z</time>
      </trkpt>
      <trkpt lat="43.98153" lon="0.49861">
        <ele>192</ele>
        <time>2022-08-16T14:02:28Z</time>
      </trkpt>
      <trkpt lat="43.98159" lon="0.49866">
        <ele>192</ele>
        <time>2022-08-16T14:02:34Z</time>
      </trkpt>
      <trkpt lat="43.98165" lon="0.49863">
        <ele>192</ele>
        <time>2022-08-16T14:02:52Z</time>
      </trkpt>
      <trkpt lat="43.98166" lon="0.4984">
        <ele>195</ele>
        <time>2022-08-16T14:09:58Z</time>
      </trkpt>
      <trkpt lat="43.98154" lon="0.49839">
        <ele>188</ele>
        <time>2022-08-16T14:20:48Z</time>
      </trkpt>
      <trkpt lat="43.98136" lon="0.49835">
        <ele>188</ele>
        <time>2022-08-16T14:21:19Z</time>
      </trkpt>
      <trkpt lat="43.9815" lon="0.49822">
        <ele>188</ele>
        <time>2022-08-16T14:21:58Z</time>
      </trkpt>
      <trkpt lat="43.98169" lon="0.49835">
        <ele>189</ele>
        <time>2022-08-16T14:22:32Z</time>
      </trkpt>
      <trkpt lat="43.98172" lon="0.49825">
        <ele>189</ele>
        <time>2022-08-16T14:22:55Z</time>
      </trkpt>
      <trkpt lat="43.98164" lon="0.49819">
        <ele>190</ele>
        <time>2022-08-16T14:23:23Z</time>
      </trkpt>
      <trkpt lat="43.98166" lon="0.49809">
        <ele>190</ele>
        <time>2022-08-16T14:24:26Z</time>
      </trkpt>
      <trkpt lat="43.98161" lon="0.49806">
        <ele>190</ele>
        <time>2022-08-16T14:25:02Z</time>
      </trkpt>
      <trkpt lat="43.9816" lon="0.49809">
        <ele>189</ele>
        <time>2022-08-16T14:26:29Z</time>
      </trkpt>
      <trkpt lat="43.98137" lon="0.4984">
        <ele>186</ele>
        <time>2022-08-16T14:39:43Z</time>
      </trkpt>
      <trkpt lat="43.9813" lon="0.49835">
        <ele>187</ele>
        <time>2022-08-16T14:39:56Z</time>
      </trkpt>
      <trkpt lat="43.98127" lon="0.49827">
        <ele>199</ele>
        <time>2022-08-16T14:43:41Z</time>
      </trkpt>
      <trkpt lat="43.9815" lon="0.49809">
        <ele>187</ele>
        <time>2022-08-16T14:51:34Z</time>
      </trkpt>
      <trkpt lat="43.98144" lon="0.49805">
        <ele>187</ele>
        <time>2022-08-16T14:51:52Z</time>
      </trkpt>
      <trkpt lat="43.98135" lon="0.49815">
        <ele>187</ele>
        <time>2022-08-16T14:53:00Z</time>
      </trkpt>
      <trkpt lat="43.9813" lon="0.49822">
        <ele>188</ele>
        <time>2022-08-16T14:53:10Z</time>
      </trkpt>
      <trkpt lat="43.98127" lon="0.49833">
        <ele>188</ele>
        <time>2022-08-16T14:53:21Z</time>
      </trkpt>
      <trkpt lat="43.98128" lon="0.49841">
        <ele>188</ele>
        <time>2022-08-16T14:53:27Z</time>
      </trkpt>
      <trkpt lat="43.98133" lon="0.49861">
        <ele>188</ele>
        <time>2022-08-16T14:53:42Z</time>
      </trkpt>
      <trkpt lat="43.98139" lon="0.49857">
        <ele>189</ele>
        <time>2022-08-16T14:53:49Z</time>
      </trkpt>
      <trkpt lat="43.98139" lon="0.49844">
        <ele>189</ele>
        <time>2022-08-16T14:54:03Z</time>
      </trkpt>
      <trkpt lat="43.98152" lon="0.49847">
        <ele>189</ele>
        <time>2022-08-16T14:54:24Z</time>
      </trkpt>
      <trkpt lat="43.98161" lon="0.49849">
        <ele>189</ele>
        <time>2022-08-16T14:54:38Z</time>
      </trkpt>
      <trkpt lat="43.98167" lon="0.49858">
        <ele>189</ele>
        <time>2022-08-16T14:58:15Z</time>
      </trkpt>
      <trkpt lat="43.98176" lon="0.49843">
        <ele>190</ele>
        <time>2022-08-16T14:58:39Z</time>
      </trkpt>
      <trkpt lat="43.9819" lon="0.49822">
        <ele>189</ele>
        <time>2022-08-16T14:59:01Z</time>
      </trkpt>
      <trkpt lat="43.98189" lon="0.49814">
        <ele>189</ele>
        <time>2022-08-16T14:59:18Z</time>
      </trkpt>
      <trkpt lat="43.98185" lon="0.49804">
        <ele>190</ele>
        <time>2022-08-16T14:59:29Z</time>
      </trkpt>
      <trkpt lat="43.98187" lon="0.49797">
        <ele>190</ele>
        <time>2022-08-16T14:59:40Z</time>
      </trkpt>
      <trkpt lat="43.9819" lon="0.49789">
        <ele>190</ele>
        <time>2022-08-16T14:59:54Z</time>
      </trkpt>
      <trkpt lat="43.98196" lon="0.4978">
        <ele>190</ele>
        <time>2022-08-16T15:00:15Z</time>
      </trkpt>
      <trkpt lat="43.98198" lon="0.49774">
        <ele>190</ele>
        <time>2022-08-16T15:00:20Z</time>
      </trkpt>
      <trkpt lat="43.98201" lon="0.49768">
        <ele>190</ele>
        <time>2022-08-16T15:00:28Z</time>
      </trkpt>
      <trkpt lat="43.98202" lon="0.49762">
        <ele>190</ele>
        <time>2022-08-16T15:01:39Z</time>
      </trkpt>
      <trkpt lat="43.98202" lon="0.49763">
        <ele>190</ele>
        <time>2022-08-16T15:03:19Z</time>
      </trkpt>
      <trkpt lat="43.98202" lon="0.49767">
        <ele>190</ele>
        <time>2022-08-16T15:04:30Z</time>
      </trkpt>
      <trkpt lat="43.98204" lon="0.49764">
        <ele>191</ele>
        <time>2022-08-16T15:06:02Z</time>
      </trkpt>
      <trkpt lat="43.98209" lon="0.49749">
        <ele>191</ele>
        <time>2022-08-16T15:06:14Z</time>
      </trkpt>
      <trkpt lat="43.98232" lon="0.49765">
        <ele>190</ele>
        <time>2022-08-16T15:06:44Z</time>
      </trkpt>
      <trkpt lat="43.9825" lon="0.49778">
        <ele>188</ele>
        <time>2022-08-16T15:07:02Z</time>
      </trkpt>
      <trkpt lat="43.98252" lon="0.49768">
        <ele>188</ele>
        <time>2022-08-16T15:07:13Z</time>
      </trkpt>
      <trkpt lat="43.98258" lon="0.49763">
        <ele>188</ele>
        <time>2022-08-16T15:07:20Z</time>
      </trkpt>
      <trkpt lat="43.98263" lon="0.4975">
        <ele>187</ele>
        <time>2022-08-16T15:07:29Z</time>
      </trkpt>
      <trkpt lat="43.98263" lon="0.49743">
        <ele>187</ele>
        <time>2022-08-16T15:07:34Z</time>
      </trkpt>
      <trkpt lat="43.98265" lon="0.49736">
        <ele>187</ele>
        <time>2022-08-16T15:07:39Z</time>
      </trkpt>
      <trkpt lat="43.98266" lon="0.49728">
        <ele>186</ele>
        <time>2022-08-16T15:07:51Z</time>
      </trkpt>
      <trkpt lat="43.98265" lon="0.49722">
        <ele>186</ele>
        <time>2022-08-16T15:08:01Z</time>
      </trkpt>
      <trkpt lat="43.98264" lon="0.49701">
        <ele>185</ele>
        <time>2022-08-16T15:08:17Z</time>
      </trkpt>
      <trkpt lat="43.98263" lon="0.49694">
        <ele>186</ele>
        <time>2022-08-16T15:08:22Z</time>
      </trkpt>
      <trkpt lat="43.98263" lon="0.49686">
        <ele>185</ele>
        <time>2022-08-16T15:08:29Z</time>
      </trkpt>
      <trkpt lat="43.98262" lon="0.4968">
        <ele>185</ele>
        <time>2022-08-16T15:08:33Z</time>
      </trkpt>
      <trkpt lat="43.98259" lon="0.49674">
        <ele>186</ele>
        <time>2022-08-16T15:08:37Z</time>
      </trkpt>
      <trkpt lat="43.98257" lon="0.49667">
        <ele>185</ele>
        <time>2022-08-16T15:08:42Z</time>
      </trkpt>
      <trkpt lat="43.98252" lon="0.49639">
        <ele>186</ele>
        <time>2022-08-16T15:09:00Z</time>
      </trkpt>
      <trkpt lat="43.98253" lon="0.49633">
        <ele>186</ele>
        <time>2022-08-16T15:09:05Z</time>
      </trkpt>
      <trkpt lat="43.98237" lon="0.49595">
        <ele>187</ele>
        <time>2022-08-16T15:09:31Z</time>
      </trkpt>
      <trkpt lat="43.98228" lon="0.49563">
        <ele>188</ele>
        <time>2022-08-16T15:09:52Z</time>
      </trkpt>
      <trkpt lat="43.98221" lon="0.49546">
        <ele>188</ele>
        <time>2022-08-16T15:10:05Z</time>
      </trkpt>
      <trkpt lat="43.98214" lon="0.49531">
        <ele>190</ele>
        <time>2022-08-16T15:10:16Z</time>
      </trkpt>
      <trkpt lat="43.98205" lon="0.49508">
        <ele>191</ele>
        <time>2022-08-16T15:10:32Z</time>
      </trkpt>
      <trkpt lat="43.982" lon="0.49497">
        <ele>191</ele>
        <time>2022-08-16T15:10:40Z</time>
      </trkpt>
      <trkpt lat="43.98198" lon="0.49491">
        <ele>192</ele>
        <time>2022-08-16T15:10:44Z</time>
      </trkpt>
      <trkpt lat="43.98186" lon="0.49469">
        <ele>193</ele>
        <time>2022-08-16T15:11:00Z</time>
      </trkpt>
      <trkpt lat="43.98185" lon="0.49462">
        <ele>194</ele>
        <time>2022-08-16T15:11:05Z</time>
      </trkpt>
      <trkpt lat="43.98181" lon="0.49449">
        <ele>194</ele>
        <time>2022-08-16T15:11:13Z</time>
      </trkpt>
      <trkpt lat="43.98179" lon="0.49443">
        <ele>194</ele>
        <time>2022-08-16T15:11:17Z</time>
      </trkpt>
      <trkpt lat="43.98175" lon="0.4943">
        <ele>194</ele>
        <time>2022-08-16T15:11:25Z</time>
      </trkpt>
      <trkpt lat="43.98174" lon="0.49423">
        <ele>194</ele>
        <time>2022-08-16T15:11:29Z</time>
      </trkpt>
      <trkpt lat="43.98175" lon="0.49402">
        <ele>194</ele>
        <time>2022-08-16T15:11:41Z</time>
      </trkpt>
      <trkpt lat="43.98173" lon="0.49388">
        <ele>193</ele>
        <time>2022-08-16T15:11:49Z</time>
      </trkpt>
      <trkpt lat="43.98174" lon="0.49382">
        <ele>193</ele>
        <time>2022-08-16T15:11:53Z</time>
      </trkpt>
      <trkpt lat="43.98172" lon="0.4937">
        <ele>193</ele>
        <time>2022-08-16T15:12:01Z</time>
      </trkpt>
      <trkpt lat="43.98167" lon="0.49336">
        <ele>193</ele>
        <time>2022-08-16T15:12:20Z</time>
      </trkpt>
      <trkpt lat="43.98168" lon="0.4928">
        <ele>194</ele>
        <time>2022-08-16T15:12:53Z</time>
      </trkpt>
      <trkpt lat="43.98167" lon="0.49267">
        <ele>195</ele>
        <time>2022-08-16T15:13:03Z</time>
      </trkpt>
      <trkpt lat="43.98169" lon="0.49232">
        <ele>197</ele>
        <time>2022-08-16T15:13:24Z</time>
      </trkpt>
      <trkpt lat="43.98168" lon="0.49217">
        <ele>198</ele>
        <time>2022-08-16T15:13:33Z</time>
      </trkpt>
      <trkpt lat="43.98171" lon="0.49179">
        <ele>199</ele>
        <time>2022-08-16T15:14:01Z</time>
      </trkpt>
      <trkpt lat="43.98172" lon="0.49156">
        <ele>200</ele>
        <time>2022-08-16T15:14:16Z</time>
      </trkpt>
      <trkpt lat="43.98173" lon="0.49143">
        <ele>201</ele>
        <time>2022-08-16T15:14:25Z</time>
      </trkpt>
      <trkpt lat="43.98172" lon="0.49115">
        <ele>202</ele>
        <time>2022-08-16T15:14:42Z</time>
      </trkpt>
      <trkpt lat="43.98175" lon="0.49101">
        <ele>202</ele>
        <time>2022-08-16T15:14:51Z</time>
      </trkpt>
      <trkpt lat="43.98173" lon="0.49055">
        <ele>204</ele>
        <time>2022-08-16T15:15:24Z</time>
      </trkpt>
      <trkpt lat="43.98176" lon="0.48999">
        <ele>206</ele>
        <time>2022-08-16T15:15:56Z</time>
      </trkpt>
      <trkpt lat="43.98183" lon="0.48946">
        <ele>207</ele>
        <time>2022-08-16T15:16:28Z</time>
      </trkpt>
      <trkpt lat="43.98185" lon="0.48932">
        <ele>208</ele>
        <time>2022-08-16T15:16:36Z</time>
      </trkpt>
      <trkpt lat="43.98186" lon="0.48925">
        <ele>207</ele>
        <time>2022-08-16T15:16:40Z</time>
      </trkpt>
      <trkpt lat="43.98185" lon="0.48919">
        <ele>207</ele>
        <time>2022-08-16T15:16:44Z</time>
      </trkpt>
      <trkpt lat="43.98187" lon="0.48914">
        <ele>208</ele>
        <time>2022-08-16T15:16:48Z</time>
      </trkpt>
      <trkpt lat="43.98189" lon="0.48905">
        <ele>208</ele>
        <time>2022-08-16T15:16:54Z</time>
      </trkpt>
      <trkpt lat="43.98189" lon="0.48897">
        <ele>208</ele>
        <time>2022-08-16T15:16:58Z</time>
      </trkpt>
      <trkpt lat="43.98191" lon="0.48891">
        <ele>207</ele>
        <time>2022-08-16T15:17:01Z</time>
      </trkpt>
      <trkpt lat="43.98193" lon="0.48885">
        <ele>207</ele>
        <time>2022-08-16T15:17:04Z</time>
      </trkpt>
      <trkpt lat="43.98193" lon="0.48879">
        <ele>208</ele>
        <time>2022-08-16T15:17:08Z</time>
      </trkpt>
      <trkpt lat="43.98202" lon="0.48825">
        <ele>208</ele>
        <time>2022-08-16T15:17:40Z</time>
      </trkpt>
      <trkpt lat="43.98203" lon="0.48818">
        <ele>209</ele>
        <time>2022-08-16T15:17:44Z</time>
      </trkpt>
      <trkpt lat="43.98205" lon="0.48805">
        <ele>209</ele>
        <time>2022-08-16T15:17:52Z</time>
      </trkpt>
      <trkpt lat="43.98204" lon="0.48799">
        <ele>209</ele>
        <time>2022-08-16T15:17:55Z</time>
      </trkpt>
      <trkpt lat="43.98205" lon="0.48792">
        <ele>208</ele>
        <time>2022-08-16T15:17:58Z</time>
      </trkpt>
      <trkpt lat="43.98205" lon="0.48785">
        <ele>208</ele>
        <time>2022-08-16T15:18:02Z</time>
      </trkpt>
      <trkpt lat="43.98205" lon="0.48756">
        <ele>210</ele>
        <time>2022-08-16T15:18:19Z</time>
      </trkpt>
      <trkpt lat="43.98206" lon="0.4875">
        <ele>210</ele>
        <time>2022-08-16T15:18:23Z</time>
      </trkpt>
      <trkpt lat="43.98206" lon="0.48736">
        <ele>210</ele>
        <time>2022-08-16T15:18:31Z</time>
      </trkpt>
      <trkpt lat="43.98202" lon="0.48725">
        <ele>209</ele>
        <time>2022-08-16T15:18:38Z</time>
      </trkpt>
      <trkpt lat="43.98203" lon="0.48704">
        <ele>210</ele>
        <time>2022-08-16T15:18:51Z</time>
      </trkpt>
      <trkpt lat="43.98206" lon="0.48691">
        <ele>210</ele>
        <time>2022-08-16T15:18:59Z</time>
      </trkpt>
      <trkpt lat="43.98199" lon="0.48653">
        <ele>210</ele>
        <time>2022-08-16T15:19:32Z</time>
      </trkpt>
      <trkpt lat="43.98194" lon="0.48599">
        <ele>211</ele>
        <time>2022-08-16T15:20:05Z</time>
      </trkpt>
      <trkpt lat="43.98192" lon="0.48557">
        <ele>213</ele>
        <time>2022-08-16T15:20:29Z</time>
      </trkpt>
      <trkpt lat="43.98191" lon="0.4855">
        <ele>213</ele>
        <time>2022-08-16T15:20:33Z</time>
      </trkpt>
      <trkpt lat="43.98189" lon="0.48536">
        <ele>214</ele>
        <time>2022-08-16T15:20:42Z</time>
      </trkpt>
      <trkpt lat="43.98184" lon="0.48517">
        <ele>213</ele>
        <time>2022-08-16T15:20:54Z</time>
      </trkpt>
      <trkpt lat="43.98184" lon="0.4851">
        <ele>213</ele>
        <time>2022-08-16T15:20:58Z</time>
      </trkpt>
      <trkpt lat="43.98185" lon="0.48504">
        <ele>213</ele>
        <time>2022-08-16T15:21:02Z</time>
      </trkpt>
      <trkpt lat="43.98188" lon="0.48495">
        <ele>213</ele>
        <time>2022-08-16T15:21:08Z</time>
      </trkpt>
      <trkpt lat="43.98197" lon="0.48479">
        <ele>215</ele>
        <time>2022-08-16T15:21:20Z</time>
      </trkpt>
      <trkpt lat="43.98206" lon="0.48461">
        <ele>215</ele>
        <time>2022-08-16T15:21:31Z</time>
      </trkpt>
      <trkpt lat="43.98213" lon="0.48452">
        <ele>215</ele>
        <time>2022-08-16T15:21:38Z</time>
      </trkpt>
      <trkpt lat="43.98234" lon="0.48404">
        <ele>213</ele>
        <time>2022-08-16T15:22:09Z</time>
      </trkpt>
      <trkpt lat="43.98246" lon="0.48351">
        <ele>210</ele>
        <time>2022-08-16T15:22:41Z</time>
      </trkpt>
      <trkpt lat="43.98249" lon="0.48338">
        <ele>210</ele>
        <time>2022-08-16T15:22:49Z</time>
      </trkpt>
      <trkpt lat="43.98256" lon="0.48305">
        <ele>209</ele>
        <time>2022-08-16T15:23:09Z</time>
      </trkpt>
      <trkpt lat="43.98258" lon="0.483">
        <ele>209</ele>
        <time>2022-08-16T15:23:13Z</time>
      </trkpt>
      <trkpt lat="43.9827" lon="0.48261">
        <ele>208</ele>
        <time>2022-08-16T15:23:36Z</time>
      </trkpt>
      <trkpt lat="43.98273" lon="0.48255">
        <ele>207</ele>
        <time>2022-08-16T15:23:40Z</time>
      </trkpt>
      <trkpt lat="43.98282" lon="0.48229">
        <ele>205</ele>
        <time>2022-08-16T15:23:56Z</time>
      </trkpt>
      <trkpt lat="43.98284" lon="0.48224">
        <ele>205</ele>
        <time>2022-08-16T15:23:59Z</time>
      </trkpt>
      <trkpt lat="43.98287" lon="0.48203">
        <ele>204</ele>
        <time>2022-08-16T15:24:11Z</time>
      </trkpt>
      <trkpt lat="43.98292" lon="0.48131">
        <ele>200</ele>
        <time>2022-08-16T15:24:42Z</time>
      </trkpt>
      <trkpt lat="43.98299" lon="0.48075">
        <ele>196</ele>
        <time>2022-08-16T15:25:13Z</time>
      </trkpt>
      <trkpt lat="43.98305" lon="0.48041">
        <ele>193</ele>
        <time>2022-08-16T15:25:31Z</time>
      </trkpt>
      <trkpt lat="43.98307" lon="0.48027">
        <ele>192</ele>
        <time>2022-08-16T15:25:38Z</time>
      </trkpt>
      <trkpt lat="43.98309" lon="0.48021">
        <ele>191</ele>
        <time>2022-08-16T15:25:42Z</time>
      </trkpt>
      <trkpt lat="43.9831" lon="0.48013">
        <ele>191</ele>
        <time>2022-08-16T15:25:46Z</time>
      </trkpt>
      <trkpt lat="43.98313" lon="0.47992">
        <ele>189</ele>
        <time>2022-08-16T15:25:57Z</time>
      </trkpt>
      <trkpt lat="43.98313" lon="0.47984">
        <ele>188</ele>
        <time>2022-08-16T15:26:01Z</time>
      </trkpt>
      <trkpt lat="43.98325" lon="0.47927">
        <ele>184</ele>
        <time>2022-08-16T15:26:35Z</time>
      </trkpt>
      <trkpt lat="43.98329" lon="0.47898">
        <ele>182</ele>
        <time>2022-08-16T15:26:52Z</time>
      </trkpt>
      <trkpt lat="43.98331" lon="0.47893">
        <ele>182</ele>
        <time>2022-08-16T15:26:55Z</time>
      </trkpt>
      <trkpt lat="43.98339" lon="0.47829">
        <ele>180</ele>
        <time>2022-08-16T15:27:29Z</time>
      </trkpt>
      <trkpt lat="43.98347" lon="0.47771">
        <ele>178</ele>
        <time>2022-08-16T15:28:01Z</time>
      </trkpt>
      <trkpt lat="43.98347" lon="0.47765">
        <ele>178</ele>
        <time>2022-08-16T15:28:05Z</time>
      </trkpt>
      <trkpt lat="43.98353" lon="0.47762">
        <ele>178</ele>
        <time>2022-08-16T15:28:10Z</time>
      </trkpt>
      <trkpt lat="43.98394" lon="0.4776">
        <ele>179</ele>
        <time>2022-08-16T15:28:41Z</time>
      </trkpt>
      <trkpt lat="43.98429" lon="0.47757">
        <ele>179</ele>
        <time>2022-08-16T15:29:08Z</time>
      </trkpt>
      <trkpt lat="43.9845" lon="0.47755">
        <ele>179</ele>
        <time>2022-08-16T15:29:25Z</time>
      </trkpt>
      <trkpt lat="43.98471" lon="0.47753">
        <ele>178</ele>
        <time>2022-08-16T15:29:41Z</time>
      </trkpt>
      <trkpt lat="43.98509" lon="0.47749">
        <ele>179</ele>
        <time>2022-08-16T15:30:13Z</time>
      </trkpt>
      <trkpt lat="43.98544" lon="0.47745">
        <ele>181</ele>
        <time>2022-08-16T15:30:43Z</time>
      </trkpt>
      <trkpt lat="43.98549" lon="0.47743">
        <ele>181</ele>
        <time>2022-08-16T15:30:48Z</time>
      </trkpt>
      <trkpt lat="43.9855" lon="0.47731">
        <ele>182</ele>
        <time>2022-08-16T15:31:11Z</time>
      </trkpt>
      <trkpt lat="43.98554" lon="0.4771">
        <ele>181</ele>
        <time>2022-08-16T15:31:26Z</time>
      </trkpt>
      <trkpt lat="43.98558" lon="0.47677">
        <ele>181</ele>
        <time>2022-08-16T15:31:46Z</time>
      </trkpt>
      <trkpt lat="43.98564" lon="0.47644">
        <ele>179</ele>
        <time>2022-08-16T15:32:07Z</time>
      </trkpt>
      <trkpt lat="43.98567" lon="0.47624">
        <ele>179</ele>
        <time>2022-08-16T15:32:18Z</time>
      </trkpt>
      <trkpt lat="43.98569" lon="0.47618">
        <ele>179</ele>
        <time>2022-08-16T15:32:23Z</time>
      </trkpt>
      <trkpt lat="43.98569" lon="0.47611">
        <ele>179</ele>
        <time>2022-08-16T15:32:26Z</time>
      </trkpt>
      <trkpt lat="43.98571" lon="0.47605">
        <ele>179</ele>
        <time>2022-08-16T15:32:30Z</time>
      </trkpt>
      <trkpt lat="43.98574" lon="0.47591">
        <ele>179</ele>
        <time>2022-08-16T15:32:38Z</time>
      </trkpt>
      <trkpt lat="43.9858" lon="0.47538">
        <ele>178</ele>
        <time>2022-08-16T15:33:09Z</time>
      </trkpt>
      <trkpt lat="43.98578" lon="0.47531">
        <ele>178</ele>
        <time>2022-08-16T15:33:13Z</time>
      </trkpt>
      <trkpt lat="43.98576" lon="0.47526">
        <ele>178</ele>
        <time>2022-08-16T15:33:17Z</time>
      </trkpt>
      <trkpt lat="43.98554" lon="0.47486">
        <ele>175</ele>
        <time>2022-08-16T15:33:49Z</time>
      </trkpt>
      <trkpt lat="43.98551" lon="0.4748">
        <ele>175</ele>
        <time>2022-08-16T15:33:53Z</time>
      </trkpt>
      <trkpt lat="43.98547" lon="0.47476">
        <ele>174</ele>
        <time>2022-08-16T15:33:57Z</time>
      </trkpt>
      <trkpt lat="43.98542" lon="0.47463">
        <ele>174</ele>
        <time>2022-08-16T15:34:05Z</time>
      </trkpt>
      <trkpt lat="43.9854" lon="0.47449">
        <ele>172</ele>
        <time>2022-08-16T15:34:14Z</time>
      </trkpt>
      <trkpt lat="43.98542" lon="0.47443">
        <ele>172</ele>
        <time>2022-08-16T15:34:18Z</time>
      </trkpt>
      <trkpt lat="43.98539" lon="0.47407">
        <ele>169</ele>
        <time>2022-08-16T15:34:38Z</time>
      </trkpt>
      <trkpt lat="43.9854" lon="0.47398">
        <ele>169</ele>
        <time>2022-08-16T15:34:43Z</time>
      </trkpt>
      <trkpt lat="43.9854" lon="0.47384">
        <ele>169</ele>
        <time>2022-08-16T15:34:49Z</time>
      </trkpt>
      <trkpt lat="43.98533" lon="0.47346">
        <ele>167</ele>
        <time>2022-08-16T15:35:09Z</time>
      </trkpt>
      <trkpt lat="43.98514" lon="0.47302">
        <ele>166</ele>
        <time>2022-08-16T15:35:40Z</time>
      </trkpt>
      <trkpt lat="43.98507" lon="0.47284">
        <ele>165</ele>
        <time>2022-08-16T15:35:55Z</time>
      </trkpt>
      <trkpt lat="43.98506" lon="0.47277">
        <ele>165</ele>
        <time>2022-08-16T15:36:00Z</time>
      </trkpt>
      <trkpt lat="43.98505" lon="0.47262">
        <ele>165</ele>
        <time>2022-08-16T15:36:09Z</time>
      </trkpt>
      <trkpt lat="43.98488" lon="0.47214">
        <ele>161</ele>
        <time>2022-08-16T15:36:43Z</time>
      </trkpt>
      <trkpt lat="43.98476" lon="0.47188">
        <ele>160</ele>
        <time>2022-08-16T15:37:02Z</time>
      </trkpt>
      <trkpt lat="43.98473" lon="0.47178">
        <ele>161</ele>
        <time>2022-08-16T15:37:10Z</time>
      </trkpt>
      <trkpt lat="43.98471" lon="0.47171">
        <ele>161</ele>
        <time>2022-08-16T15:37:14Z</time>
      </trkpt>
      <trkpt lat="43.98453" lon="0.47132">
        <ele>159</ele>
        <time>2022-08-16T15:37:41Z</time>
      </trkpt>
      <trkpt lat="43.98442" lon="0.47091">
        <ele>158</ele>
        <time>2022-08-16T15:38:07Z</time>
      </trkpt>
      <trkpt lat="43.9843" lon="0.4706">
        <ele>158</ele>
        <time>2022-08-16T15:38:38Z</time>
      </trkpt>
      <trkpt lat="43.98427" lon="0.47055">
        <ele>158</ele>
        <time>2022-08-16T15:38:42Z</time>
      </trkpt>
      <trkpt lat="43.98425" lon="0.47049">
        <ele>158</ele>
        <time>2022-08-16T15:38:46Z</time>
      </trkpt>
      <trkpt lat="43.98409" lon="0.47031">
        <ele>156</ele>
        <time>2022-08-16T15:39:04Z</time>
      </trkpt>
      <trkpt lat="43.984" lon="0.47024">
        <ele>155</ele>
        <time>2022-08-16T15:39:10Z</time>
      </trkpt>
      <trkpt lat="43.98394" lon="0.47016">
        <ele>155</ele>
        <time>2022-08-16T15:39:16Z</time>
      </trkpt>
      <trkpt lat="43.9839" lon="0.47011">
        <ele>155</ele>
        <time>2022-08-16T15:39:20Z</time>
      </trkpt>
      <trkpt lat="43.98376" lon="0.46993">
        <ele>154</ele>
        <time>2022-08-16T15:39:35Z</time>
      </trkpt>
      <trkpt lat="43.98367" lon="0.46985">
        <ele>155</ele>
        <time>2022-08-16T15:39:42Z</time>
      </trkpt>
      <trkpt lat="43.98353" lon="0.46965">
        <ele>155</ele>
        <time>2022-08-16T15:39:57Z</time>
      </trkpt>
      <trkpt lat="43.98342" lon="0.46941">
        <ele>154</ele>
        <time>2022-08-16T15:40:13Z</time>
      </trkpt>
      <trkpt lat="43.98336" lon="0.46921">
        <ele>153</ele>
        <time>2022-08-16T15:40:25Z</time>
      </trkpt>
      <trkpt lat="43.98333" lon="0.46916">
        <ele>153</ele>
        <time>2022-08-16T15:40:28Z</time>
      </trkpt>
      <trkpt lat="43.98318" lon="0.46859">
        <ele>151</ele>
        <time>2022-08-16T15:41:00Z</time>
      </trkpt>
      <trkpt lat="43.98312" lon="0.46841">
        <ele>151</ele>
        <time>2022-08-16T15:41:09Z</time>
      </trkpt>
      <trkpt lat="43.9831" lon="0.46836">
        <ele>150</ele>
        <time>2022-08-16T15:41:12Z</time>
      </trkpt>
      <trkpt lat="43.98309" lon="0.46829">
        <ele>150</ele>
        <time>2022-08-16T15:41:15Z</time>
      </trkpt>
      <trkpt lat="43.98304" lon="0.46816">
        <ele>149</ele>
        <time>2022-08-16T15:41:23Z</time>
      </trkpt>
      <trkpt lat="43.98298" lon="0.46783">
        <ele>148</ele>
        <time>2022-08-16T15:41:46Z</time>
      </trkpt>
      <trkpt lat="43.98294" lon="0.4678">
        <ele>148</ele>
        <time>2022-08-16T15:41:50Z</time>
      </trkpt>
      <trkpt lat="43.98281" lon="0.46774">
        <ele>146</ele>
        <time>2022-08-16T15:42:02Z</time>
      </trkpt>
      <trkpt lat="43.98276" lon="0.4677">
        <ele>145</ele>
        <time>2022-08-16T15:42:06Z</time>
      </trkpt>
      <trkpt lat="43.9824" lon="0.46746">
        <ele>140</ele>
        <time>2022-08-16T15:42:36Z</time>
      </trkpt>
      <trkpt lat="43.98205" lon="0.46719">
        <ele>135</ele>
        <time>2022-08-16T15:43:08Z</time>
      </trkpt>
      <trkpt lat="43.98185" lon="0.46704">
        <ele>133</ele>
        <time>2022-08-16T15:43:34Z</time>
      </trkpt>
      <trkpt lat="43.98175" lon="0.4669">
        <ele>132</ele>
        <time>2022-08-16T15:43:47Z</time>
      </trkpt>
      <trkpt lat="43.98171" lon="0.46684">
        <ele>132</ele>
        <time>2022-08-16T15:43:51Z</time>
      </trkpt>
      <trkpt lat="43.98165" lon="0.4667">
        <ele>132</ele>
        <time>2022-08-16T15:44:03Z</time>
      </trkpt>
      <trkpt lat="43.98163" lon="0.46664">
        <ele>132</ele>
        <time>2022-08-16T15:44:07Z</time>
      </trkpt>
      <trkpt lat="43.9814" lon="0.46613">
        <ele>132</ele>
        <time>2022-08-16T15:44:37Z</time>
      </trkpt>
      <trkpt lat="43.98134" lon="0.46602">
        <ele>133</ele>
        <time>2022-08-16T15:44:45Z</time>
      </trkpt>
      <trkpt lat="43.98124" lon="0.46576">
        <ele>135</ele>
        <time>2022-08-16T15:45:02Z</time>
      </trkpt>
      <trkpt lat="43.9811" lon="0.46546">
        <ele>137</ele>
        <time>2022-08-16T15:45:31Z</time>
      </trkpt>
      <trkpt lat="43.98109" lon="0.46539">
        <ele>138</ele>
        <time>2022-08-16T15:45:39Z</time>
      </trkpt>
      <trkpt lat="43.98102" lon="0.46527">
        <ele>139</ele>
        <time>2022-08-16T15:45:50Z</time>
      </trkpt>
      <trkpt lat="43.98099" lon="0.46517">
        <ele>140</ele>
        <time>2022-08-16T15:45:57Z</time>
      </trkpt>
      <trkpt lat="43.98095" lon="0.46506">
        <ele>141</ele>
        <time>2022-08-16T15:46:08Z</time>
      </trkpt>
      <trkpt lat="43.98086" lon="0.46474">
        <ele>143</ele>
        <time>2022-08-16T15:46:30Z</time>
      </trkpt>
      <trkpt lat="43.98084" lon="0.4644">
        <ele>143</ele>
        <time>2022-08-16T15:46:52Z</time>
      </trkpt>
      <trkpt lat="43.98083" lon="0.46414">
        <ele>145</ele>
        <time>2022-08-16T15:47:10Z</time>
      </trkpt>
      <trkpt lat="43.98081" lon="0.46407">
        <ele>146</ele>
        <time>2022-08-16T15:47:14Z</time>
      </trkpt>
      <trkpt lat="43.98082" lon="0.46399">
        <ele>146</ele>
        <time>2022-08-16T15:47:20Z</time>
      </trkpt>
      <trkpt lat="43.98082" lon="0.46393">
        <ele>147</ele>
        <time>2022-08-16T15:47:28Z</time>
      </trkpt>
      <trkpt lat="43.98082" lon="0.46374">
        <ele>147</ele>
        <time>2022-08-16T15:47:40Z</time>
      </trkpt>
      <trkpt lat="43.98079" lon="0.46355">
        <ele>149</ele>
        <time>2022-08-16T15:48:00Z</time>
      </trkpt>
      <trkpt lat="43.98076" lon="0.46348">
        <ele>149</ele>
        <time>2022-08-16T15:48:05Z</time>
      </trkpt>
      <trkpt lat="43.98061" lon="0.46326">
        <ele>152</ele>
        <time>2022-08-16T15:48:37Z</time>
      </trkpt>
      <trkpt lat="43.98057" lon="0.46322">
        <ele>153</ele>
        <time>2022-08-16T15:48:41Z</time>
      </trkpt>
      <trkpt lat="43.98054" lon="0.46315">
        <ele>155</ele>
        <time>2022-08-16T15:48:51Z</time>
      </trkpt>
      <trkpt lat="43.9805" lon="0.4631">
        <ele>156</ele>
        <time>2022-08-16T15:49:02Z</time>
      </trkpt>
      <trkpt lat="43.98047" lon="0.46305">
        <ele>156</ele>
        <time>2022-08-16T15:49:06Z</time>
      </trkpt>
      <trkpt lat="43.98029" lon="0.46284">
        <ele>160</ele>
        <time>2022-08-16T15:49:49Z</time>
      </trkpt>
      <trkpt lat="43.98021" lon="0.46271">
        <ele>162</ele>
        <time>2022-08-16T15:50:23Z</time>
      </trkpt>
      <trkpt lat="43.98015" lon="0.4626">
        <ele>163</ele>
        <time>2022-08-16T15:50:33Z</time>
      </trkpt>
      <trkpt lat="43.98001" lon="0.46216">
        <ele>168</ele>
        <time>2022-08-16T15:51:03Z</time>
      </trkpt>
      <trkpt lat="43.97998" lon="0.46211">
        <ele>168</ele>
        <time>2022-08-16T15:51:07Z</time>
      </trkpt>
      <trkpt lat="43.97986" lon="0.46181">
        <ele>168</ele>
        <time>2022-08-16T15:51:27Z</time>
      </trkpt>
      <trkpt lat="43.97987" lon="0.46174">
        <ele>168</ele>
        <time>2022-08-16T15:51:31Z</time>
      </trkpt>
      <trkpt lat="43.9799" lon="0.46167">
        <ele>169</ele>
        <time>2022-08-16T15:51:35Z</time>
      </trkpt>
      <trkpt lat="43.98008" lon="0.46115">
        <ele>168</ele>
        <time>2022-08-16T15:52:07Z</time>
      </trkpt>
      <trkpt lat="43.98024" lon="0.46066">
        <ele>168</ele>
        <time>2022-08-16T15:52:37Z</time>
      </trkpt>
      <trkpt lat="43.98034" lon="0.46034">
        <ele>168</ele>
        <time>2022-08-16T15:52:57Z</time>
      </trkpt>
      <trkpt lat="43.98039" lon="0.46008">
        <ele>168</ele>
        <time>2022-08-16T15:53:11Z</time>
      </trkpt>
      <trkpt lat="43.98039" lon="0.45974">
        <ele>168</ele>
        <time>2022-08-16T15:53:30Z</time>
      </trkpt>
      <trkpt lat="43.98031" lon="0.45917">
        <ele>168</ele>
        <time>2022-08-16T15:54:00Z</time>
      </trkpt>
      <trkpt lat="43.98029" lon="0.45896">
        <ele>167</ele>
        <time>2022-08-16T15:54:12Z</time>
      </trkpt>
      <trkpt lat="43.98022" lon="0.45854">
        <ele>165</ele>
        <time>2022-08-16T15:54:36Z</time>
      </trkpt>
      <trkpt lat="43.9802" lon="0.45842">
        <ele>165</ele>
        <time>2022-08-16T15:54:42Z</time>
      </trkpt>
      <trkpt lat="43.98009" lon="0.45782">
        <ele>162</ele>
        <time>2022-08-16T15:55:16Z</time>
      </trkpt>
      <trkpt lat="43.97996" lon="0.45732">
        <ele>160</ele>
        <time>2022-08-16T15:55:48Z</time>
      </trkpt>
      <trkpt lat="43.97994" lon="0.45726">
        <ele>159</ele>
        <time>2022-08-16T15:56:02Z</time>
      </trkpt>
      <trkpt lat="43.97988" lon="0.45706">
        <ele>158</ele>
        <time>2022-08-16T15:56:17Z</time>
      </trkpt>
      <trkpt lat="43.97983" lon="0.457">
        <ele>157</ele>
        <time>2022-08-16T15:56:24Z</time>
      </trkpt>
      <trkpt lat="43.9798" lon="0.45695">
        <ele>157</ele>
        <time>2022-08-16T15:56:28Z</time>
      </trkpt>
      <trkpt lat="43.97977" lon="0.45689">
        <ele>157</ele>
        <time>2022-08-16T15:56:32Z</time>
      </trkpt>
      <trkpt lat="43.97976" lon="0.45682">
        <ele>156</ele>
        <time>2022-08-16T15:56:37Z</time>
      </trkpt>
      <trkpt lat="43.97965" lon="0.45656">
        <ele>155</ele>
        <time>2022-08-16T15:56:56Z</time>
      </trkpt>
      <trkpt lat="43.97956" lon="0.45617">
        <ele>153</ele>
        <time>2022-08-16T15:57:21Z</time>
      </trkpt>
      <trkpt lat="43.97957" lon="0.45608">
        <ele>153</ele>
        <time>2022-08-16T15:57:34Z</time>
      </trkpt>
      <trkpt lat="43.97956" lon="0.45601">
        <ele>153</ele>
        <time>2022-08-16T15:57:38Z</time>
      </trkpt>
      <trkpt lat="43.97957" lon="0.45573">
        <ele>150</ele>
        <time>2022-08-16T15:57:56Z</time>
      </trkpt>
      <trkpt lat="43.9796" lon="0.45558">
        <ele>149</ele>
        <time>2022-08-16T15:58:15Z</time>
      </trkpt>
      <trkpt lat="43.97961" lon="0.4555">
        <ele>149</ele>
        <time>2022-08-16T15:58:19Z</time>
      </trkpt>
      <trkpt lat="43.97968" lon="0.45501">
        <ele>147</ele>
        <time>2022-08-16T15:58:49Z</time>
      </trkpt>
      <trkpt lat="43.97971" lon="0.45489">
        <ele>146</ele>
        <time>2022-08-16T15:58:57Z</time>
      </trkpt>
      <trkpt lat="43.97975" lon="0.45459">
        <ele>146</ele>
        <time>2022-08-16T15:59:16Z</time>
      </trkpt>
      <trkpt lat="43.97978" lon="0.4545">
        <ele>146</ele>
        <time>2022-08-16T15:59:41Z</time>
      </trkpt>
      <trkpt lat="43.97981" lon="0.45427">
        <ele>145</ele>
        <time>2022-08-16T15:59:57Z</time>
      </trkpt>
      <trkpt lat="43.97986" lon="0.45408">
        <ele>145</ele>
        <time>2022-08-16T16:00:10Z</time>
      </trkpt>
      <trkpt lat="43.97989" lon="0.4538">
        <ele>144</ele>
        <time>2022-08-16T16:00:27Z</time>
      </trkpt>
    </trkseg>
  </trk>
</gpx>